<?xml version="1.0" encoding="UTF-8" standalone="no" ?>
<gpx xmlns="http://www.topografix.com/GPX/1/1" xmlns:xsi="http://www.w3.org/2001/XMLSchema-instance" xsi:schemaLocation="http://www.topografix.com/GPX/1/1 http://www.topografix.com/GPX/1/1/gpx.xsd" version="1.1" creator="VisuGPX - https://www.visugpx.com">
  <metadata>
    <name>TOUR QUEYRAS_JOUR 7 : SOULIERS-LA CHALP par variante du lac Souliers, crête Côte Belle et Pic Ouest</name>
    <desc><![CDATA[

]]></desc>
  </metadata>
  <trk>
    <name><![CDATA[TOUR QUEYRAS_JOUR 7 : SOULIERS-LA CHALP par variante du lac Souliers, crête Côte Belle et Pic Ouest]]></name>
    <extensions>
      <line xmlns="http://www.topografix.com/GPX/gpx_style/0/2">
        <color>880000</color>
        <width>4</width>
      </line>
    </extensions>
    <trkseg>
      <trkpt lat="44.78037" lon="6.7343">
        <ele>1669.16015625</ele>
      </trkpt>
      <trkpt lat="44.78034" lon="6.73432">
        <ele>1690.62</ele>
        <time>2018-09-16T05:36:40Z</time>
      </trkpt>
      <trkpt lat="44.78036" lon="6.73411">
        <ele>1693.5</ele>
        <time>2018-09-16T05:43:15Z</time>
      </trkpt>
      <trkpt lat="44.78047" lon="6.73406">
        <ele>1693.98</ele>
        <time>2018-09-16T05:43:26Z</time>
      </trkpt>
      <trkpt lat="44.7806" lon="6.73413">
        <ele>1694.94</ele>
        <time>2018-09-16T05:43:39Z</time>
      </trkpt>
      <trkpt lat="44.78071" lon="6.7342">
        <ele>1696.38</ele>
        <time>2018-09-16T05:43:53Z</time>
      </trkpt>
      <trkpt lat="44.78083" lon="6.73429">
        <ele>1697.34</ele>
        <time>2018-09-16T05:44:07Z</time>
      </trkpt>
      <trkpt lat="44.78091" lon="6.73438">
        <ele>1698.31</ele>
        <time>2018-09-16T05:44:18Z</time>
      </trkpt>
      <trkpt lat="44.781" lon="6.7343">
        <ele>1698.79</ele>
        <time>2018-09-16T05:44:29Z</time>
      </trkpt>
      <trkpt lat="44.78106" lon="6.73418">
        <ele>1698.79</ele>
        <time>2018-09-16T05:44:38Z</time>
      </trkpt>
      <trkpt lat="44.78113" lon="6.73408">
        <ele>1698.31</ele>
        <time>2018-09-16T05:44:49Z</time>
      </trkpt>
      <trkpt lat="44.7812" lon="6.73394">
        <ele>1693.98</ele>
        <time>2018-09-16T05:45:14Z</time>
      </trkpt>
      <trkpt lat="44.78114" lon="6.73389">
        <ele>1693.02</ele>
        <time>2018-09-16T05:45:30Z</time>
      </trkpt>
      <trkpt lat="44.78108" lon="6.73381">
        <ele>1693.02</ele>
        <time>2018-09-16T05:45:44Z</time>
      </trkpt>
      <trkpt lat="44.78096" lon="6.73383">
        <ele>1692.54</ele>
        <time>2018-09-16T05:46:12Z</time>
      </trkpt>
      <trkpt lat="44.7809" lon="6.73378">
        <ele>1691.58</ele>
        <time>2018-09-16T05:46:32Z</time>
      </trkpt>
      <trkpt lat="44.78078" lon="6.73378">
        <ele>1691.1</ele>
        <time>2018-09-16T05:46:42Z</time>
      </trkpt>
      <trkpt lat="44.78067" lon="6.73377">
        <ele>1690.62</ele>
        <time>2018-09-16T05:46:51Z</time>
      </trkpt>
      <trkpt lat="44.78057" lon="6.73374">
        <ele>1689.65</ele>
        <time>2018-09-16T05:47:00Z</time>
      </trkpt>
      <trkpt lat="44.78046" lon="6.73372">
        <ele>1689.65</ele>
        <time>2018-09-16T05:47:11Z</time>
      </trkpt>
      <trkpt lat="44.78035" lon="6.73367">
        <ele>1689.17</ele>
        <time>2018-09-16T05:47:23Z</time>
      </trkpt>
      <trkpt lat="44.78026" lon="6.7336">
        <ele>1690.62</ele>
        <time>2018-09-16T05:47:34Z</time>
      </trkpt>
      <trkpt lat="44.78015" lon="6.73357">
        <ele>1693.02</ele>
        <time>2018-09-16T05:47:47Z</time>
      </trkpt>
      <trkpt lat="44.78003" lon="6.73348">
        <ele>1694.46</ele>
        <time>2018-09-16T05:48:02Z</time>
      </trkpt>
      <trkpt lat="44.77993" lon="6.73332">
        <ele>1696.86</ele>
        <time>2018-09-16T05:48:23Z</time>
      </trkpt>
      <trkpt lat="44.77984" lon="6.7331">
        <ele>1701.67</ele>
        <time>2018-09-16T05:48:53Z</time>
      </trkpt>
      <trkpt lat="44.7798" lon="6.73295">
        <ele>1705.04</ele>
        <time>2018-09-16T05:49:13Z</time>
      </trkpt>
      <trkpt lat="44.77971" lon="6.73288">
        <ele>1705.52</ele>
        <time>2018-09-16T05:49:30Z</time>
      </trkpt>
      <trkpt lat="44.7796" lon="6.73289">
        <ele>1704.55</ele>
        <time>2018-09-16T05:49:42Z</time>
      </trkpt>
      <trkpt lat="44.77949" lon="6.73285">
        <ele>1705.52</ele>
        <time>2018-09-16T05:49:55Z</time>
      </trkpt>
      <trkpt lat="44.77936" lon="6.73281">
        <ele>1706.48</ele>
        <time>2018-09-16T05:50:08Z</time>
      </trkpt>
      <trkpt lat="44.77921" lon="6.73279">
        <ele>1707.44</ele>
        <time>2018-09-16T05:50:21Z</time>
      </trkpt>
      <trkpt lat="44.77909" lon="6.7328">
        <ele>1707.92</ele>
        <time>2018-09-16T05:50:33Z</time>
      </trkpt>
      <trkpt lat="44.77897" lon="6.73281">
        <ele>1709.36</ele>
        <time>2018-09-16T05:50:45Z</time>
      </trkpt>
      <trkpt lat="44.77885" lon="6.73286">
        <ele>1711.76</ele>
        <time>2018-09-16T05:50:58Z</time>
      </trkpt>
      <trkpt lat="44.77874" lon="6.73285">
        <ele>1713.21</ele>
        <time>2018-09-16T05:51:12Z</time>
      </trkpt>
      <trkpt lat="44.77864" lon="6.73277">
        <ele>1714.17</ele>
        <time>2018-09-16T05:51:24Z</time>
      </trkpt>
      <trkpt lat="44.77851" lon="6.73273">
        <ele>1716.09</ele>
        <time>2018-09-16T05:51:38Z</time>
      </trkpt>
      <trkpt lat="44.7784" lon="6.73268">
        <ele>1716.57</ele>
        <time>2018-09-16T05:51:50Z</time>
      </trkpt>
      <trkpt lat="44.77833" lon="6.73255">
        <ele>1718.97</ele>
        <time>2018-09-16T05:52:02Z</time>
      </trkpt>
      <trkpt lat="44.77826" lon="6.73246">
        <ele>1719.94</ele>
        <time>2018-09-16T05:52:14Z</time>
      </trkpt>
      <trkpt lat="44.7782" lon="6.73248">
        <ele>1719.46</ele>
        <time>2018-09-16T05:53:57Z</time>
      </trkpt>
      <trkpt lat="44.77809" lon="6.7325">
        <ele>1720.9</ele>
        <time>2018-09-16T05:54:08Z</time>
      </trkpt>
      <trkpt lat="44.77797" lon="6.73249">
        <ele>1722.82</ele>
        <time>2018-09-16T05:54:23Z</time>
      </trkpt>
      <trkpt lat="44.77787" lon="6.73239">
        <ele>1724.74</ele>
        <time>2018-09-16T05:54:36Z</time>
      </trkpt>
      <trkpt lat="44.77778" lon="6.73231">
        <ele>1726.18</ele>
        <time>2018-09-16T05:54:49Z</time>
      </trkpt>
      <trkpt lat="44.77767" lon="6.73224">
        <ele>1728.11</ele>
        <time>2018-09-16T05:55:03Z</time>
      </trkpt>
      <trkpt lat="44.7776" lon="6.73208">
        <ele>1729.55</ele>
        <time>2018-09-16T05:55:17Z</time>
      </trkpt>
      <trkpt lat="44.77751" lon="6.732">
        <ele>1730.99</ele>
        <time>2018-09-16T05:55:30Z</time>
      </trkpt>
      <trkpt lat="44.77743" lon="6.73207">
        <ele>1731.95</ele>
        <time>2018-09-16T05:55:42Z</time>
      </trkpt>
      <trkpt lat="44.77729" lon="6.73204">
        <ele>1733.88</ele>
        <time>2018-09-16T05:55:58Z</time>
      </trkpt>
      <trkpt lat="44.77716" lon="6.73202">
        <ele>1736.28</ele>
        <time>2018-09-16T05:56:12Z</time>
      </trkpt>
      <trkpt lat="44.77705" lon="6.73194">
        <ele>1738.2</ele>
        <time>2018-09-16T05:56:31Z</time>
      </trkpt>
      <trkpt lat="44.77693" lon="6.73183">
        <ele>1741.57</ele>
        <time>2018-09-16T05:56:49Z</time>
      </trkpt>
      <trkpt lat="44.77685" lon="6.73169">
        <ele>1742.53</ele>
        <time>2018-09-16T05:57:02Z</time>
      </trkpt>
      <trkpt lat="44.77678" lon="6.73159">
        <ele>1743.01</ele>
        <time>2018-09-16T05:57:13Z</time>
      </trkpt>
      <trkpt lat="44.7767" lon="6.73157">
        <ele>1744.93</ele>
        <time>2018-09-16T05:57:25Z</time>
      </trkpt>
      <trkpt lat="44.7766" lon="6.73157">
        <ele>1745.41</ele>
        <time>2018-09-16T05:57:37Z</time>
      </trkpt>
      <trkpt lat="44.77651" lon="6.73151">
        <ele>1747.33</ele>
        <time>2018-09-16T05:57:49Z</time>
      </trkpt>
      <trkpt lat="44.77642" lon="6.73149">
        <ele>1748.78</ele>
        <time>2018-09-16T05:58:01Z</time>
      </trkpt>
      <trkpt lat="44.77633" lon="6.7315">
        <ele>1749.74</ele>
        <time>2018-09-16T05:58:11Z</time>
      </trkpt>
      <trkpt lat="44.77624" lon="6.73152">
        <ele>1751.18</ele>
        <time>2018-09-16T05:58:22Z</time>
      </trkpt>
      <trkpt lat="44.77612" lon="6.73143">
        <ele>1752.14</ele>
        <time>2018-09-16T05:58:36Z</time>
      </trkpt>
      <trkpt lat="44.77602" lon="6.73137">
        <ele>1751.66</ele>
        <time>2018-09-16T05:59:05Z</time>
      </trkpt>
      <trkpt lat="44.77588" lon="6.73131">
        <ele>1752.62</ele>
        <time>2018-09-16T05:59:17Z</time>
      </trkpt>
      <trkpt lat="44.77577" lon="6.73122">
        <ele>1753.58</ele>
        <time>2018-09-16T05:59:31Z</time>
      </trkpt>
      <trkpt lat="44.77561" lon="6.7311">
        <ele>1755.99</ele>
        <time>2018-09-16T05:59:47Z</time>
      </trkpt>
      <trkpt lat="44.77548" lon="6.731">
        <ele>1757.91</ele>
        <time>2018-09-16T06:00:03Z</time>
      </trkpt>
      <trkpt lat="44.77539" lon="6.73092">
        <ele>1759.83</ele>
        <time>2018-09-16T06:00:17Z</time>
      </trkpt>
      <trkpt lat="44.77529" lon="6.73079">
        <ele>1762.71</ele>
        <time>2018-09-16T06:00:35Z</time>
      </trkpt>
      <trkpt lat="44.77516" lon="6.73066">
        <ele>1765.6</ele>
        <time>2018-09-16T06:00:54Z</time>
      </trkpt>
      <trkpt lat="44.7751" lon="6.73054">
        <ele>1767.52</ele>
        <time>2018-09-16T06:01:09Z</time>
      </trkpt>
      <trkpt lat="44.77502" lon="6.73036">
        <ele>1768.96</ele>
        <time>2018-09-16T06:01:23Z</time>
      </trkpt>
      <trkpt lat="44.77496" lon="6.7302">
        <ele>1769.92</ele>
        <time>2018-09-16T06:01:35Z</time>
      </trkpt>
      <trkpt lat="44.77494" lon="6.73005">
        <ele>1771.85</ele>
        <time>2018-09-16T06:01:48Z</time>
      </trkpt>
      <trkpt lat="44.77496" lon="6.72995">
        <ele>1772.33</ele>
        <time>2018-09-16T06:02:05Z</time>
      </trkpt>
      <trkpt lat="44.77493" lon="6.72978">
        <ele>1774.25</ele>
        <time>2018-09-16T06:02:17Z</time>
      </trkpt>
      <trkpt lat="44.7749" lon="6.72964">
        <ele>1774.25</ele>
        <time>2018-09-16T06:02:27Z</time>
      </trkpt>
      <trkpt lat="44.77489" lon="6.72948">
        <ele>1775.21</ele>
        <time>2018-09-16T06:02:39Z</time>
      </trkpt>
      <trkpt lat="44.77487" lon="6.72935">
        <ele>1777.13</ele>
        <time>2018-09-16T06:02:50Z</time>
      </trkpt>
      <trkpt lat="44.77491" lon="6.72921">
        <ele>1780.02</ele>
        <time>2018-09-16T06:03:08Z</time>
      </trkpt>
      <trkpt lat="44.7749" lon="6.72907">
        <ele>1780.02</ele>
        <time>2018-09-16T06:03:18Z</time>
      </trkpt>
      <trkpt lat="44.77488" lon="6.72895">
        <ele>1780.02</ele>
        <time>2018-09-16T06:03:27Z</time>
      </trkpt>
      <trkpt lat="44.77486" lon="6.72882">
        <ele>1780.02</ele>
        <time>2018-09-16T06:03:36Z</time>
      </trkpt>
      <trkpt lat="44.77484" lon="6.72869">
        <ele>1780.5</ele>
        <time>2018-09-16T06:03:46Z</time>
      </trkpt>
      <trkpt lat="44.77481" lon="6.72856">
        <ele>1780.5</ele>
        <time>2018-09-16T06:03:56Z</time>
      </trkpt>
      <trkpt lat="44.77478" lon="6.72843">
        <ele>1780.5</ele>
        <time>2018-09-16T06:04:05Z</time>
      </trkpt>
      <trkpt lat="44.77475" lon="6.72829">
        <ele>1782.42</ele>
        <time>2018-09-16T06:04:15Z</time>
      </trkpt>
      <trkpt lat="44.77473" lon="6.72814">
        <ele>1782.9</ele>
        <time>2018-09-16T06:04:25Z</time>
      </trkpt>
      <trkpt lat="44.77474" lon="6.72799">
        <ele>1782.42</ele>
        <time>2018-09-16T06:04:34Z</time>
      </trkpt>
      <trkpt lat="44.77471" lon="6.72786">
        <ele>1781.94</ele>
        <time>2018-09-16T06:04:44Z</time>
      </trkpt>
      <trkpt lat="44.77462" lon="6.72774">
        <ele>1782.9</ele>
        <time>2018-09-16T06:04:55Z</time>
      </trkpt>
      <trkpt lat="44.77457" lon="6.72757">
        <ele>1782.9</ele>
        <time>2018-09-16T06:05:06Z</time>
      </trkpt>
      <trkpt lat="44.77452" lon="6.72745">
        <ele>1782.42</ele>
        <time>2018-09-16T06:05:16Z</time>
      </trkpt>
      <trkpt lat="44.77448" lon="6.72728">
        <ele>1782.42</ele>
        <time>2018-09-16T06:05:25Z</time>
      </trkpt>
      <trkpt lat="44.77444" lon="6.72714">
        <ele>1782.42</ele>
        <time>2018-09-16T06:05:34Z</time>
      </trkpt>
      <trkpt lat="44.77442" lon="6.727">
        <ele>1782.42</ele>
        <time>2018-09-16T06:05:43Z</time>
      </trkpt>
      <trkpt lat="44.77436" lon="6.72685">
        <ele>1782.9</ele>
        <time>2018-09-16T06:05:54Z</time>
      </trkpt>
      <trkpt lat="44.77431" lon="6.72671">
        <ele>1783.38</ele>
        <time>2018-09-16T06:06:04Z</time>
      </trkpt>
      <trkpt lat="44.77425" lon="6.72658">
        <ele>1782.9</ele>
        <time>2018-09-16T06:06:14Z</time>
      </trkpt>
      <trkpt lat="44.77423" lon="6.72643">
        <ele>1783.38</ele>
        <time>2018-09-16T06:06:25Z</time>
      </trkpt>
      <trkpt lat="44.77418" lon="6.72626">
        <ele>1783.86</ele>
        <time>2018-09-16T06:06:36Z</time>
      </trkpt>
      <trkpt lat="44.77415" lon="6.72606">
        <ele>1784.34</ele>
        <time>2018-09-16T06:06:48Z</time>
      </trkpt>
      <trkpt lat="44.77414" lon="6.72589">
        <ele>1784.34</ele>
        <time>2018-09-16T06:06:58Z</time>
      </trkpt>
      <trkpt lat="44.77412" lon="6.72571">
        <ele>1784.34</ele>
        <time>2018-09-16T06:07:09Z</time>
      </trkpt>
      <trkpt lat="44.77411" lon="6.72549">
        <ele>1784.82</ele>
        <time>2018-09-16T06:07:22Z</time>
      </trkpt>
      <trkpt lat="44.77414" lon="6.72531">
        <ele>1785.31</ele>
        <time>2018-09-16T06:07:33Z</time>
      </trkpt>
      <trkpt lat="44.77416" lon="6.72516">
        <ele>1784.82</ele>
        <time>2018-09-16T06:07:43Z</time>
      </trkpt>
      <trkpt lat="44.77411" lon="6.72504">
        <ele>1785.79</ele>
        <time>2018-09-16T06:07:56Z</time>
      </trkpt>
      <trkpt lat="44.77404" lon="6.72489">
        <ele>1785.31</ele>
        <time>2018-09-16T06:08:07Z</time>
      </trkpt>
      <trkpt lat="44.774" lon="6.72473">
        <ele>1785.79</ele>
        <time>2018-09-16T06:08:17Z</time>
      </trkpt>
      <trkpt lat="44.77395" lon="6.72457">
        <ele>1785.79</ele>
        <time>2018-09-16T06:08:28Z</time>
      </trkpt>
      <trkpt lat="44.77392" lon="6.72439">
        <ele>1786.27</ele>
        <time>2018-09-16T06:08:40Z</time>
      </trkpt>
      <trkpt lat="44.77388" lon="6.72417">
        <ele>1786.75</ele>
        <time>2018-09-16T06:08:54Z</time>
      </trkpt>
      <trkpt lat="44.77387" lon="6.724">
        <ele>1786.75</ele>
        <time>2018-09-16T06:09:04Z</time>
      </trkpt>
      <trkpt lat="44.77392" lon="6.72382">
        <ele>1786.75</ele>
        <time>2018-09-16T06:09:17Z</time>
      </trkpt>
      <trkpt lat="44.77396" lon="6.72363">
        <ele>1786.75</ele>
        <time>2018-09-16T06:09:29Z</time>
      </trkpt>
      <trkpt lat="44.77402" lon="6.72346">
        <ele>1786.75</ele>
        <time>2018-09-16T06:09:40Z</time>
      </trkpt>
      <trkpt lat="44.77402" lon="6.7234">
        <ele>1787.23</ele>
        <time>2018-09-16T06:09:51Z</time>
      </trkpt>
      <trkpt lat="44.77393" lon="6.7233">
        <ele>1787.71</ele>
        <time>2018-09-16T06:10:01Z</time>
      </trkpt>
      <trkpt lat="44.77391" lon="6.72318">
        <ele>1787.71</ele>
        <time>2018-09-16T06:10:12Z</time>
      </trkpt>
      <trkpt lat="44.7738" lon="6.72318">
        <ele>1787.71</ele>
        <time>2018-09-16T06:10:24Z</time>
      </trkpt>
      <trkpt lat="44.7737" lon="6.72309">
        <ele>1788.67</ele>
        <time>2018-09-16T06:10:34Z</time>
      </trkpt>
      <trkpt lat="44.77362" lon="6.72297">
        <ele>1788.19</ele>
        <time>2018-09-16T06:10:44Z</time>
      </trkpt>
      <trkpt lat="44.77355" lon="6.72283">
        <ele>1787.71</ele>
        <time>2018-09-16T06:10:55Z</time>
      </trkpt>
      <trkpt lat="44.77348" lon="6.7227">
        <ele>1788.19</ele>
        <time>2018-09-16T06:11:04Z</time>
      </trkpt>
      <trkpt lat="44.77341" lon="6.72259">
        <ele>1787.71</ele>
        <time>2018-09-16T06:11:12Z</time>
      </trkpt>
      <trkpt lat="44.77336" lon="6.72247">
        <ele>1787.71</ele>
        <time>2018-09-16T06:11:21Z</time>
      </trkpt>
      <trkpt lat="44.7733" lon="6.72237">
        <ele>1787.71</ele>
        <time>2018-09-16T06:11:29Z</time>
      </trkpt>
      <trkpt lat="44.77323" lon="6.72228">
        <ele>1787.23</ele>
        <time>2018-09-16T06:11:38Z</time>
      </trkpt>
      <trkpt lat="44.77314" lon="6.72218">
        <ele>1787.71</ele>
        <time>2018-09-16T06:11:48Z</time>
      </trkpt>
      <trkpt lat="44.77307" lon="6.7221">
        <ele>1787.71</ele>
        <time>2018-09-16T06:11:57Z</time>
      </trkpt>
      <trkpt lat="44.77302" lon="6.72198">
        <ele>1788.19</ele>
        <time>2018-09-16T06:12:06Z</time>
      </trkpt>
      <trkpt lat="44.77291" lon="6.72185">
        <ele>1787.23</ele>
        <time>2018-09-16T06:12:22Z</time>
      </trkpt>
      <trkpt lat="44.77283" lon="6.72175">
        <ele>1783.86</ele>
        <time>2018-09-16T06:12:33Z</time>
      </trkpt>
      <trkpt lat="44.77278" lon="6.72162">
        <ele>1782.42</ele>
        <time>2018-09-16T06:12:43Z</time>
      </trkpt>
      <trkpt lat="44.77267" lon="6.72149">
        <ele>1778.1</ele>
        <time>2018-09-16T06:12:53Z</time>
      </trkpt>
      <trkpt lat="44.77254" lon="6.72147">
        <ele>1776.65</ele>
        <time>2018-09-16T06:13:08Z</time>
      </trkpt>
      <trkpt lat="44.77249" lon="6.72134">
        <ele>1778.1</ele>
        <time>2018-09-16T06:13:26Z</time>
      </trkpt>
      <trkpt lat="44.77253" lon="6.72125">
        <ele>1780.02</ele>
        <time>2018-09-16T06:13:41Z</time>
      </trkpt>
      <trkpt lat="44.77254" lon="6.72112">
        <ele>1782.42</ele>
        <time>2018-09-16T06:13:58Z</time>
      </trkpt>
      <trkpt lat="44.77252" lon="6.72101">
        <ele>1783.86</ele>
        <time>2018-09-16T06:14:11Z</time>
      </trkpt>
      <trkpt lat="44.77246" lon="6.72083">
        <ele>1785.79</ele>
        <time>2018-09-16T06:14:29Z</time>
      </trkpt>
      <trkpt lat="44.7724" lon="6.72066">
        <ele>1787.71</ele>
        <time>2018-09-16T06:14:49Z</time>
      </trkpt>
      <trkpt lat="44.77235" lon="6.72045">
        <ele>1790.59</ele>
        <time>2018-09-16T06:15:06Z</time>
      </trkpt>
      <trkpt lat="44.77233" lon="6.72015">
        <ele>1793.48</ele>
        <time>2018-09-16T06:15:30Z</time>
      </trkpt>
      <trkpt lat="44.77225" lon="6.71997">
        <ele>1796.36</ele>
        <time>2018-09-16T06:15:46Z</time>
      </trkpt>
      <trkpt lat="44.77219" lon="6.71986">
        <ele>1797.32</ele>
        <time>2018-09-16T06:15:57Z</time>
      </trkpt>
      <trkpt lat="44.77219" lon="6.71966">
        <ele>1798.76</ele>
        <time>2018-09-16T06:16:15Z</time>
      </trkpt>
      <trkpt lat="44.77215" lon="6.71977">
        <ele>1802.13</ele>
        <time>2018-09-16T06:16:47Z</time>
      </trkpt>
      <trkpt lat="44.77208" lon="6.72002">
        <ele>1804.05</ele>
        <time>2018-09-16T06:17:06Z</time>
      </trkpt>
      <trkpt lat="44.77211" lon="6.72015">
        <ele>1805.97</ele>
        <time>2018-09-16T06:17:22Z</time>
      </trkpt>
      <trkpt lat="44.77209" lon="6.72032">
        <ele>1808.38</ele>
        <time>2018-09-16T06:17:37Z</time>
      </trkpt>
      <trkpt lat="44.77211" lon="6.72051">
        <ele>1810.78</ele>
        <time>2018-09-16T06:17:54Z</time>
      </trkpt>
      <trkpt lat="44.77194" lon="6.72057">
        <ele>1813.66</ele>
        <time>2018-09-16T06:18:15Z</time>
      </trkpt>
      <trkpt lat="44.77179" lon="6.72029">
        <ele>1817.03</ele>
        <time>2018-09-16T06:18:44Z</time>
      </trkpt>
      <trkpt lat="44.77163" lon="6.72019">
        <ele>1819.43</ele>
        <time>2018-09-16T06:19:04Z</time>
      </trkpt>
      <trkpt lat="44.77153" lon="6.72006">
        <ele>1822.8</ele>
        <time>2018-09-16T06:19:25Z</time>
      </trkpt>
      <trkpt lat="44.77154" lon="6.71992">
        <ele>1823.76</ele>
        <time>2018-09-16T06:19:41Z</time>
      </trkpt>
      <trkpt lat="44.77156" lon="6.71977">
        <ele>1826.16</ele>
        <time>2018-09-16T06:19:55Z</time>
      </trkpt>
      <trkpt lat="44.77144" lon="6.71934">
        <ele>1830.01</ele>
        <time>2018-09-16T06:20:26Z</time>
      </trkpt>
      <trkpt lat="44.77136" lon="6.71908">
        <ele>1833.85</ele>
        <time>2018-09-16T06:20:58Z</time>
      </trkpt>
      <trkpt lat="44.77118" lon="6.71909">
        <ele>1835.29</ele>
        <time>2018-09-16T06:21:19Z</time>
      </trkpt>
      <trkpt lat="44.77098" lon="6.71908">
        <ele>1838.18</ele>
        <time>2018-09-16T06:21:39Z</time>
      </trkpt>
      <trkpt lat="44.77103" lon="6.71912">
        <ele>1841.06</ele>
        <time>2018-09-16T06:22:00Z</time>
      </trkpt>
      <trkpt lat="44.7712" lon="6.71925">
        <ele>1843.47</ele>
        <time>2018-09-16T06:22:17Z</time>
      </trkpt>
      <trkpt lat="44.77121" lon="6.7194">
        <ele>1844.91</ele>
        <time>2018-09-16T06:22:30Z</time>
      </trkpt>
      <trkpt lat="44.77104" lon="6.71968">
        <ele>1848.75</ele>
        <time>2018-09-16T06:22:55Z</time>
      </trkpt>
      <trkpt lat="44.77096" lon="6.71988">
        <ele>1852.12</ele>
        <time>2018-09-16T06:23:22Z</time>
      </trkpt>
      <trkpt lat="44.77098" lon="6.72008">
        <ele>1855</ele>
        <time>2018-09-16T06:23:40Z</time>
      </trkpt>
      <trkpt lat="44.77107" lon="6.72019">
        <ele>1857.89</ele>
        <time>2018-09-16T06:23:56Z</time>
      </trkpt>
      <trkpt lat="44.77111" lon="6.72038">
        <ele>1859.81</ele>
        <time>2018-09-16T06:24:14Z</time>
      </trkpt>
      <trkpt lat="44.77107" lon="6.72045">
        <ele>1862.21</ele>
        <time>2018-09-16T06:24:31Z</time>
      </trkpt>
      <trkpt lat="44.77091" lon="6.72039">
        <ele>1864.61</ele>
        <time>2018-09-16T06:24:49Z</time>
      </trkpt>
      <trkpt lat="44.77076" lon="6.72032">
        <ele>1866.54</ele>
        <time>2018-09-16T06:25:06Z</time>
      </trkpt>
      <trkpt lat="44.77068" lon="6.72011">
        <ele>1868.94</ele>
        <time>2018-09-16T06:25:25Z</time>
      </trkpt>
      <trkpt lat="44.77064" lon="6.72013">
        <ele>1871.82</ele>
        <time>2018-09-16T06:25:45Z</time>
      </trkpt>
      <trkpt lat="44.77067" lon="6.7203">
        <ele>1873.27</ele>
        <time>2018-09-16T06:26:00Z</time>
      </trkpt>
      <trkpt lat="44.77076" lon="6.72047">
        <ele>1874.23</ele>
        <time>2018-09-16T06:26:15Z</time>
      </trkpt>
      <trkpt lat="44.77081" lon="6.72062">
        <ele>1876.15</ele>
        <time>2018-09-16T06:26:31Z</time>
      </trkpt>
      <trkpt lat="44.77085" lon="6.72076">
        <ele>1879.03</ele>
        <time>2018-09-16T06:26:45Z</time>
      </trkpt>
      <trkpt lat="44.77093" lon="6.72093">
        <ele>1880.96</ele>
        <time>2018-09-16T06:26:59Z</time>
      </trkpt>
      <trkpt lat="44.77097" lon="6.7211">
        <ele>1882.4</ele>
        <time>2018-09-16T06:27:17Z</time>
      </trkpt>
      <trkpt lat="44.77097" lon="6.72131">
        <ele>1884.32</ele>
        <time>2018-09-16T06:27:31Z</time>
      </trkpt>
      <trkpt lat="44.77096" lon="6.72147">
        <ele>1886.24</ele>
        <time>2018-09-16T06:27:44Z</time>
      </trkpt>
      <trkpt lat="44.7709" lon="6.72167">
        <ele>1887.69</ele>
        <time>2018-09-16T06:28:00Z</time>
      </trkpt>
      <trkpt lat="44.77088" lon="6.72182">
        <ele>1889.61</ele>
        <time>2018-09-16T06:28:15Z</time>
      </trkpt>
      <trkpt lat="44.77086" lon="6.72205">
        <ele>1892.01</ele>
        <time>2018-09-16T06:28:31Z</time>
      </trkpt>
      <trkpt lat="44.77089" lon="6.72221">
        <ele>1893.93</ele>
        <time>2018-09-16T06:28:46Z</time>
      </trkpt>
      <trkpt lat="44.77093" lon="6.72233">
        <ele>1896.82</ele>
        <time>2018-09-16T06:29:04Z</time>
      </trkpt>
      <trkpt lat="44.77097" lon="6.72248">
        <ele>1898.26</ele>
        <time>2018-09-16T06:29:20Z</time>
      </trkpt>
      <trkpt lat="44.77098" lon="6.72262">
        <ele>1900.18</ele>
        <time>2018-09-16T06:29:33Z</time>
      </trkpt>
      <trkpt lat="44.771" lon="6.72279">
        <ele>1902.11</ele>
        <time>2018-09-16T06:29:49Z</time>
      </trkpt>
      <trkpt lat="44.77098" lon="6.72304">
        <ele>1904.99</ele>
        <time>2018-09-16T06:30:08Z</time>
      </trkpt>
      <trkpt lat="44.77096" lon="6.72329">
        <ele>1907.39</ele>
        <time>2018-09-16T06:30:28Z</time>
      </trkpt>
      <trkpt lat="44.77086" lon="6.72358">
        <ele>1911.24</ele>
        <time>2018-09-16T06:30:56Z</time>
      </trkpt>
      <trkpt lat="44.77075" lon="6.72388">
        <ele>1915.08</ele>
        <time>2018-09-16T06:31:23Z</time>
      </trkpt>
      <trkpt lat="44.77065" lon="6.72367">
        <ele>1917.49</ele>
        <time>2018-09-16T06:31:46Z</time>
      </trkpt>
      <trkpt lat="44.77063" lon="6.7237">
        <ele>1922.29</ele>
        <time>2018-09-16T06:33:27Z</time>
      </trkpt>
      <trkpt lat="44.77049" lon="6.72381">
        <ele>1923.25</ele>
        <time>2018-09-16T06:33:54Z</time>
      </trkpt>
      <trkpt lat="44.77042" lon="6.724">
        <ele>1929.02</ele>
        <time>2018-09-16T06:34:48Z</time>
      </trkpt>
      <trkpt lat="44.77038" lon="6.72422">
        <ele>1931.43</ele>
        <time>2018-09-16T06:35:11Z</time>
      </trkpt>
      <trkpt lat="44.77035" lon="6.72443">
        <ele>1933.35</ele>
        <time>2018-09-16T06:35:28Z</time>
      </trkpt>
      <trkpt lat="44.77033" lon="6.72459">
        <ele>1935.27</ele>
        <time>2018-09-16T06:35:43Z</time>
      </trkpt>
      <trkpt lat="44.77027" lon="6.72481">
        <ele>1936.71</ele>
        <time>2018-09-16T06:36:11Z</time>
      </trkpt>
      <trkpt lat="44.77019" lon="6.72507">
        <ele>1938.16</ele>
        <time>2018-09-16T06:36:30Z</time>
      </trkpt>
      <trkpt lat="44.77008" lon="6.72516">
        <ele>1937.67</ele>
        <time>2018-09-16T06:36:42Z</time>
      </trkpt>
      <trkpt lat="44.76994" lon="6.7252">
        <ele>1940.08</ele>
        <time>2018-09-16T06:36:56Z</time>
      </trkpt>
      <trkpt lat="44.7698" lon="6.72522">
        <ele>1941.52</ele>
        <time>2018-09-16T06:37:11Z</time>
      </trkpt>
      <trkpt lat="44.76965" lon="6.72519">
        <ele>1942.96</ele>
        <time>2018-09-16T06:37:25Z</time>
      </trkpt>
      <trkpt lat="44.76952" lon="6.72509">
        <ele>1942.48</ele>
        <time>2018-09-16T06:37:39Z</time>
      </trkpt>
      <trkpt lat="44.76947" lon="6.72495">
        <ele>1941.52</ele>
        <time>2018-09-16T06:37:53Z</time>
      </trkpt>
      <trkpt lat="44.76944" lon="6.72476">
        <ele>1940.56</ele>
        <time>2018-09-16T06:38:11Z</time>
      </trkpt>
      <trkpt lat="44.76945" lon="6.7246">
        <ele>1939.12</ele>
        <time>2018-09-16T06:38:25Z</time>
      </trkpt>
      <trkpt lat="44.76939" lon="6.72451">
        <ele>1938.16</ele>
        <time>2018-09-16T06:38:40Z</time>
      </trkpt>
      <trkpt lat="44.76933" lon="6.72435">
        <ele>1940.08</ele>
        <time>2018-09-16T06:40:30Z</time>
      </trkpt>
      <trkpt lat="44.7693" lon="6.72432">
        <ele>1937.19</ele>
        <time>2018-09-16T06:41:01Z</time>
      </trkpt>
      <trkpt lat="44.76926" lon="6.72419">
        <ele>1935.75</ele>
        <time>2018-09-16T06:41:12Z</time>
      </trkpt>
      <trkpt lat="44.76925" lon="6.72402">
        <ele>1933.35</ele>
        <time>2018-09-16T06:41:25Z</time>
      </trkpt>
      <trkpt lat="44.76924" lon="6.72385">
        <ele>1933.35</ele>
        <time>2018-09-16T06:41:35Z</time>
      </trkpt>
      <trkpt lat="44.7692" lon="6.72373">
        <ele>1931.43</ele>
        <time>2018-09-16T06:41:44Z</time>
      </trkpt>
      <trkpt lat="44.7691" lon="6.72363">
        <ele>1930.46</ele>
        <time>2018-09-16T06:41:55Z</time>
      </trkpt>
      <trkpt lat="44.76901" lon="6.7235">
        <ele>1929.02</ele>
        <time>2018-09-16T06:42:08Z</time>
      </trkpt>
      <trkpt lat="44.769" lon="6.72337">
        <ele>1927.58</ele>
        <time>2018-09-16T06:42:18Z</time>
      </trkpt>
      <trkpt lat="44.76893" lon="6.72326">
        <ele>1926.62</ele>
        <time>2018-09-16T06:42:29Z</time>
      </trkpt>
      <trkpt lat="44.76881" lon="6.72325">
        <ele>1924.7</ele>
        <time>2018-09-16T06:42:40Z</time>
      </trkpt>
      <trkpt lat="44.7687" lon="6.72331">
        <ele>1923.74</ele>
        <time>2018-09-16T06:42:51Z</time>
      </trkpt>
      <trkpt lat="44.76861" lon="6.72328">
        <ele>1920.37</ele>
        <time>2018-09-16T06:43:04Z</time>
      </trkpt>
      <trkpt lat="44.76852" lon="6.72323">
        <ele>1916.53</ele>
        <time>2018-09-16T06:43:18Z</time>
      </trkpt>
      <trkpt lat="44.76841" lon="6.72322">
        <ele>1915.08</ele>
        <time>2018-09-16T06:43:30Z</time>
      </trkpt>
      <trkpt lat="44.76836" lon="6.72311">
        <ele>1912.2</ele>
        <time>2018-09-16T06:43:43Z</time>
      </trkpt>
      <trkpt lat="44.76825" lon="6.72312">
        <ele>1909.32</ele>
        <time>2018-09-16T06:44:03Z</time>
      </trkpt>
      <trkpt lat="44.76815" lon="6.72318">
        <ele>1908.35</ele>
        <time>2018-09-16T06:44:15Z</time>
      </trkpt>
      <trkpt lat="44.76805" lon="6.72314">
        <ele>1906.43</ele>
        <time>2018-09-16T06:44:24Z</time>
      </trkpt>
      <trkpt lat="44.76794" lon="6.72309">
        <ele>1903.55</ele>
        <time>2018-09-16T06:44:38Z</time>
      </trkpt>
      <trkpt lat="44.76787" lon="6.72299">
        <ele>1901.14</ele>
        <time>2018-09-16T06:44:50Z</time>
      </trkpt>
      <trkpt lat="44.7678" lon="6.72286">
        <ele>1899.7</ele>
        <time>2018-09-16T06:45:03Z</time>
      </trkpt>
      <trkpt lat="44.76773" lon="6.72277">
        <ele>1897.78</ele>
        <time>2018-09-16T06:45:13Z</time>
      </trkpt>
      <trkpt lat="44.76763" lon="6.72272">
        <ele>1895.86</ele>
        <time>2018-09-16T06:45:22Z</time>
      </trkpt>
      <trkpt lat="44.76753" lon="6.72267">
        <ele>1893.93</ele>
        <time>2018-09-16T06:45:36Z</time>
      </trkpt>
      <trkpt lat="44.76742" lon="6.7226">
        <ele>1893.93</ele>
        <time>2018-09-16T06:45:48Z</time>
      </trkpt>
      <trkpt lat="44.76733" lon="6.72248">
        <ele>1892.01</ele>
        <time>2018-09-16T06:45:58Z</time>
      </trkpt>
      <trkpt lat="44.76726" lon="6.72242">
        <ele>1890.09</ele>
        <time>2018-09-16T06:46:09Z</time>
      </trkpt>
      <trkpt lat="44.76717" lon="6.72243">
        <ele>1888.65</ele>
        <time>2018-09-16T06:46:18Z</time>
      </trkpt>
      <trkpt lat="44.76707" lon="6.72244">
        <ele>1884.8</ele>
        <time>2018-09-16T06:46:36Z</time>
      </trkpt>
      <trkpt lat="44.76695" lon="6.72236">
        <ele>1882.4</ele>
        <time>2018-09-16T06:46:51Z</time>
      </trkpt>
      <trkpt lat="44.76686" lon="6.72229">
        <ele>1880</ele>
        <time>2018-09-16T06:47:20Z</time>
      </trkpt>
      <trkpt lat="44.76684" lon="6.72233">
        <ele>1876.63</ele>
        <time>2018-09-16T06:47:37Z</time>
      </trkpt>
      <trkpt lat="44.76682" lon="6.72235">
        <ele>1872.3</ele>
        <time>2018-09-16T06:47:55Z</time>
      </trkpt>
      <trkpt lat="44.76676" lon="6.72233">
        <ele>1868.46</ele>
        <time>2018-09-16T06:48:18Z</time>
      </trkpt>
      <trkpt lat="44.76667" lon="6.72227">
        <ele>1866.54</ele>
        <time>2018-09-16T06:48:30Z</time>
      </trkpt>
      <trkpt lat="44.76657" lon="6.72222">
        <ele>1862.69</ele>
        <time>2018-09-16T06:48:43Z</time>
      </trkpt>
      <trkpt lat="44.76657" lon="6.72232">
        <ele>1859.81</ele>
        <time>2018-09-16T06:48:56Z</time>
      </trkpt>
      <trkpt lat="44.76647" lon="6.72231">
        <ele>1856.44</ele>
        <time>2018-09-16T06:49:08Z</time>
      </trkpt>
      <trkpt lat="44.7664" lon="6.72219">
        <ele>1857.89</ele>
        <time>2018-09-16T06:49:23Z</time>
      </trkpt>
      <trkpt lat="44.76631" lon="6.72212">
        <ele>1855</ele>
        <time>2018-09-16T06:49:39Z</time>
      </trkpt>
      <trkpt lat="44.76621" lon="6.72207">
        <ele>1850.68</ele>
        <time>2018-09-16T06:49:54Z</time>
      </trkpt>
      <trkpt lat="44.76612" lon="6.722">
        <ele>1847.79</ele>
        <time>2018-09-16T06:50:03Z</time>
      </trkpt>
      <trkpt lat="44.76603" lon="6.72195">
        <ele>1844.91</ele>
        <time>2018-09-16T06:50:12Z</time>
      </trkpt>
      <trkpt lat="44.76594" lon="6.7219">
        <ele>1841.54</ele>
        <time>2018-09-16T06:50:22Z</time>
      </trkpt>
      <trkpt lat="44.76586" lon="6.72182">
        <ele>1841.54</ele>
        <time>2018-09-16T06:50:31Z</time>
      </trkpt>
      <trkpt lat="44.76577" lon="6.72173">
        <ele>1841.54</ele>
        <time>2018-09-16T06:50:44Z</time>
      </trkpt>
      <trkpt lat="44.7657" lon="6.72164">
        <ele>1841.54</ele>
        <time>2018-09-16T06:51:29Z</time>
      </trkpt>
      <trkpt lat="44.76562" lon="6.72152">
        <ele>1839.62</ele>
        <time>2018-09-16T06:51:41Z</time>
      </trkpt>
      <trkpt lat="44.76555" lon="6.72139">
        <ele>1838.18</ele>
        <time>2018-09-16T06:51:52Z</time>
      </trkpt>
      <trkpt lat="44.76548" lon="6.72127">
        <ele>1836.74</ele>
        <time>2018-09-16T06:52:07Z</time>
      </trkpt>
      <trkpt lat="44.76541" lon="6.72112">
        <ele>1833.85</ele>
        <time>2018-09-16T06:52:22Z</time>
      </trkpt>
      <trkpt lat="44.76532" lon="6.72089">
        <ele>1830.49</ele>
        <time>2018-09-16T06:52:34Z</time>
      </trkpt>
      <trkpt lat="44.76524" lon="6.72079">
        <ele>1828.08</ele>
        <time>2018-09-16T06:52:44Z</time>
      </trkpt>
      <trkpt lat="44.76518" lon="6.72071">
        <ele>1827.6</ele>
        <time>2018-09-16T06:52:55Z</time>
      </trkpt>
      <trkpt lat="44.76509" lon="6.72064">
        <ele>1826.16</ele>
        <time>2018-09-16T06:53:05Z</time>
      </trkpt>
      <trkpt lat="44.76493" lon="6.72058">
        <ele>1824.72</ele>
        <time>2018-09-16T06:53:29Z</time>
      </trkpt>
      <trkpt lat="44.76488" lon="6.72044">
        <ele>1822.32</ele>
        <time>2018-09-16T06:53:40Z</time>
      </trkpt>
      <trkpt lat="44.76485" lon="6.72034">
        <ele>1821.35</ele>
        <time>2018-09-16T06:53:55Z</time>
      </trkpt>
      <trkpt lat="44.76476" lon="6.72016">
        <ele>1821.35</ele>
        <time>2018-09-16T06:54:11Z</time>
      </trkpt>
      <trkpt lat="44.76468" lon="6.71998">
        <ele>1822.32</ele>
        <time>2018-09-16T06:54:25Z</time>
      </trkpt>
      <trkpt lat="44.76457" lon="6.7199">
        <ele>1821.84</ele>
        <time>2018-09-16T06:54:38Z</time>
      </trkpt>
      <trkpt lat="44.76445" lon="6.71986">
        <ele>1821.84</ele>
        <time>2018-09-16T06:55:02Z</time>
      </trkpt>
      <trkpt lat="44.76428" lon="6.7198">
        <ele>1821.84</ele>
        <time>2018-09-16T06:55:17Z</time>
      </trkpt>
      <trkpt lat="44.7642" lon="6.71973">
        <ele>1821.35</ele>
        <time>2018-09-16T06:55:28Z</time>
      </trkpt>
      <trkpt lat="44.76411" lon="6.7196">
        <ele>1822.32</ele>
        <time>2018-09-16T06:55:40Z</time>
      </trkpt>
      <trkpt lat="44.76404" lon="6.71945">
        <ele>1824.24</ele>
        <time>2018-09-16T06:55:53Z</time>
      </trkpt>
      <trkpt lat="44.76396" lon="6.71931">
        <ele>1824.72</ele>
        <time>2018-09-16T06:56:04Z</time>
      </trkpt>
      <trkpt lat="44.76388" lon="6.71917">
        <ele>1824.72</ele>
        <time>2018-09-16T06:56:20Z</time>
      </trkpt>
      <trkpt lat="44.76377" lon="6.71905">
        <ele>1823.76</ele>
        <time>2018-09-16T06:56:34Z</time>
      </trkpt>
      <trkpt lat="44.76365" lon="6.71887">
        <ele>1823.76</ele>
        <time>2018-09-16T06:56:46Z</time>
      </trkpt>
      <trkpt lat="44.76353" lon="6.71876">
        <ele>1823.28</ele>
        <time>2018-09-16T06:56:56Z</time>
      </trkpt>
      <trkpt lat="44.76341" lon="6.71865">
        <ele>1821.35</ele>
        <time>2018-09-16T06:57:06Z</time>
      </trkpt>
      <trkpt lat="44.76333" lon="6.71854">
        <ele>1819.91</ele>
        <time>2018-09-16T06:57:20Z</time>
      </trkpt>
      <trkpt lat="44.7632" lon="6.71833">
        <ele>1819.43</ele>
        <time>2018-09-16T06:57:36Z</time>
      </trkpt>
      <trkpt lat="44.76317" lon="6.71814">
        <ele>1820.39</ele>
        <time>2018-09-16T06:57:54Z</time>
      </trkpt>
      <trkpt lat="44.76314" lon="6.71798">
        <ele>1823.76</ele>
        <time>2018-09-16T06:58:14Z</time>
      </trkpt>
      <trkpt lat="44.76307" lon="6.71779">
        <ele>1823.76</ele>
        <time>2018-09-16T06:58:31Z</time>
      </trkpt>
      <trkpt lat="44.76301" lon="6.71763">
        <ele>1824.72</ele>
        <time>2018-09-16T06:58:46Z</time>
      </trkpt>
      <trkpt lat="44.76293" lon="6.7175">
        <ele>1824.72</ele>
        <time>2018-09-16T06:58:54Z</time>
      </trkpt>
      <trkpt lat="44.76285" lon="6.71737">
        <ele>1826.16</ele>
        <time>2018-09-16T06:59:08Z</time>
      </trkpt>
      <trkpt lat="44.76273" lon="6.71724">
        <ele>1827.6</ele>
        <time>2018-09-16T06:59:22Z</time>
      </trkpt>
      <trkpt lat="44.76256" lon="6.71684">
        <ele>1829.53</ele>
        <time>2018-09-16T06:59:40Z</time>
      </trkpt>
      <trkpt lat="44.7624" lon="6.71664">
        <ele>1833.37</ele>
        <time>2018-09-16T07:00:02Z</time>
      </trkpt>
      <trkpt lat="44.76231" lon="6.71649">
        <ele>1836.74</ele>
        <time>2018-09-16T07:00:23Z</time>
      </trkpt>
      <trkpt lat="44.76234" lon="6.71635">
        <ele>1839.14</ele>
        <time>2018-09-16T07:00:44Z</time>
      </trkpt>
      <trkpt lat="44.76227" lon="6.71613">
        <ele>1843.95</ele>
        <time>2018-09-16T07:01:15Z</time>
      </trkpt>
      <trkpt lat="44.76224" lon="6.71599">
        <ele>1842.98</ele>
        <time>2018-09-16T07:01:29Z</time>
      </trkpt>
      <trkpt lat="44.76217" lon="6.71609">
        <ele>1841.06</ele>
        <time>2018-09-16T07:01:48Z</time>
      </trkpt>
      <trkpt lat="44.76203" lon="6.71602">
        <ele>1843.95</ele>
        <time>2018-09-16T07:02:10Z</time>
      </trkpt>
      <trkpt lat="44.76191" lon="6.71593">
        <ele>1842.98</ele>
        <time>2018-09-16T07:02:20Z</time>
      </trkpt>
      <trkpt lat="44.76178" lon="6.71586">
        <ele>1842.98</ele>
        <time>2018-09-16T07:02:32Z</time>
      </trkpt>
      <trkpt lat="44.76167" lon="6.71573">
        <ele>1845.87</ele>
        <time>2018-09-16T07:02:48Z</time>
      </trkpt>
      <trkpt lat="44.76163" lon="6.71551">
        <ele>1844.43</ele>
        <time>2018-09-16T07:03:05Z</time>
      </trkpt>
      <trkpt lat="44.76168" lon="6.71541">
        <ele>1846.83</ele>
        <time>2018-09-16T07:03:20Z</time>
      </trkpt>
      <trkpt lat="44.76163" lon="6.71525">
        <ele>1847.79</ele>
        <time>2018-09-16T07:03:31Z</time>
      </trkpt>
      <trkpt lat="44.76155" lon="6.71503">
        <ele>1849.71</ele>
        <time>2018-09-16T07:03:57Z</time>
      </trkpt>
      <trkpt lat="44.76145" lon="6.71489">
        <ele>1851.16</ele>
        <time>2018-09-16T07:04:53Z</time>
      </trkpt>
      <trkpt lat="44.76141" lon="6.71472">
        <ele>1854.04</ele>
        <time>2018-09-16T07:05:09Z</time>
      </trkpt>
      <trkpt lat="44.7613" lon="6.71465">
        <ele>1855.96</ele>
        <time>2018-09-16T07:05:25Z</time>
      </trkpt>
      <trkpt lat="44.76118" lon="6.71474">
        <ele>1858.37</ele>
        <time>2018-09-16T07:05:47Z</time>
      </trkpt>
      <trkpt lat="44.76097" lon="6.71491">
        <ele>1861.25</ele>
        <time>2018-09-16T07:06:16Z</time>
      </trkpt>
      <trkpt lat="44.76073" lon="6.71496">
        <ele>1865.09</ele>
        <time>2018-09-16T07:06:41Z</time>
      </trkpt>
      <trkpt lat="44.76056" lon="6.71492">
        <ele>1868.46</ele>
        <time>2018-09-16T07:07:04Z</time>
      </trkpt>
      <trkpt lat="44.76022" lon="6.71499">
        <ele>1876.15</ele>
        <time>2018-09-16T07:07:50Z</time>
      </trkpt>
      <trkpt lat="44.76002" lon="6.7152">
        <ele>1880.48</ele>
        <time>2018-09-16T07:08:20Z</time>
      </trkpt>
      <trkpt lat="44.7597" lon="6.71544">
        <ele>1884.8</ele>
        <time>2018-09-16T07:09:01Z</time>
      </trkpt>
      <trkpt lat="44.75944" lon="6.71551">
        <ele>1888.17</ele>
        <time>2018-09-16T07:09:28Z</time>
      </trkpt>
      <trkpt lat="44.75922" lon="6.71556">
        <ele>1891.05</ele>
        <time>2018-09-16T07:09:42Z</time>
      </trkpt>
      <trkpt lat="44.75931" lon="6.71543">
        <ele>1892.49</ele>
        <time>2018-09-16T07:09:58Z</time>
      </trkpt>
      <trkpt lat="44.75935" lon="6.71526">
        <ele>1894.42</ele>
        <time>2018-09-16T07:10:11Z</time>
      </trkpt>
      <trkpt lat="44.75939" lon="6.71515">
        <ele>1895.38</ele>
        <time>2018-09-16T07:10:24Z</time>
      </trkpt>
      <trkpt lat="44.75944" lon="6.71505">
        <ele>1896.34</ele>
        <time>2018-09-16T07:10:35Z</time>
      </trkpt>
      <trkpt lat="44.75945" lon="6.71487">
        <ele>1897.78</ele>
        <time>2018-09-16T07:10:51Z</time>
      </trkpt>
      <trkpt lat="44.7595" lon="6.71473">
        <ele>1899.7</ele>
        <time>2018-09-16T07:11:07Z</time>
      </trkpt>
      <trkpt lat="44.75952" lon="6.71457">
        <ele>1902.59</ele>
        <time>2018-09-16T07:11:25Z</time>
      </trkpt>
      <trkpt lat="44.75962" lon="6.71438">
        <ele>1904.99</ele>
        <time>2018-09-16T07:11:39Z</time>
      </trkpt>
      <trkpt lat="44.75971" lon="6.71431">
        <ele>1905.95</ele>
        <time>2018-09-16T07:11:52Z</time>
      </trkpt>
      <trkpt lat="44.75997" lon="6.71425">
        <ele>1906.43</ele>
        <time>2018-09-16T07:12:04Z</time>
      </trkpt>
      <trkpt lat="44.76004" lon="6.71429">
        <ele>1908.83</ele>
        <time>2018-09-16T07:12:21Z</time>
      </trkpt>
      <trkpt lat="44.76004" lon="6.71415">
        <ele>1911.72</ele>
        <time>2018-09-16T07:12:39Z</time>
      </trkpt>
      <trkpt lat="44.76013" lon="6.71406">
        <ele>1914.6</ele>
        <time>2018-09-16T07:12:56Z</time>
      </trkpt>
      <trkpt lat="44.76022" lon="6.71397">
        <ele>1915.08</ele>
        <time>2018-09-16T07:13:17Z</time>
      </trkpt>
      <trkpt lat="44.76031" lon="6.71388">
        <ele>1916.04</ele>
        <time>2018-09-16T07:13:28Z</time>
      </trkpt>
      <trkpt lat="44.76025" lon="6.71395">
        <ele>1917.97</ele>
        <time>2018-09-16T07:13:39Z</time>
      </trkpt>
      <trkpt lat="44.76017" lon="6.71386">
        <ele>1919.89</ele>
        <time>2018-09-16T07:13:51Z</time>
      </trkpt>
      <trkpt lat="44.76007" lon="6.71376">
        <ele>1918.93</ele>
        <time>2018-09-16T07:14:05Z</time>
      </trkpt>
      <trkpt lat="44.75997" lon="6.71366">
        <ele>1918.93</ele>
        <time>2018-09-16T07:14:18Z</time>
      </trkpt>
      <trkpt lat="44.75983" lon="6.71355">
        <ele>1920.37</ele>
        <time>2018-09-16T07:14:32Z</time>
      </trkpt>
      <trkpt lat="44.75974" lon="6.71336">
        <ele>1924.22</ele>
        <time>2018-09-16T07:14:50Z</time>
      </trkpt>
      <trkpt lat="44.75959" lon="6.71318">
        <ele>1924.7</ele>
        <time>2018-09-16T07:15:06Z</time>
      </trkpt>
      <trkpt lat="44.75939" lon="6.71292">
        <ele>1927.1</ele>
        <time>2018-09-16T07:16:04Z</time>
      </trkpt>
      <trkpt lat="44.75928" lon="6.71293">
        <ele>1929.02</ele>
        <time>2018-09-16T07:16:21Z</time>
      </trkpt>
      <trkpt lat="44.75911" lon="6.71297">
        <ele>1931.91</ele>
        <time>2018-09-16T07:16:36Z</time>
      </trkpt>
      <trkpt lat="44.75891" lon="6.71294">
        <ele>1934.79</ele>
        <time>2018-09-16T07:16:53Z</time>
      </trkpt>
      <trkpt lat="44.75881" lon="6.71298">
        <ele>1938.64</ele>
        <time>2018-09-16T07:17:15Z</time>
      </trkpt>
      <trkpt lat="44.75868" lon="6.71286">
        <ele>1941.04</ele>
        <time>2018-09-16T07:17:31Z</time>
      </trkpt>
      <trkpt lat="44.75855" lon="6.71281">
        <ele>1945.36</ele>
        <time>2018-09-16T07:17:52Z</time>
      </trkpt>
      <trkpt lat="44.75839" lon="6.71277">
        <ele>1948.73</ele>
        <time>2018-09-16T07:18:14Z</time>
      </trkpt>
      <trkpt lat="44.75829" lon="6.71277">
        <ele>1953.06</ele>
        <time>2018-09-16T07:18:41Z</time>
      </trkpt>
      <trkpt lat="44.75837" lon="6.71291">
        <ele>1955.46</ele>
        <time>2018-09-16T07:18:57Z</time>
      </trkpt>
      <trkpt lat="44.75827" lon="6.71294">
        <ele>1958.82</ele>
        <time>2018-09-16T07:19:16Z</time>
      </trkpt>
      <trkpt lat="44.75812" lon="6.71289">
        <ele>1961.71</ele>
        <time>2018-09-16T07:19:36Z</time>
      </trkpt>
      <trkpt lat="44.75795" lon="6.71278">
        <ele>1965.07</ele>
        <time>2018-09-16T07:19:59Z</time>
      </trkpt>
      <trkpt lat="44.75784" lon="6.7128">
        <ele>1967.96</ele>
        <time>2018-09-16T07:20:18Z</time>
      </trkpt>
      <trkpt lat="44.7577" lon="6.71284">
        <ele>1968.92</ele>
        <time>2018-09-16T07:20:43Z</time>
      </trkpt>
      <trkpt lat="44.75755" lon="6.71282">
        <ele>1970.36</ele>
        <time>2018-09-16T07:21:15Z</time>
      </trkpt>
      <trkpt lat="44.75747" lon="6.71265">
        <ele>1971.32</ele>
        <time>2018-09-16T07:21:32Z</time>
      </trkpt>
      <trkpt lat="44.7573" lon="6.7125">
        <ele>1972.28</ele>
        <time>2018-09-16T07:21:55Z</time>
      </trkpt>
      <trkpt lat="44.75712" lon="6.7124">
        <ele>1973.72</ele>
        <time>2018-09-16T07:22:20Z</time>
      </trkpt>
      <trkpt lat="44.75691" lon="6.71236">
        <ele>1975.65</ele>
        <time>2018-09-16T07:22:39Z</time>
      </trkpt>
      <trkpt lat="44.75674" lon="6.71229">
        <ele>1975.65</ele>
        <time>2018-09-16T07:22:59Z</time>
      </trkpt>
      <trkpt lat="44.75657" lon="6.7123">
        <ele>1977.57</ele>
        <time>2018-09-16T07:23:14Z</time>
      </trkpt>
      <trkpt lat="44.75644" lon="6.71231">
        <ele>1978.53</ele>
        <time>2018-09-16T07:23:27Z</time>
      </trkpt>
      <trkpt lat="44.75631" lon="6.71234">
        <ele>1981.41</ele>
        <time>2018-09-16T07:23:51Z</time>
      </trkpt>
      <trkpt lat="44.75617" lon="6.71228">
        <ele>1983.34</ele>
        <time>2018-09-16T07:24:09Z</time>
      </trkpt>
      <trkpt lat="44.75601" lon="6.71232">
        <ele>1986.7</ele>
        <time>2018-09-16T07:24:35Z</time>
      </trkpt>
      <trkpt lat="44.75595" lon="6.71242">
        <ele>1990.55</ele>
        <time>2018-09-16T07:24:54Z</time>
      </trkpt>
      <trkpt lat="44.75575" lon="6.71247">
        <ele>1995.35</ele>
        <time>2018-09-16T07:25:20Z</time>
      </trkpt>
      <trkpt lat="44.75563" lon="6.7125">
        <ele>1997.28</ele>
        <time>2018-09-16T07:25:45Z</time>
      </trkpt>
      <trkpt lat="44.75551" lon="6.71255">
        <ele>2002.08</ele>
        <time>2018-09-16T07:26:09Z</time>
      </trkpt>
      <trkpt lat="44.75537" lon="6.71262">
        <ele>2003.52</ele>
        <time>2018-09-16T07:26:23Z</time>
      </trkpt>
      <trkpt lat="44.75523" lon="6.71261">
        <ele>2004.49</ele>
        <time>2018-09-16T07:26:37Z</time>
      </trkpt>
      <trkpt lat="44.75508" lon="6.71263">
        <ele>2008.81</ele>
        <time>2018-09-16T07:26:57Z</time>
      </trkpt>
      <trkpt lat="44.75498" lon="6.71269">
        <ele>2009.77</ele>
        <time>2018-09-16T07:27:22Z</time>
      </trkpt>
      <trkpt lat="44.75493" lon="6.71271">
        <ele>2009.77</ele>
        <time>2018-09-16T07:27:41Z</time>
      </trkpt>
      <trkpt lat="44.75484" lon="6.71276">
        <ele>2010.25</ele>
        <time>2018-09-16T07:27:53Z</time>
      </trkpt>
      <trkpt lat="44.75475" lon="6.71278">
        <ele>2010.73</ele>
        <time>2018-09-16T07:28:03Z</time>
      </trkpt>
      <trkpt lat="44.75459" lon="6.71285">
        <ele>2013.14</ele>
        <time>2018-09-16T07:28:20Z</time>
      </trkpt>
      <trkpt lat="44.75454" lon="6.71298">
        <ele>2015.06</ele>
        <time>2018-09-16T07:28:38Z</time>
      </trkpt>
      <trkpt lat="44.75468" lon="6.71314">
        <ele>2018.43</ele>
        <time>2018-09-16T07:29:01Z</time>
      </trkpt>
      <trkpt lat="44.75467" lon="6.71328">
        <ele>2020.83</ele>
        <time>2018-09-16T07:29:20Z</time>
      </trkpt>
      <trkpt lat="44.75456" lon="6.71335">
        <ele>2021.79</ele>
        <time>2018-09-16T07:29:31Z</time>
      </trkpt>
      <trkpt lat="44.75449" lon="6.71346">
        <ele>2024.19</ele>
        <time>2018-09-16T07:29:44Z</time>
      </trkpt>
      <trkpt lat="44.75435" lon="6.71358">
        <ele>2025.15</ele>
        <time>2018-09-16T07:29:59Z</time>
      </trkpt>
      <trkpt lat="44.75425" lon="6.71363">
        <ele>2026.6</ele>
        <time>2018-09-16T07:30:13Z</time>
      </trkpt>
      <trkpt lat="44.75425" lon="6.71359">
        <ele>2027.56</ele>
        <time>2018-09-16T07:30:41Z</time>
      </trkpt>
      <trkpt lat="44.7542" lon="6.71365">
        <ele>2027.56</ele>
        <time>2018-09-16T07:31:02Z</time>
      </trkpt>
      <trkpt lat="44.75417" lon="6.71367">
        <ele>2027.56</ele>
        <time>2018-09-16T07:31:29Z</time>
      </trkpt>
      <trkpt lat="44.75411" lon="6.71376">
        <ele>2029</ele>
        <time>2018-09-16T07:31:44Z</time>
      </trkpt>
      <trkpt lat="44.75402" lon="6.71378">
        <ele>2030.44</ele>
        <time>2018-09-16T07:31:55Z</time>
      </trkpt>
      <trkpt lat="44.75394" lon="6.71386">
        <ele>2031.4</ele>
        <time>2018-09-16T07:32:19Z</time>
      </trkpt>
      <trkpt lat="44.75384" lon="6.7139">
        <ele>2032.36</ele>
        <time>2018-09-16T07:32:30Z</time>
      </trkpt>
      <trkpt lat="44.75375" lon="6.71395">
        <ele>2033.81</ele>
        <time>2018-09-16T07:32:41Z</time>
      </trkpt>
      <trkpt lat="44.75367" lon="6.71401">
        <ele>2035.25</ele>
        <time>2018-09-16T07:32:51Z</time>
      </trkpt>
      <trkpt lat="44.75356" lon="6.71402">
        <ele>2036.69</ele>
        <time>2018-09-16T07:33:01Z</time>
      </trkpt>
      <trkpt lat="44.75348" lon="6.71404">
        <ele>2038.13</ele>
        <time>2018-09-16T07:33:11Z</time>
      </trkpt>
      <trkpt lat="44.75338" lon="6.71405">
        <ele>2039.57</ele>
        <time>2018-09-16T07:33:20Z</time>
      </trkpt>
      <trkpt lat="44.75328" lon="6.71403">
        <ele>2040.05</ele>
        <time>2018-09-16T07:33:32Z</time>
      </trkpt>
      <trkpt lat="44.75317" lon="6.71401">
        <ele>2041.5</ele>
        <time>2018-09-16T07:33:43Z</time>
      </trkpt>
      <trkpt lat="44.75307" lon="6.71398">
        <ele>2041.98</ele>
        <time>2018-09-16T07:33:55Z</time>
      </trkpt>
      <trkpt lat="44.75296" lon="6.71397">
        <ele>2043.9</ele>
        <time>2018-09-16T07:34:07Z</time>
      </trkpt>
      <trkpt lat="44.75285" lon="6.71397">
        <ele>2045.34</ele>
        <time>2018-09-16T07:34:18Z</time>
      </trkpt>
      <trkpt lat="44.75276" lon="6.71392">
        <ele>2046.78</ele>
        <time>2018-09-16T07:34:28Z</time>
      </trkpt>
      <trkpt lat="44.75266" lon="6.71389">
        <ele>2048.71</ele>
        <time>2018-09-16T07:34:40Z</time>
      </trkpt>
      <trkpt lat="44.75256" lon="6.71382">
        <ele>2050.63</ele>
        <time>2018-09-16T07:34:55Z</time>
      </trkpt>
      <trkpt lat="44.75246" lon="6.71381">
        <ele>2053.03</ele>
        <time>2018-09-16T07:35:08Z</time>
      </trkpt>
      <trkpt lat="44.75238" lon="6.71375">
        <ele>2054.96</ele>
        <time>2018-09-16T07:35:24Z</time>
      </trkpt>
      <trkpt lat="44.75228" lon="6.7137">
        <ele>2056.88</ele>
        <time>2018-09-16T07:35:37Z</time>
      </trkpt>
      <trkpt lat="44.75216" lon="6.71373">
        <ele>2059.28</ele>
        <time>2018-09-16T07:35:51Z</time>
      </trkpt>
      <trkpt lat="44.75206" lon="6.71369">
        <ele>2061.68</ele>
        <time>2018-09-16T07:36:08Z</time>
      </trkpt>
      <trkpt lat="44.75195" lon="6.71363">
        <ele>2065.53</ele>
        <time>2018-09-16T07:36:28Z</time>
      </trkpt>
      <trkpt lat="44.75186" lon="6.71357">
        <ele>2069.38</ele>
        <time>2018-09-16T07:36:53Z</time>
      </trkpt>
      <trkpt lat="44.75169" lon="6.7135">
        <ele>2073.22</ele>
        <time>2018-09-16T07:37:17Z</time>
      </trkpt>
      <trkpt lat="44.7516" lon="6.71344">
        <ele>2076.59</ele>
        <time>2018-09-16T07:37:35Z</time>
      </trkpt>
      <trkpt lat="44.75162" lon="6.71331">
        <ele>2078.51</ele>
        <time>2018-09-16T07:37:50Z</time>
      </trkpt>
      <trkpt lat="44.75168" lon="6.71321">
        <ele>2081.87</ele>
        <time>2018-09-16T07:38:06Z</time>
      </trkpt>
      <trkpt lat="44.75162" lon="6.71314">
        <ele>2083.31</ele>
        <time>2018-09-16T07:38:19Z</time>
      </trkpt>
      <trkpt lat="44.75154" lon="6.71315">
        <ele>2084.76</ele>
        <time>2018-09-16T07:38:31Z</time>
      </trkpt>
      <trkpt lat="44.75146" lon="6.71317">
        <ele>2086.2</ele>
        <time>2018-09-16T07:38:43Z</time>
      </trkpt>
      <trkpt lat="44.75139" lon="6.71324">
        <ele>2086.2</ele>
        <time>2018-09-16T07:38:54Z</time>
      </trkpt>
      <trkpt lat="44.75128" lon="6.71328">
        <ele>2087.64</ele>
        <time>2018-09-16T07:39:09Z</time>
      </trkpt>
      <trkpt lat="44.75116" lon="6.71326">
        <ele>2091.97</ele>
        <time>2018-09-16T07:39:25Z</time>
      </trkpt>
      <trkpt lat="44.75103" lon="6.71307">
        <ele>2095.81</ele>
        <time>2018-09-16T07:39:40Z</time>
      </trkpt>
      <trkpt lat="44.75096" lon="6.713">
        <ele>2096.77</ele>
        <time>2018-09-16T07:39:53Z</time>
      </trkpt>
      <trkpt lat="44.75087" lon="6.71296">
        <ele>2097.25</ele>
        <time>2018-09-16T07:40:11Z</time>
      </trkpt>
      <trkpt lat="44.75081" lon="6.71288">
        <ele>2101.58</ele>
        <time>2018-09-16T07:40:25Z</time>
      </trkpt>
      <trkpt lat="44.75071" lon="6.71283">
        <ele>2104.94</ele>
        <time>2018-09-16T07:40:40Z</time>
      </trkpt>
      <trkpt lat="44.75062" lon="6.71279">
        <ele>2106.87</ele>
        <time>2018-09-16T07:40:52Z</time>
      </trkpt>
      <trkpt lat="44.75051" lon="6.71282">
        <ele>2105.42</ele>
        <time>2018-09-16T07:41:04Z</time>
      </trkpt>
      <trkpt lat="44.75042" lon="6.71285">
        <ele>2107.83</ele>
        <time>2018-09-16T07:41:17Z</time>
      </trkpt>
      <trkpt lat="44.75033" lon="6.71288">
        <ele>2113.6</ele>
        <time>2018-09-16T07:41:29Z</time>
      </trkpt>
      <trkpt lat="44.75023" lon="6.71294">
        <ele>2115.52</ele>
        <time>2018-09-16T07:41:43Z</time>
      </trkpt>
      <trkpt lat="44.75015" lon="6.713">
        <ele>2117.92</ele>
        <time>2018-09-16T07:42:02Z</time>
      </trkpt>
      <trkpt lat="44.75008" lon="6.71306">
        <ele>2117.92</ele>
        <time>2018-09-16T07:42:38Z</time>
      </trkpt>
      <trkpt lat="44.74998" lon="6.71315">
        <ele>2122.25</ele>
        <time>2018-09-16T07:42:54Z</time>
      </trkpt>
      <trkpt lat="44.74987" lon="6.71326">
        <ele>2124.17</ele>
        <time>2018-09-16T07:43:10Z</time>
      </trkpt>
      <trkpt lat="44.74979" lon="6.71333">
        <ele>2124.17</ele>
        <time>2018-09-16T07:43:22Z</time>
      </trkpt>
      <trkpt lat="44.74972" lon="6.71346">
        <ele>2124.17</ele>
        <time>2018-09-16T07:43:37Z</time>
      </trkpt>
      <trkpt lat="44.74965" lon="6.71356">
        <ele>2126.57</ele>
        <time>2018-09-16T07:43:50Z</time>
      </trkpt>
      <trkpt lat="44.74958" lon="6.71362">
        <ele>2129.46</ele>
        <time>2018-09-16T07:44:03Z</time>
      </trkpt>
      <trkpt lat="44.74948" lon="6.71367">
        <ele>2126.57</ele>
        <time>2018-09-16T07:44:14Z</time>
      </trkpt>
      <trkpt lat="44.74938" lon="6.71373">
        <ele>2131.38</ele>
        <time>2018-09-16T07:44:23Z</time>
      </trkpt>
      <trkpt lat="44.74927" lon="6.71376">
        <ele>2130.9</ele>
        <time>2018-09-16T07:44:34Z</time>
      </trkpt>
      <trkpt lat="44.74916" lon="6.71369">
        <ele>2131.38</ele>
        <time>2018-09-16T07:44:44Z</time>
      </trkpt>
      <trkpt lat="44.74905" lon="6.71367">
        <ele>2134.74</ele>
        <time>2018-09-16T07:44:55Z</time>
      </trkpt>
      <trkpt lat="44.74893" lon="6.71366">
        <ele>2131.38</ele>
        <time>2018-09-16T07:45:05Z</time>
      </trkpt>
      <trkpt lat="44.74883" lon="6.71365">
        <ele>2132.34</ele>
        <time>2018-09-16T07:45:15Z</time>
      </trkpt>
      <trkpt lat="44.74873" lon="6.71359">
        <ele>2134.26</ele>
        <time>2018-09-16T07:45:25Z</time>
      </trkpt>
      <trkpt lat="44.74863" lon="6.71351">
        <ele>2138.59</ele>
        <time>2018-09-16T07:45:36Z</time>
      </trkpt>
      <trkpt lat="44.74853" lon="6.71344">
        <ele>2140.51</ele>
        <time>2018-09-16T07:45:46Z</time>
      </trkpt>
      <trkpt lat="44.74843" lon="6.71338">
        <ele>2141.47</ele>
        <time>2018-09-16T07:45:56Z</time>
      </trkpt>
      <trkpt lat="44.74835" lon="6.71333">
        <ele>2140.51</ele>
        <time>2018-09-16T07:46:07Z</time>
      </trkpt>
      <trkpt lat="44.74825" lon="6.71329">
        <ele>2143.88</ele>
        <time>2018-09-16T07:46:17Z</time>
      </trkpt>
      <trkpt lat="44.74816" lon="6.71325">
        <ele>2141.47</ele>
        <time>2018-09-16T07:46:27Z</time>
      </trkpt>
      <trkpt lat="44.74807" lon="6.71321">
        <ele>2141.95</ele>
        <time>2018-09-16T07:46:38Z</time>
      </trkpt>
      <trkpt lat="44.74797" lon="6.71313">
        <ele>2142.92</ele>
        <time>2018-09-16T07:46:48Z</time>
      </trkpt>
      <trkpt lat="44.74789" lon="6.71306">
        <ele>2144.36</ele>
        <time>2018-09-16T07:46:59Z</time>
      </trkpt>
      <trkpt lat="44.74781" lon="6.71299">
        <ele>2144.84</ele>
        <time>2018-09-16T07:47:09Z</time>
      </trkpt>
      <trkpt lat="44.74771" lon="6.71285">
        <ele>2144.36</ele>
        <time>2018-09-16T07:47:18Z</time>
      </trkpt>
      <trkpt lat="44.74764" lon="6.7127">
        <ele>2147.72</ele>
        <time>2018-09-16T07:47:29Z</time>
      </trkpt>
      <trkpt lat="44.74756" lon="6.71261">
        <ele>2146.28</ele>
        <time>2018-09-16T07:47:38Z</time>
      </trkpt>
      <trkpt lat="44.74747" lon="6.71255">
        <ele>2149.16</ele>
        <time>2018-09-16T07:47:47Z</time>
      </trkpt>
      <trkpt lat="44.74738" lon="6.71251">
        <ele>2147.72</ele>
        <time>2018-09-16T07:47:57Z</time>
      </trkpt>
      <trkpt lat="44.74731" lon="6.71251">
        <ele>2147.72</ele>
        <time>2018-09-16T07:48:06Z</time>
      </trkpt>
      <trkpt lat="44.74722" lon="6.7125">
        <ele>2147.72</ele>
        <time>2018-09-16T07:48:16Z</time>
      </trkpt>
      <trkpt lat="44.74713" lon="6.71255">
        <ele>2150.13</ele>
        <time>2018-09-16T07:48:26Z</time>
      </trkpt>
      <trkpt lat="44.74703" lon="6.71262">
        <ele>2154.45</ele>
        <time>2018-09-16T07:48:37Z</time>
      </trkpt>
      <trkpt lat="44.74693" lon="6.71266">
        <ele>2151.57</ele>
        <time>2018-09-16T07:48:49Z</time>
      </trkpt>
      <trkpt lat="44.74683" lon="6.71268">
        <ele>2156.37</ele>
        <time>2018-09-16T07:49:00Z</time>
      </trkpt>
      <trkpt lat="44.74674" lon="6.71267">
        <ele>2155.41</ele>
        <time>2018-09-16T07:49:12Z</time>
      </trkpt>
      <trkpt lat="44.74664" lon="6.71263">
        <ele>2155.89</ele>
        <time>2018-09-16T07:49:27Z</time>
      </trkpt>
      <trkpt lat="44.74653" lon="6.71263">
        <ele>2158.78</ele>
        <time>2018-09-16T07:49:39Z</time>
      </trkpt>
      <trkpt lat="44.74642" lon="6.71262">
        <ele>2163.1</ele>
        <time>2018-09-16T07:49:51Z</time>
      </trkpt>
      <trkpt lat="44.74633" lon="6.71258">
        <ele>2160.22</ele>
        <time>2018-09-16T07:50:03Z</time>
      </trkpt>
      <trkpt lat="44.74623" lon="6.71261">
        <ele>2164.55</ele>
        <time>2018-09-16T07:50:16Z</time>
      </trkpt>
      <trkpt lat="44.74611" lon="6.71265">
        <ele>2167.43</ele>
        <time>2018-09-16T07:50:30Z</time>
      </trkpt>
      <trkpt lat="44.74601" lon="6.71271">
        <ele>2165.99</ele>
        <time>2018-09-16T07:50:43Z</time>
      </trkpt>
      <trkpt lat="44.7459" lon="6.71274">
        <ele>2169.35</ele>
        <time>2018-09-16T07:50:56Z</time>
      </trkpt>
      <trkpt lat="44.74578" lon="6.71278">
        <ele>2171.76</ele>
        <time>2018-09-16T07:51:12Z</time>
      </trkpt>
      <trkpt lat="44.74566" lon="6.71285">
        <ele>2174.16</ele>
        <time>2018-09-16T07:51:27Z</time>
      </trkpt>
      <trkpt lat="44.74557" lon="6.71283">
        <ele>2174.64</ele>
        <time>2018-09-16T07:51:41Z</time>
      </trkpt>
      <trkpt lat="44.74547" lon="6.71285">
        <ele>2177.52</ele>
        <time>2018-09-16T07:51:55Z</time>
      </trkpt>
      <trkpt lat="44.74537" lon="6.71288">
        <ele>2179.45</ele>
        <time>2018-09-16T07:52:10Z</time>
      </trkpt>
      <trkpt lat="44.74528" lon="6.71283">
        <ele>2180.41</ele>
        <time>2018-09-16T07:52:23Z</time>
      </trkpt>
      <trkpt lat="44.74516" lon="6.71284">
        <ele>2183.29</ele>
        <time>2018-09-16T07:52:38Z</time>
      </trkpt>
      <trkpt lat="44.74505" lon="6.71281">
        <ele>2185.21</ele>
        <time>2018-09-16T07:52:53Z</time>
      </trkpt>
      <trkpt lat="44.74495" lon="6.7128">
        <ele>2186.66</ele>
        <time>2018-09-16T07:53:09Z</time>
      </trkpt>
      <trkpt lat="44.74486" lon="6.7128">
        <ele>2190.98</ele>
        <time>2018-09-16T07:53:22Z</time>
      </trkpt>
      <trkpt lat="44.74475" lon="6.71281">
        <ele>2190.98</ele>
        <time>2018-09-16T07:53:35Z</time>
      </trkpt>
      <trkpt lat="44.74467" lon="6.71292">
        <ele>2193.87</ele>
        <time>2018-09-16T07:53:49Z</time>
      </trkpt>
      <trkpt lat="44.74458" lon="6.71302">
        <ele>2195.31</ele>
        <time>2018-09-16T07:54:05Z</time>
      </trkpt>
      <trkpt lat="44.74448" lon="6.71307">
        <ele>2197.71</ele>
        <time>2018-09-16T07:54:16Z</time>
      </trkpt>
      <trkpt lat="44.74438" lon="6.71314">
        <ele>2199.15</ele>
        <time>2018-09-16T07:54:28Z</time>
      </trkpt>
      <trkpt lat="44.74428" lon="6.71317">
        <ele>2200.11</ele>
        <time>2018-09-16T07:54:41Z</time>
      </trkpt>
      <trkpt lat="44.74421" lon="6.71314">
        <ele>2202.52</ele>
        <time>2018-09-16T07:54:54Z</time>
      </trkpt>
      <trkpt lat="44.74411" lon="6.71309">
        <ele>2204.92</ele>
        <time>2018-09-16T07:55:08Z</time>
      </trkpt>
      <trkpt lat="44.74402" lon="6.71302">
        <ele>2207.32</ele>
        <time>2018-09-16T07:55:21Z</time>
      </trkpt>
      <trkpt lat="44.74391" lon="6.71293">
        <ele>2209.73</ele>
        <time>2018-09-16T07:55:40Z</time>
      </trkpt>
      <trkpt lat="44.74385" lon="6.71301">
        <ele>2210.69</ele>
        <time>2018-09-16T07:55:52Z</time>
      </trkpt>
      <trkpt lat="44.74385" lon="6.71314">
        <ele>2213.09</ele>
        <time>2018-09-16T07:56:07Z</time>
      </trkpt>
      <trkpt lat="44.74375" lon="6.71319">
        <ele>2215.01</ele>
        <time>2018-09-16T07:56:20Z</time>
      </trkpt>
      <trkpt lat="44.74366" lon="6.71317">
        <ele>2216.94</ele>
        <time>2018-09-16T07:56:34Z</time>
      </trkpt>
      <trkpt lat="44.74358" lon="6.71315">
        <ele>2219.34</ele>
        <time>2018-09-16T07:56:48Z</time>
      </trkpt>
      <trkpt lat="44.74346" lon="6.71312">
        <ele>2221.74</ele>
        <time>2018-09-16T07:57:07Z</time>
      </trkpt>
      <trkpt lat="44.74335" lon="6.71309">
        <ele>2223.19</ele>
        <time>2018-09-16T07:57:21Z</time>
      </trkpt>
      <trkpt lat="44.74331" lon="6.71313">
        <ele>2224.63</ele>
        <time>2018-09-16T07:58:10Z</time>
      </trkpt>
      <trkpt lat="44.74321" lon="6.71317">
        <ele>2226.07</ele>
        <time>2018-09-16T07:58:30Z</time>
      </trkpt>
      <trkpt lat="44.74313" lon="6.71329">
        <ele>2228.47</ele>
        <time>2018-09-16T07:58:43Z</time>
      </trkpt>
      <trkpt lat="44.74306" lon="6.71342">
        <ele>2230.4</ele>
        <time>2018-09-16T07:58:57Z</time>
      </trkpt>
      <trkpt lat="44.74298" lon="6.71352">
        <ele>2231.36</ele>
        <time>2018-09-16T07:59:07Z</time>
      </trkpt>
      <trkpt lat="44.74294" lon="6.71348">
        <ele>2232.8</ele>
        <time>2018-09-16T07:59:19Z</time>
      </trkpt>
      <trkpt lat="44.74287" lon="6.71354">
        <ele>2235.68</ele>
        <time>2018-09-16T07:59:34Z</time>
      </trkpt>
      <trkpt lat="44.74278" lon="6.71362">
        <ele>2237.61</ele>
        <time>2018-09-16T07:59:50Z</time>
      </trkpt>
      <trkpt lat="44.74271" lon="6.71351">
        <ele>2239.53</ele>
        <time>2018-09-16T08:00:08Z</time>
      </trkpt>
      <trkpt lat="44.74266" lon="6.71364">
        <ele>2241.45</ele>
        <time>2018-09-16T08:00:21Z</time>
      </trkpt>
      <trkpt lat="44.74256" lon="6.71373">
        <ele>2243.37</ele>
        <time>2018-09-16T08:00:36Z</time>
      </trkpt>
      <trkpt lat="44.74255" lon="6.71357">
        <ele>2245.3</ele>
        <time>2018-09-16T08:00:49Z</time>
      </trkpt>
      <trkpt lat="44.74246" lon="6.71359">
        <ele>2247.22</ele>
        <time>2018-09-16T08:01:04Z</time>
      </trkpt>
      <trkpt lat="44.74245" lon="6.71345">
        <ele>2250.1</ele>
        <time>2018-09-16T08:01:40Z</time>
      </trkpt>
      <trkpt lat="44.74247" lon="6.71329">
        <ele>2252.99</ele>
        <time>2018-09-16T08:01:56Z</time>
      </trkpt>
      <trkpt lat="44.74237" lon="6.71333">
        <ele>2254.43</ele>
        <time>2018-09-16T08:02:19Z</time>
      </trkpt>
      <trkpt lat="44.74229" lon="6.71341">
        <ele>2258.27</ele>
        <time>2018-09-16T08:02:38Z</time>
      </trkpt>
      <trkpt lat="44.74219" lon="6.71353">
        <ele>2261.16</ele>
        <time>2018-09-16T08:03:03Z</time>
      </trkpt>
      <trkpt lat="44.74208" lon="6.71348">
        <ele>2263.08</ele>
        <time>2018-09-16T08:03:54Z</time>
      </trkpt>
      <trkpt lat="44.74211" lon="6.71366">
        <ele>2265</ele>
        <time>2018-09-16T08:04:08Z</time>
      </trkpt>
      <trkpt lat="44.74209" lon="6.71378">
        <ele>2267.41</ele>
        <time>2018-09-16T08:04:22Z</time>
      </trkpt>
      <trkpt lat="44.74208" lon="6.71394">
        <ele>2270.29</ele>
        <time>2018-09-16T08:04:35Z</time>
      </trkpt>
      <trkpt lat="44.74215" lon="6.71403">
        <ele>2272.21</ele>
        <time>2018-09-16T08:04:47Z</time>
      </trkpt>
      <trkpt lat="44.74204" lon="6.71408">
        <ele>2273.66</ele>
        <time>2018-09-16T08:04:58Z</time>
      </trkpt>
      <trkpt lat="44.74192" lon="6.71408">
        <ele>2275.58</ele>
        <time>2018-09-16T08:05:12Z</time>
      </trkpt>
      <trkpt lat="44.74184" lon="6.71413">
        <ele>2275.1</ele>
        <time>2018-09-16T08:05:22Z</time>
      </trkpt>
      <trkpt lat="44.74173" lon="6.71424">
        <ele>2275.58</ele>
        <time>2018-09-16T08:05:33Z</time>
      </trkpt>
      <trkpt lat="44.74162" lon="6.71429">
        <ele>2276.54</ele>
        <time>2018-09-16T08:05:46Z</time>
      </trkpt>
      <trkpt lat="44.74151" lon="6.71437">
        <ele>2279.42</ele>
        <time>2018-09-16T08:05:59Z</time>
      </trkpt>
      <trkpt lat="44.74142" lon="6.71448">
        <ele>2281.83</ele>
        <time>2018-09-16T08:06:12Z</time>
      </trkpt>
      <trkpt lat="44.74134" lon="6.71459">
        <ele>2283.27</ele>
        <time>2018-09-16T08:06:24Z</time>
      </trkpt>
      <trkpt lat="44.74126" lon="6.71467">
        <ele>2284.71</ele>
        <time>2018-09-16T08:06:34Z</time>
      </trkpt>
      <trkpt lat="44.74117" lon="6.7147">
        <ele>2287.11</ele>
        <time>2018-09-16T08:06:46Z</time>
      </trkpt>
      <trkpt lat="44.74109" lon="6.71474">
        <ele>2290.48</ele>
        <time>2018-09-16T08:07:01Z</time>
      </trkpt>
      <trkpt lat="44.74102" lon="6.71469">
        <ele>2293.36</ele>
        <time>2018-09-16T08:07:14Z</time>
      </trkpt>
      <trkpt lat="44.74093" lon="6.71478">
        <ele>2294.8</ele>
        <time>2018-09-16T08:07:28Z</time>
      </trkpt>
      <trkpt lat="44.74083" lon="6.71489">
        <ele>2296.73</ele>
        <time>2018-09-16T08:07:42Z</time>
      </trkpt>
      <trkpt lat="44.74073" lon="6.71489">
        <ele>2299.61</ele>
        <time>2018-09-16T08:07:55Z</time>
      </trkpt>
      <trkpt lat="44.74065" lon="6.7149">
        <ele>2301.53</ele>
        <time>2018-09-16T08:08:08Z</time>
      </trkpt>
      <trkpt lat="44.74055" lon="6.71499">
        <ele>2303.94</ele>
        <time>2018-09-16T08:08:22Z</time>
      </trkpt>
      <trkpt lat="44.74045" lon="6.71499">
        <ele>2306.34</ele>
        <time>2018-09-16T08:08:36Z</time>
      </trkpt>
      <trkpt lat="44.74034" lon="6.71498">
        <ele>2307.78</ele>
        <time>2018-09-16T08:08:50Z</time>
      </trkpt>
      <trkpt lat="44.74026" lon="6.71499">
        <ele>2309.7</ele>
        <time>2018-09-16T08:09:03Z</time>
      </trkpt>
      <trkpt lat="44.74016" lon="6.71493">
        <ele>2311.15</ele>
        <time>2018-09-16T08:09:14Z</time>
      </trkpt>
      <trkpt lat="44.74007" lon="6.71488">
        <ele>2313.07</ele>
        <time>2018-09-16T08:09:25Z</time>
      </trkpt>
      <trkpt lat="44.73998" lon="6.71485">
        <ele>2314.03</ele>
        <time>2018-09-16T08:09:35Z</time>
      </trkpt>
      <trkpt lat="44.73988" lon="6.71481">
        <ele>2315.95</ele>
        <time>2018-09-16T08:09:48Z</time>
      </trkpt>
      <trkpt lat="44.73979" lon="6.71477">
        <ele>2317.4</ele>
        <time>2018-09-16T08:10:00Z</time>
      </trkpt>
      <trkpt lat="44.73971" lon="6.71469">
        <ele>2318.84</ele>
        <time>2018-09-16T08:10:12Z</time>
      </trkpt>
      <trkpt lat="44.73963" lon="6.7146">
        <ele>2320.28</ele>
        <time>2018-09-16T08:10:24Z</time>
      </trkpt>
      <trkpt lat="44.73956" lon="6.71448">
        <ele>2321.72</ele>
        <time>2018-09-16T08:10:36Z</time>
      </trkpt>
      <trkpt lat="44.7395" lon="6.71434">
        <ele>2323.64</ele>
        <time>2018-09-16T08:10:49Z</time>
      </trkpt>
      <trkpt lat="44.73945" lon="6.71422">
        <ele>2326.05</ele>
        <time>2018-09-16T08:11:03Z</time>
      </trkpt>
      <trkpt lat="44.73937" lon="6.71417">
        <ele>2326.53</ele>
        <time>2018-09-16T08:11:13Z</time>
      </trkpt>
      <trkpt lat="44.7393" lon="6.71413">
        <ele>2327.49</ele>
        <time>2018-09-16T08:11:26Z</time>
      </trkpt>
      <trkpt lat="44.73923" lon="6.71405">
        <ele>2329.89</ele>
        <time>2018-09-16T08:11:39Z</time>
      </trkpt>
      <trkpt lat="44.73923" lon="6.71395">
        <ele>2331.81</ele>
        <time>2018-09-16T08:11:51Z</time>
      </trkpt>
      <trkpt lat="44.73924" lon="6.71382">
        <ele>2333.74</ele>
        <time>2018-09-16T08:12:05Z</time>
      </trkpt>
      <trkpt lat="44.73926" lon="6.71367">
        <ele>2336.14</ele>
        <time>2018-09-16T08:12:19Z</time>
      </trkpt>
      <trkpt lat="44.73926" lon="6.71353">
        <ele>2337.58</ele>
        <time>2018-09-16T08:12:33Z</time>
      </trkpt>
      <trkpt lat="44.73919" lon="6.7135">
        <ele>2339.51</ele>
        <time>2018-09-16T08:12:46Z</time>
      </trkpt>
      <trkpt lat="44.73908" lon="6.7135">
        <ele>2341.91</ele>
        <time>2018-09-16T08:13:01Z</time>
      </trkpt>
      <trkpt lat="44.73902" lon="6.71356">
        <ele>2344.31</ele>
        <time>2018-09-16T08:13:15Z</time>
      </trkpt>
      <trkpt lat="44.73892" lon="6.71355">
        <ele>2345.27</ele>
        <time>2018-09-16T08:13:28Z</time>
      </trkpt>
      <trkpt lat="44.73882" lon="6.71351">
        <ele>2347.2</ele>
        <time>2018-09-16T08:13:40Z</time>
      </trkpt>
      <trkpt lat="44.73873" lon="6.71354">
        <ele>2348.16</ele>
        <time>2018-09-16T08:13:52Z</time>
      </trkpt>
      <trkpt lat="44.73862" lon="6.7135">
        <ele>2348.64</ele>
        <time>2018-09-16T08:14:06Z</time>
      </trkpt>
      <trkpt lat="44.73853" lon="6.71341">
        <ele>2350.08</ele>
        <time>2018-09-16T08:14:18Z</time>
      </trkpt>
      <trkpt lat="44.73845" lon="6.71332">
        <ele>2352.48</ele>
        <time>2018-09-16T08:14:29Z</time>
      </trkpt>
      <trkpt lat="44.73837" lon="6.71327">
        <ele>2354.41</ele>
        <time>2018-09-16T08:14:40Z</time>
      </trkpt>
      <trkpt lat="44.73828" lon="6.71322">
        <ele>2354.41</ele>
        <time>2018-09-16T08:14:51Z</time>
      </trkpt>
      <trkpt lat="44.73822" lon="6.71309">
        <ele>2355.85</ele>
        <time>2018-09-16T08:15:02Z</time>
      </trkpt>
      <trkpt lat="44.73816" lon="6.71296">
        <ele>2357.77</ele>
        <time>2018-09-16T08:15:14Z</time>
      </trkpt>
      <trkpt lat="44.73808" lon="6.71295">
        <ele>2358.25</ele>
        <time>2018-09-16T08:15:24Z</time>
      </trkpt>
      <trkpt lat="44.73801" lon="6.71306">
        <ele>2360.17</ele>
        <time>2018-09-16T08:15:37Z</time>
      </trkpt>
      <trkpt lat="44.73791" lon="6.71305">
        <ele>2362.1</ele>
        <time>2018-09-16T08:15:51Z</time>
      </trkpt>
      <trkpt lat="44.73782" lon="6.71297">
        <ele>2364.02</ele>
        <time>2018-09-16T08:16:04Z</time>
      </trkpt>
      <trkpt lat="44.7378" lon="6.71282">
        <ele>2365.94</ele>
        <time>2018-09-16T08:16:13Z</time>
      </trkpt>
      <trkpt lat="44.73781" lon="6.71272">
        <ele>2368.35</ele>
        <time>2018-09-16T08:16:25Z</time>
      </trkpt>
      <trkpt lat="44.73781" lon="6.71261">
        <ele>2369.79</ele>
        <time>2018-09-16T08:16:36Z</time>
      </trkpt>
      <trkpt lat="44.73777" lon="6.71255">
        <ele>2371.23</ele>
        <time>2018-09-16T08:16:49Z</time>
      </trkpt>
      <trkpt lat="44.73768" lon="6.71256">
        <ele>2373.15</ele>
        <time>2018-09-16T08:17:00Z</time>
      </trkpt>
      <trkpt lat="44.73766" lon="6.71266">
        <ele>2374.59</ele>
        <time>2018-09-16T08:17:11Z</time>
      </trkpt>
      <trkpt lat="44.73757" lon="6.71262">
        <ele>2376.52</ele>
        <time>2018-09-16T08:17:25Z</time>
      </trkpt>
      <trkpt lat="44.73748" lon="6.71256">
        <ele>2378.92</ele>
        <time>2018-09-16T08:17:36Z</time>
      </trkpt>
      <trkpt lat="44.73738" lon="6.71255">
        <ele>2380.84</ele>
        <time>2018-09-16T08:17:51Z</time>
      </trkpt>
      <trkpt lat="44.73736" lon="6.71244">
        <ele>2382.28</ele>
        <time>2018-09-16T08:18:02Z</time>
      </trkpt>
      <trkpt lat="44.73735" lon="6.71241">
        <ele>2385.17</ele>
        <time>2018-09-16T08:18:16Z</time>
      </trkpt>
      <trkpt lat="44.73727" lon="6.71245">
        <ele>2385.65</ele>
        <time>2018-09-16T08:18:27Z</time>
      </trkpt>
      <trkpt lat="44.73723" lon="6.71257">
        <ele>2388.05</ele>
        <time>2018-09-16T08:18:39Z</time>
      </trkpt>
      <trkpt lat="44.73714" lon="6.71265">
        <ele>2389.97</ele>
        <time>2018-09-16T08:18:50Z</time>
      </trkpt>
      <trkpt lat="44.73705" lon="6.71267">
        <ele>2391.9</ele>
        <time>2018-09-16T08:19:03Z</time>
      </trkpt>
      <trkpt lat="44.73696" lon="6.7127">
        <ele>2393.82</ele>
        <time>2018-09-16T08:19:16Z</time>
      </trkpt>
      <trkpt lat="44.73687" lon="6.71262">
        <ele>2396.7</ele>
        <time>2018-09-16T08:19:29Z</time>
      </trkpt>
      <trkpt lat="44.7369" lon="6.71248">
        <ele>2399.11</ele>
        <time>2018-09-16T08:19:41Z</time>
      </trkpt>
      <trkpt lat="44.73696" lon="6.71235">
        <ele>2400.07</ele>
        <time>2018-09-16T08:19:53Z</time>
      </trkpt>
      <trkpt lat="44.73693" lon="6.7122">
        <ele>2401.03</ele>
        <time>2018-09-16T08:20:05Z</time>
      </trkpt>
      <trkpt lat="44.7369" lon="6.71229">
        <ele>2402.47</ele>
        <time>2018-09-16T08:20:16Z</time>
      </trkpt>
      <trkpt lat="44.7368" lon="6.71217">
        <ele>2405.36</ele>
        <time>2018-09-16T08:20:31Z</time>
      </trkpt>
      <trkpt lat="44.73684" lon="6.71206">
        <ele>2407.76</ele>
        <time>2018-09-16T08:20:50Z</time>
      </trkpt>
      <trkpt lat="44.73686" lon="6.71192">
        <ele>2408.72</ele>
        <time>2018-09-16T08:21:01Z</time>
      </trkpt>
      <trkpt lat="44.73684" lon="6.71182">
        <ele>2410.16</ele>
        <time>2018-09-16T08:21:14Z</time>
      </trkpt>
      <trkpt lat="44.73682" lon="6.71179">
        <ele>2413.05</ele>
        <time>2018-09-16T08:21:28Z</time>
      </trkpt>
      <trkpt lat="44.73675" lon="6.71183">
        <ele>2415.45</ele>
        <time>2018-09-16T08:21:40Z</time>
      </trkpt>
      <trkpt lat="44.73667" lon="6.71186">
        <ele>2416.89</ele>
        <time>2018-09-16T08:21:52Z</time>
      </trkpt>
      <trkpt lat="44.73668" lon="6.71168">
        <ele>2420.26</ele>
        <time>2018-09-16T08:22:08Z</time>
      </trkpt>
      <trkpt lat="44.73664" lon="6.7117">
        <ele>2422.18</ele>
        <time>2018-09-16T08:22:24Z</time>
      </trkpt>
      <trkpt lat="44.73656" lon="6.71179">
        <ele>2424.1</ele>
        <time>2018-09-16T08:22:36Z</time>
      </trkpt>
      <trkpt lat="44.7365" lon="6.71186">
        <ele>2425.54</ele>
        <time>2018-09-16T08:22:48Z</time>
      </trkpt>
      <trkpt lat="44.73641" lon="6.71193">
        <ele>2427.47</ele>
        <time>2018-09-16T08:23:02Z</time>
      </trkpt>
      <trkpt lat="44.73633" lon="6.71195">
        <ele>2429.87</ele>
        <time>2018-09-16T08:23:16Z</time>
      </trkpt>
      <trkpt lat="44.73627" lon="6.71192">
        <ele>2432.27</ele>
        <time>2018-09-16T08:23:32Z</time>
      </trkpt>
      <trkpt lat="44.7363" lon="6.71179">
        <ele>2434.68</ele>
        <time>2018-09-16T08:23:47Z</time>
      </trkpt>
      <trkpt lat="44.73632" lon="6.71164">
        <ele>2436.6</ele>
        <time>2018-09-16T08:24:01Z</time>
      </trkpt>
      <trkpt lat="44.73633" lon="6.71153">
        <ele>2439.48</ele>
        <time>2018-09-16T08:24:15Z</time>
      </trkpt>
      <trkpt lat="44.73635" lon="6.71141">
        <ele>2440.92</ele>
        <time>2018-09-16T08:24:28Z</time>
      </trkpt>
      <trkpt lat="44.73631" lon="6.71128">
        <ele>2443.33</ele>
        <time>2018-09-16T08:24:45Z</time>
      </trkpt>
      <trkpt lat="44.73625" lon="6.7112">
        <ele>2445.73</ele>
        <time>2018-09-16T08:25:01Z</time>
      </trkpt>
      <trkpt lat="44.73618" lon="6.71124">
        <ele>2449.1</ele>
        <time>2018-09-16T08:25:18Z</time>
      </trkpt>
      <trkpt lat="44.73617" lon="6.7111">
        <ele>2450.54</ele>
        <time>2018-09-16T08:25:34Z</time>
      </trkpt>
      <trkpt lat="44.73609" lon="6.71105">
        <ele>2452.94</ele>
        <time>2018-09-16T08:25:49Z</time>
      </trkpt>
      <trkpt lat="44.73601" lon="6.7111">
        <ele>2455.34</ele>
        <time>2018-09-16T08:26:04Z</time>
      </trkpt>
      <trkpt lat="44.73594" lon="6.71117">
        <ele>2458.71</ele>
        <time>2018-09-16T08:26:21Z</time>
      </trkpt>
      <trkpt lat="44.73586" lon="6.71117">
        <ele>2461.11</ele>
        <time>2018-09-16T08:26:38Z</time>
      </trkpt>
      <trkpt lat="44.73582" lon="6.71103">
        <ele>2463.04</ele>
        <time>2018-09-16T08:26:53Z</time>
      </trkpt>
      <trkpt lat="44.7358" lon="6.71091">
        <ele>2465.92</ele>
        <time>2018-09-16T08:27:10Z</time>
      </trkpt>
      <trkpt lat="44.73573" lon="6.71094">
        <ele>2468.8</ele>
        <time>2018-09-16T08:27:34Z</time>
      </trkpt>
      <trkpt lat="44.73567" lon="6.71094">
        <ele>2470.24</ele>
        <time>2018-09-16T08:27:49Z</time>
      </trkpt>
      <trkpt lat="44.73565" lon="6.71078">
        <ele>2472.65</ele>
        <time>2018-09-16T08:28:02Z</time>
      </trkpt>
      <trkpt lat="44.73562" lon="6.71062">
        <ele>2475.53</ele>
        <time>2018-09-16T08:28:20Z</time>
      </trkpt>
      <trkpt lat="44.73557" lon="6.71073">
        <ele>2477.94</ele>
        <time>2018-09-16T08:28:37Z</time>
      </trkpt>
      <trkpt lat="44.73551" lon="6.71077">
        <ele>2480.82</ele>
        <time>2018-09-16T08:28:52Z</time>
      </trkpt>
      <trkpt lat="44.73547" lon="6.71065">
        <ele>2481.78</ele>
        <time>2018-09-16T08:29:03Z</time>
      </trkpt>
      <trkpt lat="44.73545" lon="6.71052">
        <ele>2484.66</ele>
        <time>2018-09-16T08:29:18Z</time>
      </trkpt>
      <trkpt lat="44.7354" lon="6.71064">
        <ele>2488.03</ele>
        <time>2018-09-16T08:29:35Z</time>
      </trkpt>
      <trkpt lat="44.73534" lon="6.71074">
        <ele>2490.91</ele>
        <time>2018-09-16T08:29:51Z</time>
      </trkpt>
      <trkpt lat="44.73527" lon="6.71069">
        <ele>2493.8</ele>
        <time>2018-09-16T08:30:09Z</time>
      </trkpt>
      <trkpt lat="44.73519" lon="6.71076">
        <ele>2494.76</ele>
        <time>2018-09-16T08:30:38Z</time>
      </trkpt>
      <trkpt lat="44.7351" lon="6.71071">
        <ele>2495.72</ele>
        <time>2018-09-16T08:30:53Z</time>
      </trkpt>
      <trkpt lat="44.73514" lon="6.7106">
        <ele>2498.12</ele>
        <time>2018-09-16T08:33:37Z</time>
      </trkpt>
      <trkpt lat="44.73514" lon="6.71046">
        <ele>2500.05</ele>
        <time>2018-09-16T08:33:47Z</time>
      </trkpt>
      <trkpt lat="44.73511" lon="6.7105">
        <ele>2506.77</ele>
        <time>2018-09-16T08:56:20Z</time>
      </trkpt>
      <trkpt lat="44.7351" lon="6.71047">
        <ele>2506.29</ele>
        <time>2018-09-16T08:57:34Z</time>
      </trkpt>
      <trkpt lat="44.73518" lon="6.71033">
        <ele>2509.66</ele>
        <time>2018-09-16T08:57:46Z</time>
      </trkpt>
      <trkpt lat="44.73522" lon="6.71019">
        <ele>2511.1</ele>
        <time>2018-09-16T08:57:58Z</time>
      </trkpt>
      <trkpt lat="44.73522" lon="6.71005">
        <ele>2512.54</ele>
        <time>2018-09-16T08:58:10Z</time>
      </trkpt>
      <trkpt lat="44.73525" lon="6.70992">
        <ele>2514.95</ele>
        <time>2018-09-16T08:58:24Z</time>
      </trkpt>
      <trkpt lat="44.73529" lon="6.70981">
        <ele>2516.39</ele>
        <time>2018-09-16T08:58:41Z</time>
      </trkpt>
      <trkpt lat="44.73534" lon="6.70969">
        <ele>2519.27</ele>
        <time>2018-09-16T08:58:59Z</time>
      </trkpt>
      <trkpt lat="44.73532" lon="6.70958">
        <ele>2521.68</ele>
        <time>2018-09-16T08:59:15Z</time>
      </trkpt>
      <trkpt lat="44.73523" lon="6.70954">
        <ele>2524.56</ele>
        <time>2018-09-16T08:59:31Z</time>
      </trkpt>
      <trkpt lat="44.73515" lon="6.70948">
        <ele>2526</ele>
        <time>2018-09-16T08:59:43Z</time>
      </trkpt>
      <trkpt lat="44.73507" lon="6.70938">
        <ele>2528.89</ele>
        <time>2018-09-16T08:59:58Z</time>
      </trkpt>
      <trkpt lat="44.73503" lon="6.70927">
        <ele>2530.33</ele>
        <time>2018-09-16T09:00:13Z</time>
      </trkpt>
      <trkpt lat="44.73499" lon="6.70915">
        <ele>2532.73</ele>
        <time>2018-09-16T09:00:27Z</time>
      </trkpt>
      <trkpt lat="44.73494" lon="6.70905">
        <ele>2535.13</ele>
        <time>2018-09-16T09:00:41Z</time>
      </trkpt>
      <trkpt lat="44.73489" lon="6.70897">
        <ele>2538.02</ele>
        <time>2018-09-16T09:00:56Z</time>
      </trkpt>
      <trkpt lat="44.73499" lon="6.70897">
        <ele>2538.98</ele>
        <time>2018-09-16T09:02:02Z</time>
      </trkpt>
      <trkpt lat="44.73509" lon="6.70902">
        <ele>2541.38</ele>
        <time>2018-09-16T09:02:16Z</time>
      </trkpt>
      <trkpt lat="44.73518" lon="6.70901">
        <ele>2544.75</ele>
        <time>2018-09-16T09:02:44Z</time>
      </trkpt>
      <trkpt lat="44.73528" lon="6.70897">
        <ele>2546.67</ele>
        <time>2018-09-16T09:02:58Z</time>
      </trkpt>
      <trkpt lat="44.73537" lon="6.70895">
        <ele>2548.59</ele>
        <time>2018-09-16T09:03:10Z</time>
      </trkpt>
      <trkpt lat="44.73546" lon="6.7089">
        <ele>2550.51</ele>
        <time>2018-09-16T09:03:25Z</time>
      </trkpt>
      <trkpt lat="44.73549" lon="6.70883">
        <ele>2550.51</ele>
        <time>2018-09-16T09:03:39Z</time>
      </trkpt>
      <trkpt lat="44.7356" lon="6.70884">
        <ele>2552.92</ele>
        <time>2018-09-16T09:03:59Z</time>
      </trkpt>
      <trkpt lat="44.73566" lon="6.70876">
        <ele>2554.36</ele>
        <time>2018-09-16T09:04:14Z</time>
      </trkpt>
      <trkpt lat="44.73573" lon="6.70871">
        <ele>2558.21</ele>
        <time>2018-09-16T09:04:35Z</time>
      </trkpt>
      <trkpt lat="44.73582" lon="6.70867">
        <ele>2560.13</ele>
        <time>2018-09-16T09:04:52Z</time>
      </trkpt>
      <trkpt lat="44.73589" lon="6.7086">
        <ele>2562.53</ele>
        <time>2018-09-16T09:05:10Z</time>
      </trkpt>
      <trkpt lat="44.73599" lon="6.70853">
        <ele>2565.9</ele>
        <time>2018-09-16T09:05:30Z</time>
      </trkpt>
      <trkpt lat="44.73605" lon="6.70843">
        <ele>2568.3</ele>
        <time>2018-09-16T09:05:46Z</time>
      </trkpt>
      <trkpt lat="44.73612" lon="6.70832">
        <ele>2569.26</ele>
        <time>2018-09-16T09:06:01Z</time>
      </trkpt>
      <trkpt lat="44.73619" lon="6.70823">
        <ele>2570.22</ele>
        <time>2018-09-16T09:06:12Z</time>
      </trkpt>
      <trkpt lat="44.73626" lon="6.70814">
        <ele>2570.7</ele>
        <time>2018-09-16T09:06:24Z</time>
      </trkpt>
      <trkpt lat="44.73634" lon="6.70804">
        <ele>2572.14</ele>
        <time>2018-09-16T09:06:37Z</time>
      </trkpt>
      <trkpt lat="44.7364" lon="6.70794">
        <ele>2574.07</ele>
        <time>2018-09-16T09:06:52Z</time>
      </trkpt>
      <trkpt lat="44.73646" lon="6.70781">
        <ele>2575.99</ele>
        <time>2018-09-16T09:07:09Z</time>
      </trkpt>
      <trkpt lat="44.73649" lon="6.7077">
        <ele>2578.87</ele>
        <time>2018-09-16T09:07:25Z</time>
      </trkpt>
      <trkpt lat="44.73654" lon="6.70761">
        <ele>2580.8</ele>
        <time>2018-09-16T09:07:41Z</time>
      </trkpt>
      <trkpt lat="44.73657" lon="6.70746">
        <ele>2583.2</ele>
        <time>2018-09-16T09:07:59Z</time>
      </trkpt>
      <trkpt lat="44.73658" lon="6.70732">
        <ele>2584.64</ele>
        <time>2018-09-16T09:08:12Z</time>
      </trkpt>
      <trkpt lat="44.73661" lon="6.7072">
        <ele>2586.08</ele>
        <time>2018-09-16T09:08:25Z</time>
      </trkpt>
      <trkpt lat="44.73663" lon="6.70706">
        <ele>2587.04</ele>
        <time>2018-09-16T09:08:37Z</time>
      </trkpt>
      <trkpt lat="44.73668" lon="6.70696">
        <ele>2588.01</ele>
        <time>2018-09-16T09:08:50Z</time>
      </trkpt>
      <trkpt lat="44.73673" lon="6.70707">
        <ele>2590.89</ele>
        <time>2018-09-16T09:09:05Z</time>
      </trkpt>
      <trkpt lat="44.73679" lon="6.70696">
        <ele>2592.81</ele>
        <time>2018-09-16T09:09:21Z</time>
      </trkpt>
      <trkpt lat="44.73688" lon="6.70691">
        <ele>2595.22</ele>
        <time>2018-09-16T09:09:38Z</time>
      </trkpt>
      <trkpt lat="44.73695" lon="6.70686">
        <ele>2597.62</ele>
        <time>2018-09-16T09:09:57Z</time>
      </trkpt>
      <trkpt lat="44.73702" lon="6.70682">
        <ele>2601.46</ele>
        <time>2018-09-16T09:10:23Z</time>
      </trkpt>
      <trkpt lat="44.73705" lon="6.70671">
        <ele>2605.31</ele>
        <time>2018-09-16T09:10:48Z</time>
      </trkpt>
      <trkpt lat="44.73712" lon="6.70668">
        <ele>2608.67</ele>
        <time>2018-09-16T09:11:09Z</time>
      </trkpt>
      <trkpt lat="44.73717" lon="6.70657">
        <ele>2611.08</ele>
        <time>2018-09-16T09:11:29Z</time>
      </trkpt>
      <trkpt lat="44.73722" lon="6.70647">
        <ele>2613.96</ele>
        <time>2018-09-16T09:11:49Z</time>
      </trkpt>
      <trkpt lat="44.73727" lon="6.70637">
        <ele>2615.88</ele>
        <time>2018-09-16T09:12:03Z</time>
      </trkpt>
      <trkpt lat="44.73732" lon="6.7063">
        <ele>2617.81</ele>
        <time>2018-09-16T09:12:19Z</time>
      </trkpt>
      <trkpt lat="44.7374" lon="6.7062">
        <ele>2620.69</ele>
        <time>2018-09-16T09:12:40Z</time>
      </trkpt>
      <trkpt lat="44.73747" lon="6.70607">
        <ele>2622.61</ele>
        <time>2018-09-16T09:12:58Z</time>
      </trkpt>
      <trkpt lat="44.73747" lon="6.70598">
        <ele>2622.61</ele>
        <time>2018-09-16T09:14:50Z</time>
      </trkpt>
      <trkpt lat="44.73746" lon="6.70585">
        <ele>2623.09</ele>
        <time>2018-09-16T09:15:02Z</time>
      </trkpt>
      <trkpt lat="44.73747" lon="6.70572">
        <ele>2622.61</ele>
        <time>2018-09-16T09:15:13Z</time>
      </trkpt>
      <trkpt lat="44.7375" lon="6.70562">
        <ele>2623.09</ele>
        <time>2018-09-16T09:15:28Z</time>
      </trkpt>
      <trkpt lat="44.73753" lon="6.70548">
        <ele>2624.06</ele>
        <time>2018-09-16T09:15:38Z</time>
      </trkpt>
      <trkpt lat="44.73753" lon="6.70533">
        <ele>2624.06</ele>
        <time>2018-09-16T09:15:48Z</time>
      </trkpt>
      <trkpt lat="44.73755" lon="6.7052">
        <ele>2624.06</ele>
        <time>2018-09-16T09:15:58Z</time>
      </trkpt>
      <trkpt lat="44.73759" lon="6.70508">
        <ele>2625.5</ele>
        <time>2018-09-16T09:16:16Z</time>
      </trkpt>
      <trkpt lat="44.73762" lon="6.70494">
        <ele>2628.86</ele>
        <time>2018-09-16T09:16:31Z</time>
      </trkpt>
      <trkpt lat="44.73767" lon="6.70485">
        <ele>2629.34</ele>
        <time>2018-09-16T09:16:44Z</time>
      </trkpt>
      <trkpt lat="44.7377" lon="6.70475">
        <ele>2629.82</ele>
        <time>2018-09-16T09:17:05Z</time>
      </trkpt>
      <trkpt lat="44.73776" lon="6.70467">
        <ele>2630.79</ele>
        <time>2018-09-16T09:17:27Z</time>
      </trkpt>
      <trkpt lat="44.73783" lon="6.70457">
        <ele>2629.82</ele>
        <time>2018-09-16T09:17:37Z</time>
      </trkpt>
      <trkpt lat="44.73789" lon="6.70448">
        <ele>2630.3</ele>
        <time>2018-09-16T09:17:46Z</time>
      </trkpt>
      <trkpt lat="44.73796" lon="6.70438">
        <ele>2627.9</ele>
        <time>2018-09-16T09:17:58Z</time>
      </trkpt>
      <trkpt lat="44.73801" lon="6.70426">
        <ele>2625.98</ele>
        <time>2018-09-16T09:18:08Z</time>
      </trkpt>
      <trkpt lat="44.73807" lon="6.70418">
        <ele>2625.02</ele>
        <time>2018-09-16T09:18:19Z</time>
      </trkpt>
      <trkpt lat="44.73817" lon="6.70416">
        <ele>2623.58</ele>
        <time>2018-09-16T09:18:29Z</time>
      </trkpt>
      <trkpt lat="44.73825" lon="6.70412">
        <ele>2621.65</ele>
        <time>2018-09-16T09:18:40Z</time>
      </trkpt>
      <trkpt lat="44.73834" lon="6.70409">
        <ele>2620.69</ele>
        <time>2018-09-16T09:18:49Z</time>
      </trkpt>
      <trkpt lat="44.73843" lon="6.70407">
        <ele>2619.73</ele>
        <time>2018-09-16T09:18:59Z</time>
      </trkpt>
      <trkpt lat="44.73853" lon="6.70407">
        <ele>2619.25</ele>
        <time>2018-09-16T09:19:09Z</time>
      </trkpt>
      <trkpt lat="44.73862" lon="6.70403">
        <ele>2617.81</ele>
        <time>2018-09-16T09:19:18Z</time>
      </trkpt>
      <trkpt lat="44.73871" lon="6.70398">
        <ele>2615.88</ele>
        <time>2018-09-16T09:19:28Z</time>
      </trkpt>
      <trkpt lat="44.73879" lon="6.70392">
        <ele>2614.92</ele>
        <time>2018-09-16T09:19:38Z</time>
      </trkpt>
      <trkpt lat="44.7389" lon="6.70388">
        <ele>2613.48</ele>
        <time>2018-09-16T09:19:48Z</time>
      </trkpt>
      <trkpt lat="44.73899" lon="6.70385">
        <ele>2613</ele>
        <time>2018-09-16T09:19:57Z</time>
      </trkpt>
      <trkpt lat="44.73908" lon="6.70382">
        <ele>2612.04</ele>
        <time>2018-09-16T09:20:06Z</time>
      </trkpt>
      <trkpt lat="44.7392" lon="6.70383">
        <ele>2613.48</ele>
        <time>2018-09-16T09:20:17Z</time>
      </trkpt>
      <trkpt lat="44.7393" lon="6.70385">
        <ele>2614.44</ele>
        <time>2018-09-16T09:20:28Z</time>
      </trkpt>
      <trkpt lat="44.73939" lon="6.70383">
        <ele>2615.88</ele>
        <time>2018-09-16T09:20:40Z</time>
      </trkpt>
      <trkpt lat="44.73949" lon="6.70383">
        <ele>2616.85</ele>
        <time>2018-09-16T09:20:51Z</time>
      </trkpt>
      <trkpt lat="44.73958" lon="6.70378">
        <ele>2617.33</ele>
        <time>2018-09-16T09:21:03Z</time>
      </trkpt>
      <trkpt lat="44.73966" lon="6.70371">
        <ele>2618.29</ele>
        <time>2018-09-16T09:21:14Z</time>
      </trkpt>
      <trkpt lat="44.73974" lon="6.70366">
        <ele>2619.25</ele>
        <time>2018-09-16T09:21:25Z</time>
      </trkpt>
      <trkpt lat="44.73983" lon="6.70362">
        <ele>2619.73</ele>
        <time>2018-09-16T09:21:36Z</time>
      </trkpt>
      <trkpt lat="44.73989" lon="6.70351">
        <ele>2621.17</ele>
        <time>2018-09-16T09:21:53Z</time>
      </trkpt>
      <trkpt lat="44.73997" lon="6.70344">
        <ele>2622.13</ele>
        <time>2018-09-16T09:22:05Z</time>
      </trkpt>
      <trkpt lat="44.74006" lon="6.7034">
        <ele>2623.58</ele>
        <time>2018-09-16T09:22:18Z</time>
      </trkpt>
      <trkpt lat="44.74014" lon="6.70331">
        <ele>2625.98</ele>
        <time>2018-09-16T09:22:34Z</time>
      </trkpt>
      <trkpt lat="44.74024" lon="6.70327">
        <ele>2628.38</ele>
        <time>2018-09-16T09:22:56Z</time>
      </trkpt>
      <trkpt lat="44.74033" lon="6.70322">
        <ele>2630.79</ele>
        <time>2018-09-16T09:23:15Z</time>
      </trkpt>
      <trkpt lat="44.74041" lon="6.70318">
        <ele>2633.19</ele>
        <time>2018-09-16T09:23:38Z</time>
      </trkpt>
      <trkpt lat="44.74049" lon="6.70309">
        <ele>2636.55</ele>
        <time>2018-09-16T09:24:01Z</time>
      </trkpt>
      <trkpt lat="44.74055" lon="6.70303">
        <ele>2639.44</ele>
        <time>2018-09-16T09:24:25Z</time>
      </trkpt>
      <trkpt lat="44.74063" lon="6.70297">
        <ele>2642.32</ele>
        <time>2018-09-16T09:24:48Z</time>
      </trkpt>
      <trkpt lat="44.74073" lon="6.70292">
        <ele>2645.69</ele>
        <time>2018-09-16T09:25:18Z</time>
      </trkpt>
      <trkpt lat="44.74077" lon="6.70285">
        <ele>2649.05</ele>
        <time>2018-09-16T09:25:42Z</time>
      </trkpt>
      <trkpt lat="44.74083" lon="6.70276">
        <ele>2651.93</ele>
        <time>2018-09-16T09:26:09Z</time>
      </trkpt>
      <trkpt lat="44.74092" lon="6.7027">
        <ele>2654.82</ele>
        <time>2018-09-16T09:26:33Z</time>
      </trkpt>
      <trkpt lat="44.74101" lon="6.70271">
        <ele>2658.66</ele>
        <time>2018-09-16T09:27:01Z</time>
      </trkpt>
      <trkpt lat="44.74112" lon="6.70268">
        <ele>2662.03</ele>
        <time>2018-09-16T09:27:25Z</time>
      </trkpt>
      <trkpt lat="44.74117" lon="6.7026">
        <ele>2665.39</ele>
        <time>2018-09-16T09:27:51Z</time>
      </trkpt>
      <trkpt lat="44.74126" lon="6.70257">
        <ele>2668.76</ele>
        <time>2018-09-16T09:28:18Z</time>
      </trkpt>
      <trkpt lat="44.74134" lon="6.70257">
        <ele>2672.6</ele>
        <time>2018-09-16T09:28:44Z</time>
      </trkpt>
      <trkpt lat="44.74144" lon="6.70257">
        <ele>2675.97</ele>
        <time>2018-09-16T09:29:08Z</time>
      </trkpt>
      <trkpt lat="44.74154" lon="6.70258">
        <ele>2678.37</ele>
        <time>2018-09-16T09:29:27Z</time>
      </trkpt>
      <trkpt lat="44.74161" lon="6.70252">
        <ele>2680.77</ele>
        <time>2018-09-16T09:29:47Z</time>
      </trkpt>
      <trkpt lat="44.74169" lon="6.70245">
        <ele>2684.14</ele>
        <time>2018-09-16T09:30:11Z</time>
      </trkpt>
      <trkpt lat="44.74178" lon="6.70241">
        <ele>2686.54</ele>
        <time>2018-09-16T09:30:32Z</time>
      </trkpt>
      <trkpt lat="44.74185" lon="6.70238">
        <ele>2689.43</ele>
        <time>2018-09-16T09:30:54Z</time>
      </trkpt>
      <trkpt lat="44.74194" lon="6.70232">
        <ele>2691.83</ele>
        <time>2018-09-16T09:31:12Z</time>
      </trkpt>
      <trkpt lat="44.74201" lon="6.70227">
        <ele>2694.71</ele>
        <time>2018-09-16T09:31:32Z</time>
      </trkpt>
      <trkpt lat="44.7421" lon="6.70225">
        <ele>2697.6</ele>
        <time>2018-09-16T09:31:51Z</time>
      </trkpt>
      <trkpt lat="44.7422" lon="6.70226">
        <ele>2700.48</ele>
        <time>2018-09-16T09:32:11Z</time>
      </trkpt>
      <trkpt lat="44.74229" lon="6.70227">
        <ele>2702.4</ele>
        <time>2018-09-16T09:32:26Z</time>
      </trkpt>
      <trkpt lat="44.74237" lon="6.70227">
        <ele>2704.81</ele>
        <time>2018-09-16T09:32:47Z</time>
      </trkpt>
      <trkpt lat="44.74246" lon="6.70227">
        <ele>2708.17</ele>
        <time>2018-09-16T09:33:09Z</time>
      </trkpt>
      <trkpt lat="44.74253" lon="6.70234">
        <ele>2711.06</ele>
        <time>2018-09-16T09:33:28Z</time>
      </trkpt>
      <trkpt lat="44.74262" lon="6.70236">
        <ele>2713.46</ele>
        <time>2018-09-16T09:33:45Z</time>
      </trkpt>
      <trkpt lat="44.74271" lon="6.70236">
        <ele>2715.86</ele>
        <time>2018-09-16T09:34:03Z</time>
      </trkpt>
      <trkpt lat="44.74279" lon="6.70235">
        <ele>2717.3</ele>
        <time>2018-09-16T09:34:16Z</time>
      </trkpt>
      <trkpt lat="44.74286" lon="6.70237">
        <ele>2719.23</ele>
        <time>2018-09-16T09:34:29Z</time>
      </trkpt>
      <trkpt lat="44.74294" lon="6.70236">
        <ele>2720.19</ele>
        <time>2018-09-16T09:34:42Z</time>
      </trkpt>
      <trkpt lat="44.74301" lon="6.70239">
        <ele>2721.63</ele>
        <time>2018-09-16T09:34:58Z</time>
      </trkpt>
      <trkpt lat="44.7431" lon="6.70241">
        <ele>2723.55</ele>
        <time>2018-09-16T09:35:17Z</time>
      </trkpt>
      <trkpt lat="44.7432" lon="6.70242">
        <ele>2726.44</ele>
        <time>2018-09-16T09:35:32Z</time>
      </trkpt>
      <trkpt lat="44.74329" lon="6.70244">
        <ele>2727.4</ele>
        <time>2018-09-16T09:35:44Z</time>
      </trkpt>
      <trkpt lat="44.74339" lon="6.70246">
        <ele>2727.4</ele>
        <time>2018-09-16T09:35:56Z</time>
      </trkpt>
      <trkpt lat="44.74348" lon="6.70249">
        <ele>2728.84</ele>
        <time>2018-09-16T09:36:07Z</time>
      </trkpt>
      <trkpt lat="44.74357" lon="6.70252">
        <ele>2729.32</ele>
        <time>2018-09-16T09:36:19Z</time>
      </trkpt>
      <trkpt lat="44.74367" lon="6.70255">
        <ele>2729.8</ele>
        <time>2018-09-16T09:36:31Z</time>
      </trkpt>
      <trkpt lat="44.74376" lon="6.70254">
        <ele>2730.76</ele>
        <time>2018-09-16T09:36:42Z</time>
      </trkpt>
      <trkpt lat="44.74385" lon="6.70256">
        <ele>2733.17</ele>
        <time>2018-09-16T09:36:55Z</time>
      </trkpt>
      <trkpt lat="44.74395" lon="6.7026">
        <ele>2734.61</ele>
        <time>2018-09-16T09:37:58Z</time>
      </trkpt>
      <trkpt lat="44.74404" lon="6.7026">
        <ele>2737.01</ele>
        <time>2018-09-16T09:38:10Z</time>
      </trkpt>
      <trkpt lat="44.74406" lon="6.70259">
        <ele>2738.45</ele>
        <time>2018-09-16T09:39:11Z</time>
      </trkpt>
      <trkpt lat="44.74418" lon="6.70262">
        <ele>2739.41</ele>
        <time>2018-09-16T09:39:22Z</time>
      </trkpt>
      <trkpt lat="44.74429" lon="6.70262">
        <ele>2740.38</ele>
        <time>2018-09-16T09:39:35Z</time>
      </trkpt>
      <trkpt lat="44.74427" lon="6.70261">
        <ele>2748.55</ele>
        <time>2018-09-16T10:12:29Z</time>
      </trkpt>
      <trkpt lat="44.7443" lon="6.70252">
        <ele>2747.59</ele>
        <time>2018-09-16T10:13:17Z</time>
      </trkpt>
      <trkpt lat="44.74436" lon="6.70244">
        <ele>2744.22</ele>
        <time>2018-09-16T10:13:43Z</time>
      </trkpt>
      <trkpt lat="44.74441" lon="6.70234">
        <ele>2739.41</ele>
        <time>2018-09-16T10:14:12Z</time>
      </trkpt>
      <trkpt lat="44.74445" lon="6.70223">
        <ele>2736.05</ele>
        <time>2018-09-16T10:14:30Z</time>
      </trkpt>
      <trkpt lat="44.7445" lon="6.70215">
        <ele>2731.72</ele>
        <time>2018-09-16T10:14:50Z</time>
      </trkpt>
      <trkpt lat="44.74461" lon="6.7021">
        <ele>2728.36</ele>
        <time>2018-09-16T10:15:13Z</time>
      </trkpt>
      <trkpt lat="44.74468" lon="6.70203">
        <ele>2724.99</ele>
        <time>2018-09-16T10:15:28Z</time>
      </trkpt>
      <trkpt lat="44.74474" lon="6.70194">
        <ele>2722.59</ele>
        <time>2018-09-16T10:15:43Z</time>
      </trkpt>
      <trkpt lat="44.74485" lon="6.70188">
        <ele>2718.75</ele>
        <time>2018-09-16T10:16:21Z</time>
      </trkpt>
      <trkpt lat="44.74492" lon="6.70184">
        <ele>2714.42</ele>
        <time>2018-09-16T10:16:49Z</time>
      </trkpt>
      <trkpt lat="44.74501" lon="6.70179">
        <ele>2712.02</ele>
        <time>2018-09-16T10:17:02Z</time>
      </trkpt>
      <trkpt lat="44.74511" lon="6.70177">
        <ele>2710.57</ele>
        <time>2018-09-16T10:17:14Z</time>
      </trkpt>
      <trkpt lat="44.74521" lon="6.70174">
        <ele>2708.17</ele>
        <time>2018-09-16T10:17:24Z</time>
      </trkpt>
      <trkpt lat="44.74531" lon="6.70173">
        <ele>2707.21</ele>
        <time>2018-09-16T10:17:34Z</time>
      </trkpt>
      <trkpt lat="44.74529" lon="6.70164">
        <ele>2704.81</ele>
        <time>2018-09-16T10:17:47Z</time>
      </trkpt>
      <trkpt lat="44.7452" lon="6.70159">
        <ele>2702.4</ele>
        <time>2018-09-16T10:17:58Z</time>
      </trkpt>
      <trkpt lat="44.74512" lon="6.70151">
        <ele>2700.48</ele>
        <time>2018-09-16T10:18:09Z</time>
      </trkpt>
      <trkpt lat="44.74506" lon="6.7014">
        <ele>2698.08</ele>
        <time>2018-09-16T10:18:22Z</time>
      </trkpt>
      <trkpt lat="44.745" lon="6.70131">
        <ele>2694.71</ele>
        <time>2018-09-16T10:18:34Z</time>
      </trkpt>
      <trkpt lat="44.74495" lon="6.70122">
        <ele>2691.35</ele>
        <time>2018-09-16T10:18:46Z</time>
      </trkpt>
      <trkpt lat="44.74489" lon="6.70113">
        <ele>2688.46</ele>
        <time>2018-09-16T10:18:58Z</time>
      </trkpt>
      <trkpt lat="44.74483" lon="6.70104">
        <ele>2685.1</ele>
        <time>2018-09-16T10:19:13Z</time>
      </trkpt>
      <trkpt lat="44.74483" lon="6.70092">
        <ele>2682.22</ele>
        <time>2018-09-16T10:19:38Z</time>
      </trkpt>
      <trkpt lat="44.7449" lon="6.70084">
        <ele>2681.25</ele>
        <time>2018-09-16T10:19:48Z</time>
      </trkpt>
      <trkpt lat="44.74497" lon="6.70075">
        <ele>2679.81</ele>
        <time>2018-09-16T10:20:00Z</time>
      </trkpt>
      <trkpt lat="44.74505" lon="6.70065">
        <ele>2677.89</ele>
        <time>2018-09-16T10:20:12Z</time>
      </trkpt>
      <trkpt lat="44.74511" lon="6.70052">
        <ele>2675.49</ele>
        <time>2018-09-16T10:20:29Z</time>
      </trkpt>
      <trkpt lat="44.74514" lon="6.70039">
        <ele>2671.64</ele>
        <time>2018-09-16T10:20:43Z</time>
      </trkpt>
      <trkpt lat="44.74519" lon="6.70027">
        <ele>2669.24</ele>
        <time>2018-09-16T10:20:56Z</time>
      </trkpt>
      <trkpt lat="44.74522" lon="6.70016">
        <ele>2666.83</ele>
        <time>2018-09-16T10:21:13Z</time>
      </trkpt>
      <trkpt lat="44.74526" lon="6.70004">
        <ele>2665.39</ele>
        <time>2018-09-16T10:21:29Z</time>
      </trkpt>
      <trkpt lat="44.74531" lon="6.69994">
        <ele>2663.95</ele>
        <time>2018-09-16T10:21:47Z</time>
      </trkpt>
      <trkpt lat="44.74534" lon="6.69982">
        <ele>2661.55</ele>
        <time>2018-09-16T10:22:01Z</time>
      </trkpt>
      <trkpt lat="44.74536" lon="6.69972">
        <ele>2659.62</ele>
        <time>2018-09-16T10:22:13Z</time>
      </trkpt>
      <trkpt lat="44.74538" lon="6.69959">
        <ele>2657.7</ele>
        <time>2018-09-16T10:22:25Z</time>
      </trkpt>
      <trkpt lat="44.7454" lon="6.69948">
        <ele>2655.3</ele>
        <time>2018-09-16T10:22:39Z</time>
      </trkpt>
      <trkpt lat="44.74546" lon="6.69939">
        <ele>2655.3</ele>
        <time>2018-09-16T10:22:51Z</time>
      </trkpt>
      <trkpt lat="44.74549" lon="6.69929">
        <ele>2653.86</ele>
        <time>2018-09-16T10:23:03Z</time>
      </trkpt>
      <trkpt lat="44.74549" lon="6.69925">
        <ele>2651.45</ele>
        <time>2018-09-16T10:23:18Z</time>
      </trkpt>
      <trkpt lat="44.74548" lon="6.6992">
        <ele>2647.61</ele>
        <time>2018-09-16T10:23:34Z</time>
      </trkpt>
      <trkpt lat="44.74551" lon="6.69905">
        <ele>2645.21</ele>
        <time>2018-09-16T10:23:46Z</time>
      </trkpt>
      <trkpt lat="44.74549" lon="6.69896">
        <ele>2640.88</ele>
        <time>2018-09-16T10:24:03Z</time>
      </trkpt>
      <trkpt lat="44.74547" lon="6.69892">
        <ele>2637.99</ele>
        <time>2018-09-16T10:24:21Z</time>
      </trkpt>
      <trkpt lat="44.74545" lon="6.69879">
        <ele>2634.63</ele>
        <time>2018-09-16T10:24:39Z</time>
      </trkpt>
      <trkpt lat="44.74539" lon="6.69879">
        <ele>2629.82</ele>
        <time>2018-09-16T10:24:56Z</time>
      </trkpt>
      <trkpt lat="44.74531" lon="6.69881">
        <ele>2626.94</ele>
        <time>2018-09-16T10:25:11Z</time>
      </trkpt>
      <trkpt lat="44.7453" lon="6.69866">
        <ele>2623.58</ele>
        <time>2018-09-16T10:25:26Z</time>
      </trkpt>
      <trkpt lat="44.74529" lon="6.69854">
        <ele>2621.17</ele>
        <time>2018-09-16T10:25:40Z</time>
      </trkpt>
      <trkpt lat="44.74526" lon="6.6985">
        <ele>2618.29</ele>
        <time>2018-09-16T10:25:58Z</time>
      </trkpt>
      <trkpt lat="44.74522" lon="6.69842">
        <ele>2613</ele>
        <time>2018-09-16T10:26:17Z</time>
      </trkpt>
      <trkpt lat="44.74512" lon="6.69841">
        <ele>2608.67</ele>
        <time>2018-09-16T10:26:42Z</time>
      </trkpt>
      <trkpt lat="44.74504" lon="6.69848">
        <ele>2602.91</ele>
        <time>2018-09-16T10:27:10Z</time>
      </trkpt>
      <trkpt lat="44.74495" lon="6.69867">
        <ele>2596.66</ele>
        <time>2018-09-16T10:27:44Z</time>
      </trkpt>
      <trkpt lat="44.74488" lon="6.69861">
        <ele>2590.41</ele>
        <time>2018-09-16T10:28:07Z</time>
      </trkpt>
      <trkpt lat="44.74478" lon="6.69872">
        <ele>2587.53</ele>
        <time>2018-09-16T10:28:31Z</time>
      </trkpt>
      <trkpt lat="44.74469" lon="6.69873">
        <ele>2583.68</ele>
        <time>2018-09-16T10:28:45Z</time>
      </trkpt>
      <trkpt lat="44.74457" lon="6.69869">
        <ele>2580.32</ele>
        <time>2018-09-16T10:29:01Z</time>
      </trkpt>
      <trkpt lat="44.7445" lon="6.6986">
        <ele>2577.91</ele>
        <time>2018-09-16T10:29:16Z</time>
      </trkpt>
      <trkpt lat="44.74443" lon="6.69853">
        <ele>2573.11</ele>
        <time>2018-09-16T10:29:30Z</time>
      </trkpt>
      <trkpt lat="44.74438" lon="6.69841">
        <ele>2569.74</ele>
        <time>2018-09-16T10:29:44Z</time>
      </trkpt>
      <trkpt lat="44.7443" lon="6.69836">
        <ele>2566.38</ele>
        <time>2018-09-16T10:30:00Z</time>
      </trkpt>
      <trkpt lat="44.74421" lon="6.69837">
        <ele>2563.97</ele>
        <time>2018-09-16T10:30:18Z</time>
      </trkpt>
      <trkpt lat="44.7441" lon="6.69839">
        <ele>2562.05</ele>
        <time>2018-09-16T10:30:29Z</time>
      </trkpt>
      <trkpt lat="44.744" lon="6.69842">
        <ele>2560.13</ele>
        <time>2018-09-16T10:30:39Z</time>
      </trkpt>
      <trkpt lat="44.7439" lon="6.69836">
        <ele>2558.21</ele>
        <time>2018-09-16T10:30:52Z</time>
      </trkpt>
      <trkpt lat="44.74381" lon="6.69832">
        <ele>2555.32</ele>
        <time>2018-09-16T10:31:02Z</time>
      </trkpt>
      <trkpt lat="44.74372" lon="6.69824">
        <ele>2554.84</ele>
        <time>2018-09-16T10:31:13Z</time>
      </trkpt>
      <trkpt lat="44.74364" lon="6.69818">
        <ele>2553.4</ele>
        <time>2018-09-16T10:31:24Z</time>
      </trkpt>
      <trkpt lat="44.74355" lon="6.69815">
        <ele>2552.44</ele>
        <time>2018-09-16T10:31:34Z</time>
      </trkpt>
      <trkpt lat="44.74346" lon="6.69814">
        <ele>2551.48</ele>
        <time>2018-09-16T10:31:44Z</time>
      </trkpt>
      <trkpt lat="44.74337" lon="6.69812">
        <ele>2551</ele>
        <time>2018-09-16T10:31:55Z</time>
      </trkpt>
      <trkpt lat="44.74329" lon="6.69812">
        <ele>2550.51</ele>
        <time>2018-09-16T10:32:05Z</time>
      </trkpt>
      <trkpt lat="44.74321" lon="6.69807">
        <ele>2550.03</ele>
        <time>2018-09-16T10:32:14Z</time>
      </trkpt>
      <trkpt lat="44.74311" lon="6.69802">
        <ele>2548.11</ele>
        <time>2018-09-16T10:32:24Z</time>
      </trkpt>
      <trkpt lat="44.74308" lon="6.69792">
        <ele>2546.19</ele>
        <time>2018-09-16T10:32:44Z</time>
      </trkpt>
      <trkpt lat="44.74312" lon="6.69779">
        <ele>2542.82</ele>
        <time>2018-09-16T10:32:57Z</time>
      </trkpt>
      <trkpt lat="44.74317" lon="6.69773">
        <ele>2540.42</ele>
        <time>2018-09-16T10:33:10Z</time>
      </trkpt>
      <trkpt lat="44.74322" lon="6.69763">
        <ele>2537.06</ele>
        <time>2018-09-16T10:33:22Z</time>
      </trkpt>
      <trkpt lat="44.74329" lon="6.69756">
        <ele>2535.13</ele>
        <time>2018-09-16T10:33:35Z</time>
      </trkpt>
      <trkpt lat="44.74333" lon="6.69746">
        <ele>2532.25</ele>
        <time>2018-09-16T10:33:48Z</time>
      </trkpt>
      <trkpt lat="44.74334" lon="6.69734">
        <ele>2528.89</ele>
        <time>2018-09-16T10:34:01Z</time>
      </trkpt>
      <trkpt lat="44.74331" lon="6.69726">
        <ele>2525.04</ele>
        <time>2018-09-16T10:34:17Z</time>
      </trkpt>
      <trkpt lat="44.74332" lon="6.69716">
        <ele>2522.16</ele>
        <time>2018-09-16T10:34:33Z</time>
      </trkpt>
      <trkpt lat="44.7433" lon="6.69707">
        <ele>2517.83</ele>
        <time>2018-09-16T10:34:52Z</time>
      </trkpt>
      <trkpt lat="44.74329" lon="6.69696">
        <ele>2513.98</ele>
        <time>2018-09-16T10:35:11Z</time>
      </trkpt>
      <trkpt lat="44.74332" lon="6.69687">
        <ele>2509.66</ele>
        <time>2018-09-16T10:35:30Z</time>
      </trkpt>
      <trkpt lat="44.74333" lon="6.69676">
        <ele>2505.33</ele>
        <time>2018-09-16T10:35:50Z</time>
      </trkpt>
      <trkpt lat="44.74335" lon="6.69663">
        <ele>2501.49</ele>
        <time>2018-09-16T10:36:08Z</time>
      </trkpt>
      <trkpt lat="44.74336" lon="6.6965">
        <ele>2497.16</ele>
        <time>2018-09-16T10:36:25Z</time>
      </trkpt>
      <trkpt lat="44.74345" lon="6.69642">
        <ele>2496.68</ele>
        <time>2018-09-16T10:36:37Z</time>
      </trkpt>
      <trkpt lat="44.74354" lon="6.69639">
        <ele>2496.68</ele>
        <time>2018-09-16T10:36:46Z</time>
      </trkpt>
      <trkpt lat="44.74365" lon="6.69637">
        <ele>2497.64</ele>
        <time>2018-09-16T10:36:57Z</time>
      </trkpt>
      <trkpt lat="44.74373" lon="6.69631">
        <ele>2497.16</ele>
        <time>2018-09-16T10:37:07Z</time>
      </trkpt>
      <trkpt lat="44.74379" lon="6.69624">
        <ele>2497.16</ele>
        <time>2018-09-16T10:37:17Z</time>
      </trkpt>
      <trkpt lat="44.74385" lon="6.69615">
        <ele>2496.2</ele>
        <time>2018-09-16T10:37:32Z</time>
      </trkpt>
      <trkpt lat="44.74391" lon="6.69605">
        <ele>2493.8</ele>
        <time>2018-09-16T10:37:43Z</time>
      </trkpt>
      <trkpt lat="44.74397" lon="6.69597">
        <ele>2491.87</ele>
        <time>2018-09-16T10:37:54Z</time>
      </trkpt>
      <trkpt lat="44.74413" lon="6.69594">
        <ele>2469.76</ele>
        <time>2018-09-16T10:40:37Z</time>
      </trkpt>
      <trkpt lat="44.74412" lon="6.69583">
        <ele>2469.76</ele>
        <time>2018-09-16T10:40:53Z</time>
      </trkpt>
      <trkpt lat="44.74419" lon="6.69573">
        <ele>2469.28</ele>
        <time>2018-09-16T10:41:05Z</time>
      </trkpt>
      <trkpt lat="44.74427" lon="6.69566">
        <ele>2469.28</ele>
        <time>2018-09-16T10:41:20Z</time>
      </trkpt>
      <trkpt lat="44.74436" lon="6.69561">
        <ele>2467.36</ele>
        <time>2018-09-16T10:41:37Z</time>
      </trkpt>
      <trkpt lat="44.74447" lon="6.69559">
        <ele>2466.4</ele>
        <time>2018-09-16T10:41:56Z</time>
      </trkpt>
      <trkpt lat="44.74456" lon="6.69559">
        <ele>2464.48</ele>
        <time>2018-09-16T10:42:08Z</time>
      </trkpt>
      <trkpt lat="44.74464" lon="6.69557">
        <ele>2463.04</ele>
        <time>2018-09-16T10:42:19Z</time>
      </trkpt>
      <trkpt lat="44.7447" lon="6.69549">
        <ele>2461.11</ele>
        <time>2018-09-16T10:42:34Z</time>
      </trkpt>
      <trkpt lat="44.74477" lon="6.69543">
        <ele>2455.34</ele>
        <time>2018-09-16T10:43:00Z</time>
      </trkpt>
      <trkpt lat="44.74479" lon="6.69532">
        <ele>2449.1</ele>
        <time>2018-09-16T10:43:24Z</time>
      </trkpt>
      <trkpt lat="44.74487" lon="6.69523">
        <ele>2446.21</ele>
        <time>2018-09-16T10:43:40Z</time>
      </trkpt>
      <trkpt lat="44.7449" lon="6.6951">
        <ele>2441.41</ele>
        <time>2018-09-16T10:44:01Z</time>
      </trkpt>
      <trkpt lat="44.74486" lon="6.69494">
        <ele>2433.71</ele>
        <time>2018-09-16T10:44:36Z</time>
      </trkpt>
      <trkpt lat="44.74493" lon="6.69484">
        <ele>2430.83</ele>
        <time>2018-09-16T10:44:52Z</time>
      </trkpt>
      <trkpt lat="44.74497" lon="6.69472">
        <ele>2428.43</ele>
        <time>2018-09-16T10:45:06Z</time>
      </trkpt>
      <trkpt lat="44.74497" lon="6.69466">
        <ele>2425.54</ele>
        <time>2018-09-16T10:45:25Z</time>
      </trkpt>
      <trkpt lat="44.74501" lon="6.69452">
        <ele>2422.66</ele>
        <time>2018-09-16T10:45:39Z</time>
      </trkpt>
      <trkpt lat="44.745" lon="6.69446">
        <ele>2420.26</ele>
        <time>2018-09-16T10:45:55Z</time>
      </trkpt>
      <trkpt lat="44.74499" lon="6.6944">
        <ele>2417.37</ele>
        <time>2018-09-16T10:46:12Z</time>
      </trkpt>
      <trkpt lat="44.74497" lon="6.69426">
        <ele>2413.53</ele>
        <time>2018-09-16T10:46:26Z</time>
      </trkpt>
      <trkpt lat="44.74491" lon="6.69418">
        <ele>2410.16</ele>
        <time>2018-09-16T10:46:46Z</time>
      </trkpt>
      <trkpt lat="44.74485" lon="6.69418">
        <ele>2405.84</ele>
        <time>2018-09-16T10:47:25Z</time>
      </trkpt>
      <trkpt lat="44.74478" lon="6.6941">
        <ele>2400.55</ele>
        <time>2018-09-16T10:47:51Z</time>
      </trkpt>
      <trkpt lat="44.74475" lon="6.69397">
        <ele>2396.7</ele>
        <time>2018-09-16T10:48:06Z</time>
      </trkpt>
      <trkpt lat="44.74469" lon="6.69394">
        <ele>2393.82</ele>
        <time>2018-09-16T10:48:23Z</time>
      </trkpt>
      <trkpt lat="44.74462" lon="6.69395">
        <ele>2391.42</ele>
        <time>2018-09-16T10:48:40Z</time>
      </trkpt>
      <trkpt lat="44.74452" lon="6.69392">
        <ele>2388.53</ele>
        <time>2018-09-16T10:48:57Z</time>
      </trkpt>
      <trkpt lat="44.74444" lon="6.69389">
        <ele>2385.65</ele>
        <time>2018-09-16T10:49:12Z</time>
      </trkpt>
      <trkpt lat="44.74434" lon="6.69389">
        <ele>2382.76</ele>
        <time>2018-09-16T10:49:26Z</time>
      </trkpt>
      <trkpt lat="44.74424" lon="6.69388">
        <ele>2380.36</ele>
        <time>2018-09-16T10:49:39Z</time>
      </trkpt>
      <trkpt lat="44.74415" lon="6.69386">
        <ele>2377.96</ele>
        <time>2018-09-16T10:49:52Z</time>
      </trkpt>
      <trkpt lat="44.74408" lon="6.69377">
        <ele>2375.07</ele>
        <time>2018-09-16T10:50:06Z</time>
      </trkpt>
      <trkpt lat="44.74398" lon="6.69379">
        <ele>2374.11</ele>
        <time>2018-09-16T10:50:18Z</time>
      </trkpt>
      <trkpt lat="44.74388" lon="6.69378">
        <ele>2373.63</ele>
        <time>2018-09-16T10:50:29Z</time>
      </trkpt>
      <trkpt lat="44.74379" lon="6.69377">
        <ele>2371.71</ele>
        <time>2018-09-16T10:50:40Z</time>
      </trkpt>
      <trkpt lat="44.74369" lon="6.69378">
        <ele>2370.75</ele>
        <time>2018-09-16T10:50:54Z</time>
      </trkpt>
      <trkpt lat="44.7436" lon="6.69373">
        <ele>2369.31</ele>
        <time>2018-09-16T10:51:09Z</time>
      </trkpt>
      <trkpt lat="44.74349" lon="6.69372">
        <ele>2368.35</ele>
        <time>2018-09-16T10:51:23Z</time>
      </trkpt>
      <trkpt lat="44.74339" lon="6.69375">
        <ele>2367.86</ele>
        <time>2018-09-16T10:51:35Z</time>
      </trkpt>
      <trkpt lat="44.7433" lon="6.69376">
        <ele>2366.42</ele>
        <time>2018-09-16T10:51:48Z</time>
      </trkpt>
      <trkpt lat="44.7432" lon="6.69372">
        <ele>2366.9</ele>
        <time>2018-09-16T10:52:01Z</time>
      </trkpt>
      <trkpt lat="44.74311" lon="6.6937">
        <ele>2365.46</ele>
        <time>2018-09-16T10:52:12Z</time>
      </trkpt>
      <trkpt lat="44.74302" lon="6.69371">
        <ele>2364.5</ele>
        <time>2018-09-16T10:52:24Z</time>
      </trkpt>
      <trkpt lat="44.74294" lon="6.69365">
        <ele>2364.02</ele>
        <time>2018-09-16T10:52:52Z</time>
      </trkpt>
      <trkpt lat="44.74298" lon="6.69353">
        <ele>2361.62</ele>
        <time>2018-09-16T10:53:06Z</time>
      </trkpt>
      <trkpt lat="44.74299" lon="6.69342">
        <ele>2358.73</ele>
        <time>2018-09-16T10:53:18Z</time>
      </trkpt>
      <trkpt lat="44.74302" lon="6.69329">
        <ele>2355.85</ele>
        <time>2018-09-16T10:53:29Z</time>
      </trkpt>
      <trkpt lat="44.743" lon="6.69322">
        <ele>2352.96</ele>
        <time>2018-09-16T10:53:43Z</time>
      </trkpt>
      <trkpt lat="44.74308" lon="6.69309">
        <ele>2350.56</ele>
        <time>2018-09-16T10:54:34Z</time>
      </trkpt>
      <trkpt lat="44.74308" lon="6.69303">
        <ele>2348.16</ele>
        <time>2018-09-16T10:54:47Z</time>
      </trkpt>
      <trkpt lat="44.7431" lon="6.69292">
        <ele>2345.27</ele>
        <time>2018-09-16T10:55:01Z</time>
      </trkpt>
      <trkpt lat="44.74312" lon="6.69279">
        <ele>2341.91</ele>
        <time>2018-09-16T10:55:17Z</time>
      </trkpt>
      <trkpt lat="44.74303" lon="6.69282">
        <ele>2339.51</ele>
        <time>2018-09-16T10:55:31Z</time>
      </trkpt>
      <trkpt lat="44.74294" lon="6.69284">
        <ele>2336.14</ele>
        <time>2018-09-16T10:55:47Z</time>
      </trkpt>
      <trkpt lat="44.74285" lon="6.69286">
        <ele>2333.26</ele>
        <time>2018-09-16T10:56:00Z</time>
      </trkpt>
      <trkpt lat="44.74276" lon="6.69287">
        <ele>2330.85</ele>
        <time>2018-09-16T10:56:18Z</time>
      </trkpt>
      <trkpt lat="44.74268" lon="6.69296">
        <ele>2329.41</ele>
        <time>2018-09-16T10:56:30Z</time>
      </trkpt>
      <trkpt lat="44.7426" lon="6.69303">
        <ele>2327.01</ele>
        <time>2018-09-16T10:56:42Z</time>
      </trkpt>
      <trkpt lat="44.74252" lon="6.69311">
        <ele>2326.53</ele>
        <time>2018-09-16T10:56:53Z</time>
      </trkpt>
      <trkpt lat="44.74245" lon="6.69315">
        <ele>2325.57</ele>
        <time>2018-09-16T10:57:11Z</time>
      </trkpt>
      <trkpt lat="44.74236" lon="6.69315">
        <ele>2322.68</ele>
        <time>2018-09-16T10:57:29Z</time>
      </trkpt>
      <trkpt lat="44.74226" lon="6.69315">
        <ele>2320.28</ele>
        <time>2018-09-16T10:57:42Z</time>
      </trkpt>
      <trkpt lat="44.7422" lon="6.69325">
        <ele>2318.84</ele>
        <time>2018-09-16T10:57:52Z</time>
      </trkpt>
      <trkpt lat="44.74213" lon="6.69331">
        <ele>2317.4</ele>
        <time>2018-09-16T10:58:02Z</time>
      </trkpt>
      <trkpt lat="44.74202" lon="6.69331">
        <ele>2315.95</ele>
        <time>2018-09-16T10:58:14Z</time>
      </trkpt>
      <trkpt lat="44.74192" lon="6.69331">
        <ele>2314.03</ele>
        <time>2018-09-16T10:58:24Z</time>
      </trkpt>
      <trkpt lat="44.74184" lon="6.69333">
        <ele>2313.07</ele>
        <time>2018-09-16T10:58:41Z</time>
      </trkpt>
      <trkpt lat="44.74175" lon="6.69333">
        <ele>2313.07</ele>
        <time>2018-09-16T10:58:51Z</time>
      </trkpt>
      <trkpt lat="44.74165" lon="6.69337">
        <ele>2312.11</ele>
        <time>2018-09-16T10:59:02Z</time>
      </trkpt>
      <trkpt lat="44.74157" lon="6.69342">
        <ele>2310.67</ele>
        <time>2018-09-16T10:59:13Z</time>
      </trkpt>
      <trkpt lat="44.74149" lon="6.69347">
        <ele>2310.19</ele>
        <time>2018-09-16T10:59:25Z</time>
      </trkpt>
      <trkpt lat="44.74139" lon="6.69344">
        <ele>2309.7</ele>
        <time>2018-09-16T10:59:36Z</time>
      </trkpt>
      <trkpt lat="44.74132" lon="6.69352">
        <ele>2307.78</ele>
        <time>2018-09-16T10:59:47Z</time>
      </trkpt>
      <trkpt lat="44.74122" lon="6.69357">
        <ele>2306.82</ele>
        <time>2018-09-16T10:59:56Z</time>
      </trkpt>
      <trkpt lat="44.74112" lon="6.69356">
        <ele>2305.86</ele>
        <time>2018-09-16T11:00:07Z</time>
      </trkpt>
      <trkpt lat="44.74104" lon="6.69351">
        <ele>2305.38</ele>
        <time>2018-09-16T11:00:18Z</time>
      </trkpt>
      <trkpt lat="44.74096" lon="6.69345">
        <ele>2304.42</ele>
        <time>2018-09-16T11:00:31Z</time>
      </trkpt>
      <trkpt lat="44.74087" lon="6.69345">
        <ele>2304.42</ele>
        <time>2018-09-16T11:00:45Z</time>
      </trkpt>
      <trkpt lat="44.74077" lon="6.69347">
        <ele>2304.42</ele>
        <time>2018-09-16T11:00:55Z</time>
      </trkpt>
      <trkpt lat="44.74068" lon="6.69351">
        <ele>2304.42</ele>
        <time>2018-09-16T11:01:05Z</time>
      </trkpt>
      <trkpt lat="44.74058" lon="6.69355">
        <ele>2303.46</ele>
        <time>2018-09-16T11:01:14Z</time>
      </trkpt>
      <trkpt lat="44.74049" lon="6.69352">
        <ele>2302.49</ele>
        <time>2018-09-16T11:01:24Z</time>
      </trkpt>
      <trkpt lat="44.74039" lon="6.69351">
        <ele>2300.09</ele>
        <time>2018-09-16T11:01:36Z</time>
      </trkpt>
      <trkpt lat="44.74031" lon="6.69356">
        <ele>2298.65</ele>
        <time>2018-09-16T11:01:48Z</time>
      </trkpt>
      <trkpt lat="44.74023" lon="6.69359">
        <ele>2295.77</ele>
        <time>2018-09-16T11:02:00Z</time>
      </trkpt>
      <trkpt lat="44.74013" lon="6.69358">
        <ele>2294.32</ele>
        <time>2018-09-16T11:02:12Z</time>
      </trkpt>
      <trkpt lat="44.74003" lon="6.69357">
        <ele>2290.96</ele>
        <time>2018-09-16T11:02:24Z</time>
      </trkpt>
      <trkpt lat="44.73992" lon="6.69355">
        <ele>2289.52</ele>
        <time>2018-09-16T11:02:36Z</time>
      </trkpt>
      <trkpt lat="44.73986" lon="6.6936">
        <ele>2287.59</ele>
        <time>2018-09-16T11:02:46Z</time>
      </trkpt>
      <trkpt lat="44.73977" lon="6.69363">
        <ele>2285.19</ele>
        <time>2018-09-16T11:02:57Z</time>
      </trkpt>
      <trkpt lat="44.73972" lon="6.6937">
        <ele>2282.79</ele>
        <time>2018-09-16T11:03:09Z</time>
      </trkpt>
      <trkpt lat="44.73966" lon="6.69379">
        <ele>2280.38</ele>
        <time>2018-09-16T11:03:22Z</time>
      </trkpt>
      <trkpt lat="44.73958" lon="6.6939">
        <ele>2277.5</ele>
        <time>2018-09-16T11:03:37Z</time>
      </trkpt>
      <trkpt lat="44.73951" lon="6.69397">
        <ele>2276.06</ele>
        <time>2018-09-16T11:03:48Z</time>
      </trkpt>
      <trkpt lat="44.73943" lon="6.69392">
        <ele>2273.66</ele>
        <time>2018-09-16T11:04:00Z</time>
      </trkpt>
      <trkpt lat="44.73937" lon="6.69389">
        <ele>2271.25</ele>
        <time>2018-09-16T11:04:13Z</time>
      </trkpt>
      <trkpt lat="44.7393" lon="6.69397">
        <ele>2270.77</ele>
        <time>2018-09-16T11:04:24Z</time>
      </trkpt>
      <trkpt lat="44.73921" lon="6.69396">
        <ele>2271.25</ele>
        <time>2018-09-16T11:04:36Z</time>
      </trkpt>
      <trkpt lat="44.73911" lon="6.69389">
        <ele>2270.77</ele>
        <time>2018-09-16T11:04:46Z</time>
      </trkpt>
      <trkpt lat="44.73904" lon="6.6938">
        <ele>2269.33</ele>
        <time>2018-09-16T11:04:56Z</time>
      </trkpt>
      <trkpt lat="44.73896" lon="6.69374">
        <ele>2268.85</ele>
        <time>2018-09-16T11:05:05Z</time>
      </trkpt>
      <trkpt lat="44.73885" lon="6.69372">
        <ele>2267.89</ele>
        <time>2018-09-16T11:05:14Z</time>
      </trkpt>
      <trkpt lat="44.73875" lon="6.69376">
        <ele>2266.93</ele>
        <time>2018-09-16T11:05:22Z</time>
      </trkpt>
      <trkpt lat="44.73868" lon="6.69386">
        <ele>2267.41</ele>
        <time>2018-09-16T11:05:32Z</time>
      </trkpt>
      <trkpt lat="44.73863" lon="6.69394">
        <ele>2268.85</ele>
        <time>2018-09-16T11:05:43Z</time>
      </trkpt>
      <trkpt lat="44.73854" lon="6.69394">
        <ele>2270.29</ele>
        <time>2018-09-16T11:05:52Z</time>
      </trkpt>
      <trkpt lat="44.73846" lon="6.694">
        <ele>2270.77</ele>
        <time>2018-09-16T11:06:03Z</time>
      </trkpt>
      <trkpt lat="44.73843" lon="6.69411">
        <ele>2271.25</ele>
        <time>2018-09-16T11:06:15Z</time>
      </trkpt>
      <trkpt lat="44.73841" lon="6.69422">
        <ele>2268.37</ele>
        <time>2018-09-16T11:06:26Z</time>
      </trkpt>
      <trkpt lat="44.73837" lon="6.69433">
        <ele>2265.48</ele>
        <time>2018-09-16T11:06:39Z</time>
      </trkpt>
      <trkpt lat="44.73826" lon="6.69432">
        <ele>2263.56</ele>
        <time>2018-09-16T11:06:50Z</time>
      </trkpt>
      <trkpt lat="44.73818" lon="6.69437">
        <ele>2263.08</ele>
        <time>2018-09-16T11:07:01Z</time>
      </trkpt>
      <trkpt lat="44.7381" lon="6.69441">
        <ele>2262.12</ele>
        <time>2018-09-16T11:07:12Z</time>
      </trkpt>
      <trkpt lat="44.73801" lon="6.69441">
        <ele>2261.64</ele>
        <time>2018-09-16T11:07:23Z</time>
      </trkpt>
      <trkpt lat="44.73792" lon="6.69446">
        <ele>2260.2</ele>
        <time>2018-09-16T11:07:32Z</time>
      </trkpt>
      <trkpt lat="44.73784" lon="6.69453">
        <ele>2261.16</ele>
        <time>2018-09-16T11:07:42Z</time>
      </trkpt>
      <trkpt lat="44.73776" lon="6.69458">
        <ele>2261.64</ele>
        <time>2018-09-16T11:07:52Z</time>
      </trkpt>
      <trkpt lat="44.73767" lon="6.69463">
        <ele>2263.08</ele>
        <time>2018-09-16T11:08:03Z</time>
      </trkpt>
      <trkpt lat="44.73758" lon="6.69467">
        <ele>2264.04</ele>
        <time>2018-09-16T11:08:13Z</time>
      </trkpt>
      <trkpt lat="44.73751" lon="6.69475">
        <ele>2263.56</ele>
        <time>2018-09-16T11:08:22Z</time>
      </trkpt>
      <trkpt lat="44.7374" lon="6.69478">
        <ele>2264.52</ele>
        <time>2018-09-16T11:08:32Z</time>
      </trkpt>
      <trkpt lat="44.73729" lon="6.69485">
        <ele>2265</ele>
        <time>2018-09-16T11:08:41Z</time>
      </trkpt>
      <trkpt lat="44.73721" lon="6.69484">
        <ele>2265.96</ele>
        <time>2018-09-16T11:08:50Z</time>
      </trkpt>
      <trkpt lat="44.73712" lon="6.69487">
        <ele>2267.89</ele>
        <time>2018-09-16T11:09:00Z</time>
      </trkpt>
      <trkpt lat="44.73704" lon="6.69493">
        <ele>2268.37</ele>
        <time>2018-09-16T11:09:11Z</time>
      </trkpt>
      <trkpt lat="44.73696" lon="6.69496">
        <ele>2269.33</ele>
        <time>2018-09-16T11:09:22Z</time>
      </trkpt>
      <trkpt lat="44.73692" lon="6.6951">
        <ele>2269.81</ele>
        <time>2018-09-16T11:09:35Z</time>
      </trkpt>
      <trkpt lat="44.73687" lon="6.69521">
        <ele>2269.33</ele>
        <time>2018-09-16T11:09:44Z</time>
      </trkpt>
      <trkpt lat="44.73679" lon="6.69528">
        <ele>2270.29</ele>
        <time>2018-09-16T11:09:56Z</time>
      </trkpt>
      <trkpt lat="44.7367" lon="6.6953">
        <ele>2271.25</ele>
        <time>2018-09-16T11:10:06Z</time>
      </trkpt>
      <trkpt lat="44.73661" lon="6.69526">
        <ele>2271.73</ele>
        <time>2018-09-16T11:10:16Z</time>
      </trkpt>
      <trkpt lat="44.73652" lon="6.69521">
        <ele>2272.21</ele>
        <time>2018-09-16T11:10:26Z</time>
      </trkpt>
      <trkpt lat="44.73642" lon="6.69523">
        <ele>2272.21</ele>
        <time>2018-09-16T11:10:37Z</time>
      </trkpt>
      <trkpt lat="44.73634" lon="6.69529">
        <ele>2269.33</ele>
        <time>2018-09-16T11:10:47Z</time>
      </trkpt>
      <trkpt lat="44.73626" lon="6.69525">
        <ele>2268.85</ele>
        <time>2018-09-16T11:11:04Z</time>
      </trkpt>
      <trkpt lat="44.73615" lon="6.69521">
        <ele>2267.89</ele>
        <time>2018-09-16T11:11:13Z</time>
      </trkpt>
      <trkpt lat="44.73606" lon="6.69518">
        <ele>2266.45</ele>
        <time>2018-09-16T11:11:23Z</time>
      </trkpt>
      <trkpt lat="44.73597" lon="6.69519">
        <ele>2266.45</ele>
        <time>2018-09-16T11:11:33Z</time>
      </trkpt>
      <trkpt lat="44.7359" lon="6.69524">
        <ele>2266.45</ele>
        <time>2018-09-16T11:11:44Z</time>
      </trkpt>
      <trkpt lat="44.73579" lon="6.69524">
        <ele>2265.48</ele>
        <time>2018-09-16T11:11:53Z</time>
      </trkpt>
      <trkpt lat="44.7357" lon="6.69528">
        <ele>2264.52</ele>
        <time>2018-09-16T11:12:03Z</time>
      </trkpt>
      <trkpt lat="44.73562" lon="6.69533">
        <ele>2265.48</ele>
        <time>2018-09-16T11:12:13Z</time>
      </trkpt>
      <trkpt lat="44.73554" lon="6.6954">
        <ele>2265</ele>
        <time>2018-09-16T11:12:24Z</time>
      </trkpt>
      <trkpt lat="44.73546" lon="6.69548">
        <ele>2264.52</ele>
        <time>2018-09-16T11:12:34Z</time>
      </trkpt>
      <trkpt lat="44.73537" lon="6.69553">
        <ele>2264.52</ele>
        <time>2018-09-16T11:12:43Z</time>
      </trkpt>
      <trkpt lat="44.73527" lon="6.69556">
        <ele>2264.52</ele>
        <time>2018-09-16T11:12:53Z</time>
      </trkpt>
      <trkpt lat="44.73517" lon="6.69558">
        <ele>2265</ele>
        <time>2018-09-16T11:13:03Z</time>
      </trkpt>
      <trkpt lat="44.73508" lon="6.69561">
        <ele>2263.08</ele>
        <time>2018-09-16T11:13:12Z</time>
      </trkpt>
      <trkpt lat="44.73499" lon="6.69567">
        <ele>2263.08</ele>
        <time>2018-09-16T11:13:22Z</time>
      </trkpt>
      <trkpt lat="44.73494" lon="6.69575">
        <ele>2263.08</ele>
        <time>2018-09-16T11:13:40Z</time>
      </trkpt>
      <trkpt lat="44.73484" lon="6.69579">
        <ele>2262.6</ele>
        <time>2018-09-16T11:13:49Z</time>
      </trkpt>
      <trkpt lat="44.73473" lon="6.69578">
        <ele>2261.64</ele>
        <time>2018-09-16T11:13:58Z</time>
      </trkpt>
      <trkpt lat="44.73463" lon="6.69573">
        <ele>2261.64</ele>
        <time>2018-09-16T11:14:08Z</time>
      </trkpt>
      <trkpt lat="44.73455" lon="6.69569">
        <ele>2262.12</ele>
        <time>2018-09-16T11:14:17Z</time>
      </trkpt>
      <trkpt lat="44.73445" lon="6.6957">
        <ele>2260.68</ele>
        <time>2018-09-16T11:14:26Z</time>
      </trkpt>
      <trkpt lat="44.73437" lon="6.69574">
        <ele>2259.72</ele>
        <time>2018-09-16T11:14:34Z</time>
      </trkpt>
      <trkpt lat="44.73427" lon="6.69577">
        <ele>2258.27</ele>
        <time>2018-09-16T11:14:42Z</time>
      </trkpt>
      <trkpt lat="44.73418" lon="6.6958">
        <ele>2257.31</ele>
        <time>2018-09-16T11:14:50Z</time>
      </trkpt>
      <trkpt lat="44.73408" lon="6.69579">
        <ele>2258.27</ele>
        <time>2018-09-16T11:15:00Z</time>
      </trkpt>
      <trkpt lat="44.73401" lon="6.69576">
        <ele>2259.72</ele>
        <time>2018-09-16T11:15:11Z</time>
      </trkpt>
      <trkpt lat="44.73393" lon="6.69571">
        <ele>2259.24</ele>
        <time>2018-09-16T11:15:21Z</time>
      </trkpt>
      <trkpt lat="44.73384" lon="6.69568">
        <ele>2257.79</ele>
        <time>2018-09-16T11:15:30Z</time>
      </trkpt>
      <trkpt lat="44.73376" lon="6.69562">
        <ele>2257.31</ele>
        <time>2018-09-16T11:15:39Z</time>
      </trkpt>
      <trkpt lat="44.73368" lon="6.69558">
        <ele>2256.83</ele>
        <time>2018-09-16T11:15:48Z</time>
      </trkpt>
      <trkpt lat="44.73358" lon="6.69555">
        <ele>2256.83</ele>
        <time>2018-09-16T11:15:59Z</time>
      </trkpt>
      <trkpt lat="44.73349" lon="6.69553">
        <ele>2255.39</ele>
        <time>2018-09-16T11:16:15Z</time>
      </trkpt>
      <trkpt lat="44.73342" lon="6.69546">
        <ele>2254.43</ele>
        <time>2018-09-16T11:16:26Z</time>
      </trkpt>
      <trkpt lat="44.73332" lon="6.69542">
        <ele>2253.47</ele>
        <time>2018-09-16T11:16:37Z</time>
      </trkpt>
      <trkpt lat="44.73324" lon="6.69543">
        <ele>2252.51</ele>
        <time>2018-09-16T11:17:04Z</time>
      </trkpt>
      <trkpt lat="44.73316" lon="6.69533">
        <ele>2251.54</ele>
        <time>2018-09-16T11:17:16Z</time>
      </trkpt>
      <trkpt lat="44.73306" lon="6.69528">
        <ele>2250.58</ele>
        <time>2018-09-16T11:17:27Z</time>
      </trkpt>
      <trkpt lat="44.73298" lon="6.6952">
        <ele>2250.1</ele>
        <time>2018-09-16T11:17:37Z</time>
      </trkpt>
      <trkpt lat="44.73291" lon="6.69509">
        <ele>2249.62</ele>
        <time>2018-09-16T11:17:57Z</time>
      </trkpt>
      <trkpt lat="44.73282" lon="6.69507">
        <ele>2249.14</ele>
        <time>2018-09-16T11:18:07Z</time>
      </trkpt>
      <trkpt lat="44.73278" lon="6.69498">
        <ele>2248.18</ele>
        <time>2018-09-16T11:18:17Z</time>
      </trkpt>
      <trkpt lat="44.73276" lon="6.69486">
        <ele>2246.74</ele>
        <time>2018-09-16T11:18:27Z</time>
      </trkpt>
      <trkpt lat="44.73271" lon="6.69474">
        <ele>2244.33</ele>
        <time>2018-09-16T11:18:36Z</time>
      </trkpt>
      <trkpt lat="44.73265" lon="6.69464">
        <ele>2245.3</ele>
        <time>2018-09-16T11:18:46Z</time>
      </trkpt>
      <trkpt lat="44.73259" lon="6.69452">
        <ele>2243.85</ele>
        <time>2018-09-16T11:18:57Z</time>
      </trkpt>
      <trkpt lat="44.73252" lon="6.69448">
        <ele>2241.93</ele>
        <time>2018-09-16T11:19:31Z</time>
      </trkpt>
      <trkpt lat="44.73243" lon="6.69449">
        <ele>2241.93</ele>
        <time>2018-09-16T11:19:42Z</time>
      </trkpt>
      <trkpt lat="44.73234" lon="6.69457">
        <ele>2242.41</ele>
        <time>2018-09-16T11:19:53Z</time>
      </trkpt>
      <trkpt lat="44.73227" lon="6.69459">
        <ele>2240.49</ele>
        <time>2018-09-16T11:20:03Z</time>
      </trkpt>
      <trkpt lat="44.73219" lon="6.69458">
        <ele>2238.57</ele>
        <time>2018-09-16T11:20:24Z</time>
      </trkpt>
      <trkpt lat="44.7321" lon="6.69462">
        <ele>2238.09</ele>
        <time>2018-09-16T11:20:36Z</time>
      </trkpt>
      <trkpt lat="44.73203" lon="6.69471">
        <ele>2238.09</ele>
        <time>2018-09-16T11:20:47Z</time>
      </trkpt>
      <trkpt lat="44.73194" lon="6.69471">
        <ele>2238.57</ele>
        <time>2018-09-16T11:21:00Z</time>
      </trkpt>
      <trkpt lat="44.73187" lon="6.69466">
        <ele>2238.57</ele>
        <time>2018-09-16T11:21:14Z</time>
      </trkpt>
      <trkpt lat="44.73177" lon="6.69467">
        <ele>2237.61</ele>
        <time>2018-09-16T11:21:41Z</time>
      </trkpt>
      <trkpt lat="44.73166" lon="6.69465">
        <ele>2236.64</ele>
        <time>2018-09-16T11:21:53Z</time>
      </trkpt>
      <trkpt lat="44.73159" lon="6.69458">
        <ele>2235.68</ele>
        <time>2018-09-16T11:22:13Z</time>
      </trkpt>
      <trkpt lat="44.73149" lon="6.6946">
        <ele>2235.2</ele>
        <time>2018-09-16T11:22:24Z</time>
      </trkpt>
      <trkpt lat="44.73138" lon="6.69459">
        <ele>2235.2</ele>
        <time>2018-09-16T11:22:38Z</time>
      </trkpt>
      <trkpt lat="44.73129" lon="6.69453">
        <ele>2235.68</ele>
        <time>2018-09-16T11:23:08Z</time>
      </trkpt>
      <trkpt lat="44.7312" lon="6.6945">
        <ele>2235.68</ele>
        <time>2018-09-16T11:23:17Z</time>
      </trkpt>
      <trkpt lat="44.73111" lon="6.69445">
        <ele>2234.24</ele>
        <time>2018-09-16T11:23:26Z</time>
      </trkpt>
      <trkpt lat="44.73102" lon="6.69445">
        <ele>2235.2</ele>
        <time>2018-09-16T11:23:37Z</time>
      </trkpt>
      <trkpt lat="44.73094" lon="6.69441">
        <ele>2235.2</ele>
        <time>2018-09-16T11:23:48Z</time>
      </trkpt>
      <trkpt lat="44.73085" lon="6.69438">
        <ele>2233.76</ele>
        <time>2018-09-16T11:23:57Z</time>
      </trkpt>
      <trkpt lat="44.73077" lon="6.69436">
        <ele>2233.28</ele>
        <time>2018-09-16T11:24:07Z</time>
      </trkpt>
      <trkpt lat="44.7307" lon="6.69435">
        <ele>2234.24</ele>
        <time>2018-09-16T11:25:00Z</time>
      </trkpt>
      <trkpt lat="44.7306" lon="6.69433">
        <ele>2233.28</ele>
        <time>2018-09-16T11:25:11Z</time>
      </trkpt>
      <trkpt lat="44.73051" lon="6.69439">
        <ele>2232.8</ele>
        <time>2018-09-16T11:25:22Z</time>
      </trkpt>
      <trkpt lat="44.73043" lon="6.69445">
        <ele>2231.84</ele>
        <time>2018-09-16T11:25:34Z</time>
      </trkpt>
      <trkpt lat="44.73047" lon="6.69445">
        <ele>2232.8</ele>
        <time>2018-09-16T11:29:49Z</time>
      </trkpt>
      <trkpt lat="44.73055" lon="6.69452">
        <ele>2235.2</ele>
        <time>2018-09-16T11:30:02Z</time>
      </trkpt>
      <trkpt lat="44.7306" lon="6.6946">
        <ele>2237.13</ele>
        <time>2018-09-16T11:30:17Z</time>
      </trkpt>
      <trkpt lat="44.73067" lon="6.6947">
        <ele>2239.53</ele>
        <time>2018-09-16T11:30:39Z</time>
      </trkpt>
      <trkpt lat="44.73071" lon="6.69473">
        <ele>2240.01</ele>
        <time>2018-09-16T11:32:11Z</time>
      </trkpt>
      <trkpt lat="44.73076" lon="6.69477">
        <ele>2238.57</ele>
        <time>2018-09-16T11:47:18Z</time>
      </trkpt>
      <trkpt lat="44.73084" lon="6.69483">
        <ele>2239.05</ele>
        <time>2018-09-16T11:47:30Z</time>
      </trkpt>
      <trkpt lat="44.73092" lon="6.6949">
        <ele>2240.97</ele>
        <time>2018-09-16T11:47:43Z</time>
      </trkpt>
      <trkpt lat="44.731" lon="6.69498">
        <ele>2242.41</ele>
        <time>2018-09-16T11:47:55Z</time>
      </trkpt>
      <trkpt lat="44.73105" lon="6.6951">
        <ele>2244.82</ele>
        <time>2018-09-16T11:48:08Z</time>
      </trkpt>
      <trkpt lat="44.73111" lon="6.6952">
        <ele>2245.78</ele>
        <time>2018-09-16T11:48:20Z</time>
      </trkpt>
      <trkpt lat="44.73117" lon="6.69531">
        <ele>2247.7</ele>
        <time>2018-09-16T11:48:33Z</time>
      </trkpt>
      <trkpt lat="44.73122" lon="6.69543">
        <ele>2250.1</ele>
        <time>2018-09-16T11:48:46Z</time>
      </trkpt>
      <trkpt lat="44.73125" lon="6.69555">
        <ele>2251.54</ele>
        <time>2018-09-16T11:48:57Z</time>
      </trkpt>
      <trkpt lat="44.73129" lon="6.69567">
        <ele>2252.99</ele>
        <time>2018-09-16T11:49:10Z</time>
      </trkpt>
      <trkpt lat="44.73136" lon="6.69577">
        <ele>2254.91</ele>
        <time>2018-09-16T11:49:22Z</time>
      </trkpt>
      <trkpt lat="44.73136" lon="6.69591">
        <ele>2256.35</ele>
        <time>2018-09-16T11:49:34Z</time>
      </trkpt>
      <trkpt lat="44.73139" lon="6.69604">
        <ele>2257.31</ele>
        <time>2018-09-16T11:49:45Z</time>
      </trkpt>
      <trkpt lat="44.7314" lon="6.69618">
        <ele>2258.75</ele>
        <time>2018-09-16T11:49:57Z</time>
      </trkpt>
      <trkpt lat="44.73139" lon="6.69631">
        <ele>2260.2</ele>
        <time>2018-09-16T11:50:08Z</time>
      </trkpt>
      <trkpt lat="44.7314" lon="6.69645">
        <ele>2261.64</ele>
        <time>2018-09-16T11:50:18Z</time>
      </trkpt>
      <trkpt lat="44.73141" lon="6.69659">
        <ele>2262.12</ele>
        <time>2018-09-16T11:50:28Z</time>
      </trkpt>
      <trkpt lat="44.7314" lon="6.69672">
        <ele>2262.6</ele>
        <time>2018-09-16T11:50:38Z</time>
      </trkpt>
      <trkpt lat="44.73139" lon="6.69686">
        <ele>2265</ele>
        <time>2018-09-16T11:50:48Z</time>
      </trkpt>
      <trkpt lat="44.73141" lon="6.69699">
        <ele>2266.45</ele>
        <time>2018-09-16T11:50:59Z</time>
      </trkpt>
      <trkpt lat="44.73141" lon="6.69714">
        <ele>2267.89</ele>
        <time>2018-09-16T11:51:10Z</time>
      </trkpt>
      <trkpt lat="44.73144" lon="6.69724">
        <ele>2269.81</ele>
        <time>2018-09-16T11:51:21Z</time>
      </trkpt>
      <trkpt lat="44.73143" lon="6.69737">
        <ele>2271.73</ele>
        <time>2018-09-16T11:51:35Z</time>
      </trkpt>
      <trkpt lat="44.73142" lon="6.69751">
        <ele>2274.14</ele>
        <time>2018-09-16T11:51:55Z</time>
      </trkpt>
      <trkpt lat="44.73146" lon="6.69763">
        <ele>2276.54</ele>
        <time>2018-09-16T11:52:20Z</time>
      </trkpt>
      <trkpt lat="44.73148" lon="6.69778">
        <ele>2278.46</ele>
        <time>2018-09-16T11:52:32Z</time>
      </trkpt>
      <trkpt lat="44.7315" lon="6.69791">
        <ele>2280.38</ele>
        <time>2018-09-16T11:52:43Z</time>
      </trkpt>
      <trkpt lat="44.73146" lon="6.69801">
        <ele>2281.35</ele>
        <time>2018-09-16T11:53:01Z</time>
      </trkpt>
      <trkpt lat="44.73142" lon="6.69815">
        <ele>2282.79</ele>
        <time>2018-09-16T11:53:12Z</time>
      </trkpt>
      <trkpt lat="44.73135" lon="6.69826">
        <ele>2283.75</ele>
        <time>2018-09-16T11:53:22Z</time>
      </trkpt>
      <trkpt lat="44.7313" lon="6.69839">
        <ele>2283.75</ele>
        <time>2018-09-16T11:53:33Z</time>
      </trkpt>
      <trkpt lat="44.73127" lon="6.69851">
        <ele>2285.67</ele>
        <time>2018-09-16T11:53:46Z</time>
      </trkpt>
      <trkpt lat="44.73127" lon="6.69863">
        <ele>2286.63</ele>
        <time>2018-09-16T11:53:57Z</time>
      </trkpt>
      <trkpt lat="44.73129" lon="6.69876">
        <ele>2287.59</ele>
        <time>2018-09-16T11:54:14Z</time>
      </trkpt>
      <trkpt lat="44.73132" lon="6.69889">
        <ele>2288.56</ele>
        <time>2018-09-16T11:54:43Z</time>
      </trkpt>
      <trkpt lat="44.73133" lon="6.69904">
        <ele>2290</ele>
        <time>2018-09-16T11:54:55Z</time>
      </trkpt>
      <trkpt lat="44.73133" lon="6.69917">
        <ele>2291.44</ele>
        <time>2018-09-16T11:55:37Z</time>
      </trkpt>
      <trkpt lat="44.73129" lon="6.69929">
        <ele>2292.88</ele>
        <time>2018-09-16T11:55:50Z</time>
      </trkpt>
      <trkpt lat="44.73129" lon="6.69939">
        <ele>2293.84</ele>
        <time>2018-09-16T11:56:01Z</time>
      </trkpt>
      <trkpt lat="44.7313" lon="6.69952">
        <ele>2295.77</ele>
        <time>2018-09-16T11:56:14Z</time>
      </trkpt>
      <trkpt lat="44.73131" lon="6.69967">
        <ele>2297.69</ele>
        <time>2018-09-16T11:56:26Z</time>
      </trkpt>
      <trkpt lat="44.73131" lon="6.69981">
        <ele>2299.61</ele>
        <time>2018-09-16T11:56:39Z</time>
      </trkpt>
      <trkpt lat="44.73132" lon="6.69994">
        <ele>2299.13</ele>
        <time>2018-09-16T11:56:51Z</time>
      </trkpt>
      <trkpt lat="44.73125" lon="6.70002">
        <ele>2299.61</ele>
        <time>2018-09-16T11:57:05Z</time>
      </trkpt>
      <trkpt lat="44.73118" lon="6.7001">
        <ele>2299.61</ele>
        <time>2018-09-16T11:57:14Z</time>
      </trkpt>
      <trkpt lat="44.73108" lon="6.70014">
        <ele>2298.65</ele>
        <time>2018-09-16T11:57:24Z</time>
      </trkpt>
      <trkpt lat="44.731" lon="6.7002">
        <ele>2298.65</ele>
        <time>2018-09-16T11:57:33Z</time>
      </trkpt>
      <trkpt lat="44.73092" lon="6.70028">
        <ele>2298.65</ele>
        <time>2018-09-16T11:57:43Z</time>
      </trkpt>
      <trkpt lat="44.73083" lon="6.70034">
        <ele>2298.17</ele>
        <time>2018-09-16T11:58:14Z</time>
      </trkpt>
      <trkpt lat="44.73072" lon="6.70038">
        <ele>2298.17</ele>
        <time>2018-09-16T11:58:25Z</time>
      </trkpt>
      <trkpt lat="44.73064" lon="6.70041">
        <ele>2297.69</ele>
        <time>2018-09-16T11:58:35Z</time>
      </trkpt>
      <trkpt lat="44.73057" lon="6.70046">
        <ele>2297.21</ele>
        <time>2018-09-16T11:58:55Z</time>
      </trkpt>
      <trkpt lat="44.73049" lon="6.70052">
        <ele>2296.25</ele>
        <time>2018-09-16T11:59:07Z</time>
      </trkpt>
      <trkpt lat="44.73042" lon="6.70058">
        <ele>2295.77</ele>
        <time>2018-09-16T11:59:28Z</time>
      </trkpt>
      <trkpt lat="44.73035" lon="6.70064">
        <ele>2293.84</ele>
        <time>2018-09-16T11:59:37Z</time>
      </trkpt>
      <trkpt lat="44.73032" lon="6.70074">
        <ele>2292.88</ele>
        <time>2018-09-16T11:59:46Z</time>
      </trkpt>
      <trkpt lat="44.73032" lon="6.70084">
        <ele>2291.44</ele>
        <time>2018-09-16T11:59:55Z</time>
      </trkpt>
      <trkpt lat="44.73036" lon="6.70096">
        <ele>2291.44</ele>
        <time>2018-09-16T12:00:04Z</time>
      </trkpt>
      <trkpt lat="44.73038" lon="6.70109">
        <ele>2292.4</ele>
        <time>2018-09-16T12:00:13Z</time>
      </trkpt>
      <trkpt lat="44.73036" lon="6.70122">
        <ele>2292.4</ele>
        <time>2018-09-16T12:00:21Z</time>
      </trkpt>
      <trkpt lat="44.73036" lon="6.70137">
        <ele>2291.92</ele>
        <time>2018-09-16T12:00:32Z</time>
      </trkpt>
      <trkpt lat="44.73027" lon="6.70144">
        <ele>2290.96</ele>
        <time>2018-09-16T12:00:41Z</time>
      </trkpt>
      <trkpt lat="44.73019" lon="6.70153">
        <ele>2290.96</ele>
        <time>2018-09-16T12:00:50Z</time>
      </trkpt>
      <trkpt lat="44.73012" lon="6.7016">
        <ele>2290.48</ele>
        <time>2018-09-16T12:01:04Z</time>
      </trkpt>
      <trkpt lat="44.73004" lon="6.70168">
        <ele>2290</ele>
        <time>2018-09-16T12:01:14Z</time>
      </trkpt>
      <trkpt lat="44.72993" lon="6.70172">
        <ele>2290</ele>
        <time>2018-09-16T12:01:23Z</time>
      </trkpt>
      <trkpt lat="44.72984" lon="6.70177">
        <ele>2290</ele>
        <time>2018-09-16T12:01:33Z</time>
      </trkpt>
      <trkpt lat="44.72975" lon="6.70183">
        <ele>2290.48</ele>
        <time>2018-09-16T12:01:43Z</time>
      </trkpt>
      <trkpt lat="44.72966" lon="6.70191">
        <ele>2290.96</ele>
        <time>2018-09-16T12:01:54Z</time>
      </trkpt>
      <trkpt lat="44.72957" lon="6.70195">
        <ele>2290.48</ele>
        <time>2018-09-16T12:02:07Z</time>
      </trkpt>
      <trkpt lat="44.72948" lon="6.70201">
        <ele>2290</ele>
        <time>2018-09-16T12:02:16Z</time>
      </trkpt>
      <trkpt lat="44.7294" lon="6.70206">
        <ele>2289.04</ele>
        <time>2018-09-16T12:02:27Z</time>
      </trkpt>
      <trkpt lat="44.72934" lon="6.70213">
        <ele>2289.04</ele>
        <time>2018-09-16T12:02:46Z</time>
      </trkpt>
      <trkpt lat="44.72925" lon="6.70223">
        <ele>2288.56</ele>
        <time>2018-09-16T12:03:01Z</time>
      </trkpt>
      <trkpt lat="44.72917" lon="6.70232">
        <ele>2288.56</ele>
        <time>2018-09-16T12:03:12Z</time>
      </trkpt>
      <trkpt lat="44.7291" lon="6.70241">
        <ele>2288.56</ele>
        <time>2018-09-16T12:03:22Z</time>
      </trkpt>
      <trkpt lat="44.72901" lon="6.70246">
        <ele>2288.08</ele>
        <time>2018-09-16T12:03:32Z</time>
      </trkpt>
      <trkpt lat="44.72894" lon="6.70256">
        <ele>2287.11</ele>
        <time>2018-09-16T12:03:42Z</time>
      </trkpt>
      <trkpt lat="44.7289" lon="6.70266">
        <ele>2285.67</ele>
        <time>2018-09-16T12:03:52Z</time>
      </trkpt>
      <trkpt lat="44.72888" lon="6.70277">
        <ele>2284.23</ele>
        <time>2018-09-16T12:04:02Z</time>
      </trkpt>
      <trkpt lat="44.72889" lon="6.70289">
        <ele>2284.71</ele>
        <time>2018-09-16T12:04:11Z</time>
      </trkpt>
      <trkpt lat="44.72892" lon="6.70301">
        <ele>2284.23</ele>
        <time>2018-09-16T12:04:21Z</time>
      </trkpt>
      <trkpt lat="44.72895" lon="6.70312">
        <ele>2283.75</ele>
        <time>2018-09-16T12:04:30Z</time>
      </trkpt>
      <trkpt lat="44.72897" lon="6.70326">
        <ele>2282.79</ele>
        <time>2018-09-16T12:04:39Z</time>
      </trkpt>
      <trkpt lat="44.72898" lon="6.70341">
        <ele>2282.79</ele>
        <time>2018-09-16T12:04:57Z</time>
      </trkpt>
      <trkpt lat="44.72897" lon="6.70354">
        <ele>2282.79</ele>
        <time>2018-09-16T12:05:06Z</time>
      </trkpt>
      <trkpt lat="44.72894" lon="6.70366">
        <ele>2282.31</ele>
        <time>2018-09-16T12:05:19Z</time>
      </trkpt>
      <trkpt lat="44.72902" lon="6.70376">
        <ele>2281.83</ele>
        <time>2018-09-16T12:05:30Z</time>
      </trkpt>
      <trkpt lat="44.72906" lon="6.70388">
        <ele>2281.35</ele>
        <time>2018-09-16T12:05:41Z</time>
      </trkpt>
      <trkpt lat="44.72911" lon="6.70401">
        <ele>2280.87</ele>
        <time>2018-09-16T12:05:51Z</time>
      </trkpt>
      <trkpt lat="44.72914" lon="6.70413">
        <ele>2280.87</ele>
        <time>2018-09-16T12:06:01Z</time>
      </trkpt>
      <trkpt lat="44.72921" lon="6.70423">
        <ele>2281.83</ele>
        <time>2018-09-16T12:06:11Z</time>
      </trkpt>
      <trkpt lat="44.72925" lon="6.70435">
        <ele>2282.31</ele>
        <time>2018-09-16T12:06:22Z</time>
      </trkpt>
      <trkpt lat="44.72927" lon="6.70449">
        <ele>2281.83</ele>
        <time>2018-09-16T12:06:32Z</time>
      </trkpt>
      <trkpt lat="44.72928" lon="6.70462">
        <ele>2282.31</ele>
        <time>2018-09-16T12:06:42Z</time>
      </trkpt>
      <trkpt lat="44.72928" lon="6.70475">
        <ele>2282.79</ele>
        <time>2018-09-16T12:06:52Z</time>
      </trkpt>
      <trkpt lat="44.7293" lon="6.70489">
        <ele>2283.75</ele>
        <time>2018-09-16T12:07:02Z</time>
      </trkpt>
      <trkpt lat="44.72929" lon="6.70502">
        <ele>2283.75</ele>
        <time>2018-09-16T12:07:13Z</time>
      </trkpt>
      <trkpt lat="44.72931" lon="6.70517">
        <ele>2283.75</ele>
        <time>2018-09-16T12:07:25Z</time>
      </trkpt>
      <trkpt lat="44.72933" lon="6.70529">
        <ele>2283.75</ele>
        <time>2018-09-16T12:07:38Z</time>
      </trkpt>
      <trkpt lat="44.72938" lon="6.70543">
        <ele>2284.23</ele>
        <time>2018-09-16T12:07:49Z</time>
      </trkpt>
      <trkpt lat="44.72938" lon="6.70557">
        <ele>2284.23</ele>
        <time>2018-09-16T12:08:01Z</time>
      </trkpt>
      <trkpt lat="44.72939" lon="6.70571">
        <ele>2284.23</ele>
        <time>2018-09-16T12:08:16Z</time>
      </trkpt>
      <trkpt lat="44.72934" lon="6.70583">
        <ele>2286.15</ele>
        <time>2018-09-16T12:08:28Z</time>
      </trkpt>
      <trkpt lat="44.72926" lon="6.70594">
        <ele>2286.15</ele>
        <time>2018-09-16T12:08:39Z</time>
      </trkpt>
      <trkpt lat="44.72919" lon="6.70601">
        <ele>2285.19</ele>
        <time>2018-09-16T12:08:50Z</time>
      </trkpt>
      <trkpt lat="44.72914" lon="6.70611">
        <ele>2284.71</ele>
        <time>2018-09-16T12:09:06Z</time>
      </trkpt>
      <trkpt lat="44.7291" lon="6.70625">
        <ele>2283.27</ele>
        <time>2018-09-16T12:09:15Z</time>
      </trkpt>
      <trkpt lat="44.72902" lon="6.70635">
        <ele>2281.35</ele>
        <time>2018-09-16T12:09:25Z</time>
      </trkpt>
      <trkpt lat="44.72895" lon="6.70644">
        <ele>2281.35</ele>
        <time>2018-09-16T12:09:36Z</time>
      </trkpt>
      <trkpt lat="44.72885" lon="6.7065">
        <ele>2280.38</ele>
        <time>2018-09-16T12:09:45Z</time>
      </trkpt>
      <trkpt lat="44.72882" lon="6.70664">
        <ele>2280.87</ele>
        <time>2018-09-16T12:09:54Z</time>
      </trkpt>
      <trkpt lat="44.72876" lon="6.70677">
        <ele>2281.83</ele>
        <time>2018-09-16T12:10:04Z</time>
      </trkpt>
      <trkpt lat="44.7287" lon="6.7069">
        <ele>2282.31</ele>
        <time>2018-09-16T12:10:20Z</time>
      </trkpt>
      <trkpt lat="44.72865" lon="6.70702">
        <ele>2283.75</ele>
        <time>2018-09-16T12:10:34Z</time>
      </trkpt>
      <trkpt lat="44.72859" lon="6.70713">
        <ele>2286.15</ele>
        <time>2018-09-16T12:11:01Z</time>
      </trkpt>
      <trkpt lat="44.72854" lon="6.70724">
        <ele>2287.11</ele>
        <time>2018-09-16T12:11:15Z</time>
      </trkpt>
      <trkpt lat="44.72852" lon="6.70737">
        <ele>2289.52</ele>
        <time>2018-09-16T12:11:30Z</time>
      </trkpt>
      <trkpt lat="44.72848" lon="6.70749">
        <ele>2290.96</ele>
        <time>2018-09-16T12:11:44Z</time>
      </trkpt>
      <trkpt lat="44.72847" lon="6.70762">
        <ele>2291.44</ele>
        <time>2018-09-16T12:11:56Z</time>
      </trkpt>
      <trkpt lat="44.72846" lon="6.70776">
        <ele>2289.52</ele>
        <time>2018-09-16T12:12:05Z</time>
      </trkpt>
      <trkpt lat="44.72845" lon="6.7079">
        <ele>2290</ele>
        <time>2018-09-16T12:12:15Z</time>
      </trkpt>
      <trkpt lat="44.72844" lon="6.70804">
        <ele>2289.52</ele>
        <time>2018-09-16T12:12:24Z</time>
      </trkpt>
      <trkpt lat="44.72844" lon="6.70819">
        <ele>2290</ele>
        <time>2018-09-16T12:12:35Z</time>
      </trkpt>
      <trkpt lat="44.72844" lon="6.70833">
        <ele>2290</ele>
        <time>2018-09-16T12:12:46Z</time>
      </trkpt>
      <trkpt lat="44.72843" lon="6.70847">
        <ele>2290.48</ele>
        <time>2018-09-16T12:12:57Z</time>
      </trkpt>
      <trkpt lat="44.72839" lon="6.70861">
        <ele>2290</ele>
        <time>2018-09-16T12:13:07Z</time>
      </trkpt>
      <trkpt lat="44.72835" lon="6.70875">
        <ele>2287.59</ele>
        <time>2018-09-16T12:13:18Z</time>
      </trkpt>
      <trkpt lat="44.72833" lon="6.7089">
        <ele>2289.04</ele>
        <time>2018-09-16T12:13:29Z</time>
      </trkpt>
      <trkpt lat="44.7283" lon="6.70904">
        <ele>2290.48</ele>
        <time>2018-09-16T12:13:39Z</time>
      </trkpt>
      <trkpt lat="44.72827" lon="6.70919">
        <ele>2290.96</ele>
        <time>2018-09-16T12:13:49Z</time>
      </trkpt>
      <trkpt lat="44.72827" lon="6.70933">
        <ele>2292.88</ele>
        <time>2018-09-16T12:14:00Z</time>
      </trkpt>
      <trkpt lat="44.72821" lon="6.70944">
        <ele>2291.92</ele>
        <time>2018-09-16T12:14:13Z</time>
      </trkpt>
      <trkpt lat="44.72817" lon="6.70956">
        <ele>2290.48</ele>
        <time>2018-09-16T12:14:21Z</time>
      </trkpt>
      <trkpt lat="44.72815" lon="6.70969">
        <ele>2288.56</ele>
        <time>2018-09-16T12:14:29Z</time>
      </trkpt>
      <trkpt lat="44.72815" lon="6.70981">
        <ele>2288.56</ele>
        <time>2018-09-16T12:14:37Z</time>
      </trkpt>
      <trkpt lat="44.72818" lon="6.70994">
        <ele>2288.08</ele>
        <time>2018-09-16T12:14:46Z</time>
      </trkpt>
      <trkpt lat="44.7282" lon="6.71008">
        <ele>2288.08</ele>
        <time>2018-09-16T12:14:55Z</time>
      </trkpt>
      <trkpt lat="44.7282" lon="6.71021">
        <ele>2288.56</ele>
        <time>2018-09-16T12:15:04Z</time>
      </trkpt>
      <trkpt lat="44.72822" lon="6.71033">
        <ele>2289.52</ele>
        <time>2018-09-16T12:15:13Z</time>
      </trkpt>
      <trkpt lat="44.72823" lon="6.71045">
        <ele>2290.48</ele>
        <time>2018-09-16T12:15:23Z</time>
      </trkpt>
      <trkpt lat="44.72821" lon="6.71058">
        <ele>2290</ele>
        <time>2018-09-16T12:15:32Z</time>
      </trkpt>
      <trkpt lat="44.72816" lon="6.7107">
        <ele>2291.44</ele>
        <time>2018-09-16T12:15:42Z</time>
      </trkpt>
      <trkpt lat="44.72815" lon="6.71083">
        <ele>2291.44</ele>
        <time>2018-09-16T12:15:51Z</time>
      </trkpt>
      <trkpt lat="44.72812" lon="6.71096">
        <ele>2292.88</ele>
        <time>2018-09-16T12:16:01Z</time>
      </trkpt>
      <trkpt lat="44.7281" lon="6.7111">
        <ele>2294.32</ele>
        <time>2018-09-16T12:16:10Z</time>
      </trkpt>
      <trkpt lat="44.72807" lon="6.71123">
        <ele>2295.77</ele>
        <time>2018-09-16T12:16:20Z</time>
      </trkpt>
      <trkpt lat="44.72799" lon="6.71131">
        <ele>2297.69</ele>
        <time>2018-09-16T12:16:31Z</time>
      </trkpt>
      <trkpt lat="44.72792" lon="6.71142">
        <ele>2299.13</ele>
        <time>2018-09-16T12:16:47Z</time>
      </trkpt>
      <trkpt lat="44.72785" lon="6.71151">
        <ele>2300.09</ele>
        <time>2018-09-16T12:16:57Z</time>
      </trkpt>
      <trkpt lat="44.72784" lon="6.71165">
        <ele>2299.13</ele>
        <time>2018-09-16T12:17:09Z</time>
      </trkpt>
      <trkpt lat="44.7278" lon="6.71176">
        <ele>2297.69</ele>
        <time>2018-09-16T12:17:17Z</time>
      </trkpt>
      <trkpt lat="44.72774" lon="6.71189">
        <ele>2297.69</ele>
        <time>2018-09-16T12:17:27Z</time>
      </trkpt>
      <trkpt lat="44.72767" lon="6.712">
        <ele>2294.32</ele>
        <time>2018-09-16T12:17:38Z</time>
      </trkpt>
      <trkpt lat="44.72764" lon="6.71201">
        <ele>2297.21</ele>
        <time>2018-09-16T12:17:49Z</time>
      </trkpt>
      <trkpt lat="44.72764" lon="6.712">
        <ele>2294.8</ele>
        <time>2018-09-16T12:18:02Z</time>
      </trkpt>
      <trkpt lat="44.72763" lon="6.71202">
        <ele>2248.66</ele>
        <time>2018-09-17T05:24:46Z</time>
      </trkpt>
    </trkseg>
  </trk>
</gpx>